Darstellungsparameter: Aktuell verwendete Einstellungen:
Skalierung der Graphiken ... ?
xyx+y,   Skalierungsfaktor:      Skalierung: Modus: x, Faktor: 1
Darstellungszeitraum ... ?
Vom - - bis: - -   Zeitraum: 25.10.2019 - 24.04.2020
Min/Max/Avg-Anzeige ... ?
Zeige MMA aktuell
Zeige MMA Monat
Zeige MMA alles
Zeige --A aktuell
Zeige --A Monat
Zeige --A alles
Keine MMA-Anzeige
MMA:
Keine MMA-Graphiken
MMA-Basis: 25.10.2019 - 24.04.2020
Quicknavigation für Darstellung... ?
Tage:      1T, 2T, 3T, 5T -1T -2T -3T -5T +1T +2T +3T +5T
Wochen: 1W, 2W, 3W -1W -2W -3W +1W +2W +3W
Monate: 1M, 3M, 6M -1M -3M -6M +1M +3M +6M
Jahre:    1J, 3J, 5J, 10J -1J -3J -5J -10J +1J +3J +5J +10J
Nutze für die Darstellung ... ?
Originaldaten oder Mittelwerte auf ...
Stundenbasis Tagesbasis Wochenbasis
Monatsbasis Jahresbasis      Datenbasis: Original-Daten
Darstellen als:
Statistik (Auto) Statistik J:M      Darstellung:
Zur Graphik,    zurück zur Übersicht aller Sensoren.
 
Tabellarische Datenbersicht: ?
 
Sensor: Nr:Datum:Temp:Feuchte:
Aussen-T/F 1 25-10-2019 00:07:17 11.6 C 32 %
2 25-10-2019 00:17:17 11.5 C 35 %
3 25-10-2019 00:27:17 11.3 C 35 %
4 25-10-2019 00:37:17 11.3 C 35 %
5 25-10-2019 00:47:18 11.3 C 35 %
6 25-10-2019 00:57:18 11.5 C 36 %
7 25-10-2019 01:07:17 11.3 C 35 %
8 25-10-2019 01:17:17 11.1 C 35 %
9 25-10-2019 01:27:17 11.2 C 36 %
10 25-10-2019 01:37:17 11.1 C 35 %
11 25-10-2019 01:47:17 11 C 34 %
12 25-10-2019 01:57:17 10.8 C 35 %
13 25-10-2019 02:07:17 10.8 C 35 %
14 25-10-2019 02:17:17 10.8 C 36 %
15 25-10-2019 02:27:17 10.9 C 35 %
16 25-10-2019 02:37:18 10.6 C 35 %
17 25-10-2019 02:47:17 11.8 C 35 %
18 25-10-2019 02:57:17 11.4 C 30 %
19 25-10-2019 03:07:17 11.3 C 30 %
20 25-10-2019 03:17:17 11.9 C 27 %
21 25-10-2019 03:27:17 12.4 C 25 %
22 25-10-2019 03:37:17 12 C 26 %
23 25-10-2019 03:47:17 12.5 C 26 %
24 25-10-2019 03:57:18 12.7 C 26 %
25 25-10-2019 04:07:17 12.1 C 26 %
Sensor: Nr:Datum:Temp:Feuchte:
Aussen-T/F 26 25-10-2019 04:17:17 12.4 C 26 %
27 25-10-2019 04:27:17 12.9 C 24 %
28 25-10-2019 04:37:17 13.3 C 20 %
29 25-10-2019 04:47:17 13.5 C 20 %
30 25-10-2019 04:57:17 12.3 C 25 %
31 25-10-2019 05:07:17 11.7 C 26 %
32 25-10-2019 05:17:17 11.7 C 26 %
33 25-10-2019 05:27:17 12.3 C 24 %
34 25-10-2019 05:37:18 12.8 C 22 %
35 25-10-2019 05:47:17 12.6 C 23 %
36 25-10-2019 05:57:17 12.1 C 25 %
37 25-10-2019 06:07:17 11.8 C 27 %
38 25-10-2019 06:17:17 11.8 C 27 %
39 25-10-2019 06:27:17 12.8 C 24 %
40 25-10-2019 06:37:18 13.5 C 20 %
41 25-10-2019 06:47:17 13.4 C 21 %
42 25-10-2019 06:57:17 13.2 C 21 %
43 25-10-2019 07:07:17 13.9 C 20 %
44 25-10-2019 07:17:17 12.7 C 23 %
45 25-10-2019 07:27:17 12.4 C 25 %
46 25-10-2019 07:37:17 12.7 C 25 %
47 25-10-2019 07:47:18 12.7 C 25 %
48 25-10-2019 07:57:18 12.8 C 23 %
49 25-10-2019 08:07:17 12.5 C 25 %
50 25-10-2019 08:17:17 12.2 C 25 %
Sensor: Nr:Datum:Temp:Feuchte:
Aussen-T/F 51 25-10-2019 08:27:17 11.9 C 28 %
52 25-10-2019 08:37:17 11.9 C 28 %
53 25-10-2019 08:47:18 11.8 C 29 %
54 25-10-2019 08:57:18 12 C 28 %
55 25-10-2019 09:07:17 12.1 C 28 %
56 25-10-2019 09:17:17 12.6 C 27 %
57 25-10-2019 09:27:17 13 C 24 %
58 25-10-2019 09:37:17 13.1 C 21 %
59 25-10-2019 09:47:17 13.5 C 20 %
60 25-10-2019 09:57:17 13.4 C 21 %
61 25-10-2019 10:07:18 13 C 23 %
62 25-10-2019 10:17:17 13 C 23 %
63 25-10-2019 10:27:17 13.9 C 20 %
64 25-10-2019 10:37:17 14.2 C 20 %
65 25-10-2019 10:47:17 14.4 C 20 %
66 25-10-2019 10:57:17 14.8 C 20 %
67 25-10-2019 11:07:17 14.8 C 20 %
68 25-10-2019 11:17:17 14.9 C 20 %
69 25-10-2019 11:27:17 15.1 C 20 %
70 25-10-2019 11:37:18 15 C 20 %
71 25-10-2019 11:47:17 15.1 C 20 %
72 25-10-2019 11:57:17 15.1 C 20 %
73 25-10-2019 12:07:17 15.2 C 20 %
74 25-10-2019 12:17:17 15.2 C 20 %
75 25-10-2019 12:27:17 15.3 C 20 %
Sensor: Nr:Datum:Temp:Feuchte:
Aussen-T/F 76 25-10-2019 12:37:17 15.4 C 20 %
77 25-10-2019 12:47:17 15.8 C 20 %
78 25-10-2019 12:57:18 16 C 20 %
79 25-10-2019 13:07:17 16.6 C 20 %
80 25-10-2019 13:17:17 16.6 C 20 %
81 25-10-2019 13:27:17 17.3 C 20 %
82 25-10-2019 13:37:17 16.7 C 20 %
83 25-10-2019 13:47:18 17.2 C 20 %
84 25-10-2019 13:57:18 17.1 C 20 %
85 25-10-2019 14:07:17 17.9 C 20 %
86 25-10-2019 14:17:17 17.5 C 20 %
87 25-10-2019 14:27:17 16.8 C 20 %
88 25-10-2019 14:37:17 16.9 C 20 %
89 25-10-2019 14:47:17 16.6 C 20 %
90 25-10-2019 14:57:18 16.7 C 20 %
91 25-10-2019 15:07:17 16.8 C 20 %
92 25-10-2019 15:17:17 16.7 C 20 %
93 25-10-2019 15:27:17 16.7 C 20 %
94 25-10-2019 15:37:17 16.8 C 20 %
95 25-10-2019 15:47:17 16.5 C 20 %
96 25-10-2019 15:57:17 16.8 C 20 %
97 25-10-2019 16:07:18 16.9 C 20 %
98 25-10-2019 16:17:17 16.6 C 20 %
99 25-10-2019 16:27:17 17 C 20 %
100 25-10-2019 16:37:17 16.7 C 20 %
Sensor: Nr:Datum:Temp:Feuchte:
Aussen-T/F 101 25-10-2019 16:47:18 16.6 C 20 %
102 25-10-2019 16:57:18 17.2 C 20 %
103 25-10-2019 17:07:17 17.1 C 20 %
104 25-10-2019 17:17:17 16 C 20 %
105 25-10-2019 17:27:17 15.7 C 20 %
106 25-10-2019 17:37:17 14.2 C 20 %
107 25-10-2019 17:47:17 13.6 C 20 %
108 25-10-2019 17:57:17 13.4 C 20 %
109 25-10-2019 18:07:17 12.8 C 20 %
110 25-10-2019 18:17:17 12.3 C 20 %
111 25-10-2019 18:27:17 12.3 C 20 %
112 25-10-2019 18:37:17 12.2 C 20 %
113 25-10-2019 18:47:18 11.8 C 22 %
114 25-10-2019 18:57:18 11.7 C 24 %
115 25-10-2019 19:07:17 11.7 C 25 %
116 25-10-2019 19:17:17 11.2 C 26 %
117 25-10-2019 19:27:17 11.1 C 27 %
118 25-10-2019 19:37:17 11.1 C 27 %
119 25-10-2019 19:47:18 11 C 28 %
120 25-10-2019 19:57:18 10.9 C 28 %
121 25-10-2019 20:07:17 11 C 28 %
122 25-10-2019 20:17:17 10.7 C 28 %
123 25-10-2019 20:27:17 10.6 C 28 %
124 25-10-2019 20:37:17 10.5 C 29 %
125 25-10-2019 20:47:18 10.5 C 30 %
Sensor: Nr:Datum:Temp:Feuchte:
Aussen-T/F 126 25-10-2019 20:57:18 10.6 C 30 %
127 25-10-2019 21:07:17 10.7 C 29 %
128 25-10-2019 21:17:17 10.3 C 30 %
129 25-10-2019 21:27:17 10.1 C 30 %
130 25-10-2019 21:37:17 10.3 C 32 %
131 25-10-2019 21:47:18 10 C 31 %
132 25-10-2019 21:57:18 10 C 33 %
133 25-10-2019 22:07:17 10.8 C 34 %
134 25-10-2019 22:17:17 11 C 30 %
135 25-10-2019 22:27:17 11 C 30 %
136 25-10-2019 22:37:17 11 C 29 %
137 25-10-2019 22:47:17 11.2 C 29 %
138 25-10-2019 22:57:17 11.5 C 28 %
139 25-10-2019 23:07:17 11.6 C 28 %
140 25-10-2019 23:17:17 12.2 C 25 %
141 25-10-2019 23:27:17 12.5 C 25 %
142 25-10-2019 23:37:17 12.5 C 24 %
143 25-10-2019 23:47:17 12.8 C 22 %
144 25-10-2019 23:57:17 13 C 21 %
145 26-10-2019 00:07:17 13.2 C 20 %
146 26-10-2019 00:17:17 13.5 C 20 %
147 26-10-2019 00:27:17 13.4 C 20 %
148 26-10-2019 00:37:18 13.2 C 20 %
149 26-10-2019 00:47:17 13.6 C 20 %
150 26-10-2019 00:57:17 13.3 C 20 %
Sensor: Nr:Datum:Temp:Feuchte:
Aussen-T/F 151 26-10-2019 01:07:17 13 C 20 %
152 26-10-2019 01:17:17 13.1 C 20 %
153 26-10-2019 01:27:17 13.1 C 20 %
154 26-10-2019 01:37:17 13.7 C 20 %
155 26-10-2019 01:47:18 13.8 C 20 %
156 26-10-2019 01:57:18 14 C 20 %
157 26-10-2019 02:07:17 13.6 C 20 %
158 26-10-2019 02:17:17 12.7 C 21 %
159 26-10-2019 02:27:17 12.7 C 21 %
160 26-10-2019 02:37:17 12.1 C 25 %
161 26-10-2019 02:47:18 11.8 C 27 %
162 26-10-2019 02:57:18 11.7 C 28 %
163 26-10-2019 03:07:17 11.4 C 30 %
164 26-10-2019 03:17:17 11.2 C 30 %
165 26-10-2019 03:27:17 11.2 C 31 %
166 26-10-2019 03:37:17 11.1 C 32 %
167 26-10-2019 03:47:17 10.8 C 33 %
168 26-10-2019 03:57:17 10.7 C 33 %
169 26-10-2019 04:07:17 10.5 C 35 %
170 26-10-2019 04:17:17 11.1 C 35 %
171 26-10-2019 04:27:17 10.7 C 37 %
172 26-10-2019 04:37:17 10.9 C 35 %
173 26-10-2019 04:47:17 11.6 C 30 %
174 26-10-2019 04:57:17 11.8 C 28 %
175 26-10-2019 05:07:17 12 C 26 %
Sensor: Nr:Datum:Temp:Feuchte:
Aussen-T/F 176 26-10-2019 05:17:17 12 C 26 %
177 26-10-2019 05:27:17 12 C 26 %
178 26-10-2019 05:37:17 11.9 C 27 %
179 26-10-2019 05:47:18 11.4 C 29 %
180 26-10-2019 05:57:18 11.2 C 30 %
181 26-10-2019 06:07:17 11.1 C 30 %
182 26-10-2019 06:17:17 10.9 C 34 %
183 26-10-2019 06:27:17 10.8 C 35 %
184 26-10-2019 06:37:17 10.9 C 36 %
185 26-10-2019 06:47:17 11 C 35 %
186 26-10-2019 06:57:17 10.7 C 35 %
187 26-10-2019 07:07:17 10.5 C 35 %
188 26-10-2019 07:17:17 10.2 C 35 %
189 26-10-2019 07:27:17 10.1 C 35 %
190 26-10-2019 07:37:17 9.8 C 36 %
191 26-10-2019 07:47:17 9.5 C 37 %
192 26-10-2019 07:57:17 9.3 C 36 %
193 26-10-2019 08:07:17 9.1 C 36 %
194 26-10-2019 08:17:17 9 C 37 %
195 26-10-2019 08:27:17 9 C 38 %
196 26-10-2019 08:37:17 9.2 C 38 %
197 26-10-2019 08:47:17 9.2 C 38 %
198 26-10-2019 08:57:17 9.2 C 37 %
199 26-10-2019 09:07:17 9.3 C 37 %
200 26-10-2019 09:17:17 9.5 C 37 %
Sensor: Nr:Datum:Temp:Feuchte:
Aussen-T/F 201 26-10-2019 09:27:17 9.7 C 37 %
202 26-10-2019 09:37:17 9.9 C 37 %
203 26-10-2019 09:47:18 10 C 36 %
204 26-10-2019 09:57:18 10.3 C 36 %
205 26-10-2019 10:07:17 10.5 C 35 %
206 26-10-2019 10:17:17 10.7 C 35 %
207 26-10-2019 10:27:17 10.7 C 35 %
208 26-10-2019 10:37:17 11.3 C 33 %
209 26-10-2019 10:47:18 11.5 C 33 %
210 26-10-2019 10:57:18 11.7 C 32 %
211 26-10-2019 11:07:17 12 C 31 %
212 26-10-2019 11:17:17 12.4 C 31 %
213 26-10-2019 11:27:17 12.7 C 30 %
214 26-10-2019 11:37:17 13.2 C 28 %
215 26-10-2019 11:47:18 13.4 C 26 %
216 26-10-2019 11:57:18 13.6 C 26 %
217 26-10-2019 12:07:17 13.8 C 25 %
218 26-10-2019 12:17:17 14.2 C 23 %
219 26-10-2019 12:27:17 14.4 C 25 %
220 26-10-2019 12:37:17 14.7 C 23 %
221 26-10-2019 12:47:17 14.8 C 23 %
222 26-10-2019 12:57:18 15 C 20 %
223 26-10-2019 13:07:18 15 C 20 %
224 26-10-2019 13:17:17 14.9 C 21 %
225 26-10-2019 13:27:17 15 C 20 %
Sensor: Nr:Datum:Temp:Feuchte:
Aussen-T/F 226 26-10-2019 13:37:17 16.3 C 20 %
227 26-10-2019 13:47:18 18.5 C 20 %
228 26-10-2019 13:57:18 20.9 C 20 %
229 26-10-2019 14:07:17 20.6 C 20 %
230 26-10-2019 14:17:17 17.8 C 20 %
231 26-10-2019 14:27:17 16.3 C 20 %
232 26-10-2019 14:37:17 16.2 C 20 %
233 26-10-2019 14:47:17 16.5 C 20 %
234 26-10-2019 14:57:17 16.9 C 20 %
235 26-10-2019 15:07:17 16.8 C 20 %
236 26-10-2019 15:17:17 16.8 C 20 %
237 26-10-2019 15:27:17 16.6 C 20 %
238 26-10-2019 15:37:17 16.5 C 20 %
239 26-10-2019 15:47:18 16.6 C 20 %
240 26-10-2019 15:57:18 16.7 C 20 %
241 26-10-2019 16:07:17 16.6 C 20 %
242 26-10-2019 16:17:17 17 C 20 %
243 26-10-2019 16:27:17 16.2 C 20 %
244 26-10-2019 16:37:17 15.9 C 20 %
245 26-10-2019 16:47:17 15.6 C 20 %
246 26-10-2019 16:57:17 15.2 C 20 %
247 26-10-2019 17:07:17 14.9 C 21 %
248 26-10-2019 17:17:17 14.8 C 22 %
249 26-10-2019 17:27:17 14.4 C 21 %
250 26-10-2019 17:37:17 14.2 C 22 %
Sensor: Nr:Datum:Temp:Feuchte:
Aussen-T/F 251 26-10-2019 17:47:17 13.7 C 24 %
252 26-10-2019 17:57:17 13.7 C 24 %
253 26-10-2019 18:07:18 13.1 C 25 %
254 26-10-2019 18:17:17 13.1 C 25 %
255 26-10-2019 18:27:17 12.8 C 26 %
256 26-10-2019 18:37:17 12.4 C 26 %
257 26-10-2019 18:47:17 12.2 C 27 %
258 26-10-2019 18:57:17 12.3 C 27 %
259 26-10-2019 19:07:18 11.9 C 28 %
260 26-10-2019 19:17:17 11.9 C 30 %
261 26-10-2019 19:27:17 11.8 C 30 %
262 26-10-2019 19:37:17 11.8 C 31 %
263 26-10-2019 19:47:17 11.9 C 30 %
264 26-10-2019 19:57:17 12 C 29 %
265 26-10-2019 20:07:17 12 C 29 %
266 26-10-2019 20:17:17 12 C 28 %
267 26-10-2019 20:27:17 12.3 C 28 %
268 26-10-2019 20:37:17 12.4 C 28 %
269 26-10-2019 20:47:17 12.3 C 27 %
270 26-10-2019 20:57:18 12.3 C 27 %
271 26-10-2019 21:07:17 12.4 C 28 %
272 26-10-2019 21:17:17 12.2 C 27 %
273 26-10-2019 21:27:17 12 C 28 %
274 26-10-2019 21:37:17 12 C 29 %
275 26-10-2019 21:47:17 12.2 C 30 %
Sensor: Nr:Datum:Temp:Feuchte:
Aussen-T/F 276 26-10-2019 21:57:17 11.8 C 32 %
277 26-10-2019 22:07:17 11.8 C 33 %
278 26-10-2019 22:17:17 11.8 C 32 %
279 26-10-2019 22:27:17 11.8 C 31 %
280 26-10-2019 22:37:18 11.8 C 32 %
281 26-10-2019 22:47:17 11.7 C 33 %
282 26-10-2019 22:57:17 11.8 C 33 %
283 26-10-2019 23:07:17 11.8 C 32 %
284 26-10-2019 23:17:17 12.1 C 30 %
285 26-10-2019 23:27:17 12.4 C 28 %
286 26-10-2019 23:37:17 12.6 C 26 %
287 26-10-2019 23:47:17 12.5 C 27 %
288 26-10-2019 23:57:17 12.5 C 27 %
289 27-10-2019 00:07:18 12.8 C 25 %
290 27-10-2019 00:17:17 12.9 C 25 %
291 27-10-2019 00:27:17 12.9 C 25 %
292 27-10-2019 00:37:17 13.5 C 20 %
293 27-10-2019 00:47:17 13.4 C 20 %
294 27-10-2019 00:57:17 13.7 C 20 %
295 27-10-2019 01:07:17 13 C 20 %
296 27-10-2019 01:17:17 13.4 C 20 %
297 27-10-2019 01:27:17 12.8 C 22 %
298 27-10-2019 01:37:17 12.8 C 24 %
299 27-10-2019 01:47:17 12.4 C 25 %
300 27-10-2019 01:57:17 12.4 C 25 %
Sensor: Nr:Datum:Temp:Feuchte:
Aussen-T/F 301 27-10-2019 02:07:18 12.5 C 25 %
302 27-10-2019 02:17:17 12.3 C 25 %
303 27-10-2019 02:27:17 12.3 C 25 %
304 27-10-2019 02:37:17 11.9 C 27 %
305 27-10-2019 02:47:17 11.7 C 27 %
306 27-10-2019 02:57:17 11.8 C 27 %
307 27-10-2019 03:07:17 12 C 25 %
308 27-10-2019 03:17:17 12.1 C 25 %
309 27-10-2019 03:27:17 12.1 C 25 %
310 27-10-2019 03:37:18 12.2 C 25 %
311 27-10-2019 03:47:17 11.9 C 26 %
312 27-10-2019 03:57:17 11.9 C 27 %
313 27-10-2019 04:07:17 11.6 C 27 %
314 27-10-2019 04:07:17 11 C 32 %
315 27-10-2019 04:17:17 11.7 C 28 %
316 27-10-2019 04:17:17 11.2 C 31 %
317 27-10-2019 04:27:17 11.4 C 29 %
318 27-10-2019 04:27:17 11.2 C 30 %
319 27-10-2019 04:37:17 11.2 C 30 %
320 27-10-2019 04:37:17 11.5 C 30 %
321 27-10-2019 04:47:17 10.9 C 31 %
322 27-10-2019 04:47:18 12.1 C 25 %
323 27-10-2019 04:57:18 11 C 33 %
324 27-10-2019 04:57:18 12.5 C 22 %
325 27-10-2019 05:07:17 12.1 C 25 %
Sensor: Nr:Datum:Temp:Feuchte:
Aussen-T/F 326 27-10-2019 05:17:17 13.2 C 20 %
327 27-10-2019 05:27:17 13.2 C 20 %
328 27-10-2019 05:37:17 13.4 C 20 %
329 27-10-2019 05:47:17 13.3 C 20 %
330 27-10-2019 05:57:18 14 C 20 %
331 27-10-2019 06:07:17 14.7 C 20 %
332 27-10-2019 06:17:18 14.6 C 20 %
333 27-10-2019 06:27:18 14.4 C 20 %
334 27-10-2019 06:37:17 14.5 C 20 %
335 27-10-2019 06:47:17 14.3 C 20 %
336 27-10-2019 06:57:17 14.6 C 20 %
337 27-10-2019 07:07:17 14.5 C 20 %
338 27-10-2019 07:17:17 14.1 C 20 %
339 27-10-2019 07:27:17 13.5 C 20 %
340 27-10-2019 07:37:17 12.9 C 26 %
341 27-10-2019 07:47:17 12.7 C 29 %
342 27-10-2019 07:57:17 12.1 C 28 %
343 27-10-2019 08:07:17 11.4 C 29 %
344 27-10-2019 08:17:17 11.2 C 30 %
345 27-10-2019 08:27:17 11.1 C 30 %
346 27-10-2019 08:37:17 10.9 C 31 %
347 27-10-2019 08:47:17 10.8 C 31 %
348 27-10-2019 08:57:17 10.6 C 31 %
349 27-10-2019 09:07:17 10.4 C 30 %
350 27-10-2019 09:17:17 9.8 C 30 %
Sensor: Nr:Datum:Temp:Feuchte:
Aussen-T/F 351 27-10-2019 09:27:17 9.4 C 31 %
352 27-10-2019 09:37:17 9.3 C 33 %
353 27-10-2019 09:47:18 9.2 C 32 %
354 27-10-2019 09:57:18 8.8 C 28 %
355 27-10-2019 10:07:17 8.9 C 31 %
356 27-10-2019 10:17:17 9 C 35 %
357 27-10-2019 10:27:17 9.1 C 34 %
358 27-10-2019 10:37:17 9 C 30 %
359 27-10-2019 10:47:17 9.2 C 33 %
360 27-10-2019 10:57:17 9.3 C 34 %
361 27-10-2019 11:07:17 9.6 C 28 %
362 27-10-2019 11:17:17 9.7 C 27 %
363 27-10-2019 11:27:17 9.4 C 30 %
364 27-10-2019 11:37:17 9.5 C 29 %
365 27-10-2019 11:47:17 9.5 C 30 %
366 27-10-2019 11:57:17 9.6 C 28 %
367 27-10-2019 12:07:17 9.6 C 30 %
368 27-10-2019 12:17:17 9.3 C 28 %
369 27-10-2019 12:27:17 9.3 C 31 %
370 27-10-2019 12:37:17 9.2 C 29 %
371 27-10-2019 12:47:17 9.1 C 28 %
372 27-10-2019 12:57:17 9.2 C 29 %
373 27-10-2019 13:07:17 9.3 C 29 %
374 27-10-2019 13:17:17 9.3 C 29 %
375 27-10-2019 13:27:17 9.2 C 30 %
Sensor: Nr:Datum:Temp:Feuchte:
Aussen-T/F 376 27-10-2019 13:37:17 9.1 C 31 %
377 27-10-2019 13:47:17 9.1 C 32 %
378 27-10-2019 13:57:17 9.2 C 30 %
379 27-10-2019 14:07:17 9 C 28 %
380 27-10-2019 14:17:17 8.8 C 30 %
381 27-10-2019 14:27:17 8.7 C 34 %
382 27-10-2019 14:37:18 8.7 C 34 %
383 27-10-2019 14:47:17 8.7 C 35 %
384 27-10-2019 14:57:17 8.7 C 35 %
385 27-10-2019 15:07:17 8.7 C 31 %
386 27-10-2019 15:17:17 8.7 C 32 %
387 27-10-2019 15:27:17 8.7 C 33 %
388 27-10-2019 15:37:17 8.7 C 35 %
389 27-10-2019 15:47:17 8.7 C 36 %
390 27-10-2019 15:57:17 8.6 C 35 %
391 27-10-2019 16:07:17 8.6 C 35 %
392 27-10-2019 16:17:17 8.4 C 35 %
393 27-10-2019 16:27:17 8.3 C 35 %
394 27-10-2019 16:37:17 8.1 C 35 %
395 27-10-2019 16:47:17 8.2 C 36 %
396 27-10-2019 16:57:17 8.1 C 36 %
397 27-10-2019 17:07:18 7.9 C 37 %
398 27-10-2019 17:17:17 7.9 C 38 %
399 27-10-2019 17:27:17 7.8 C 38 %
400 27-10-2019 17:37:17 7.9 C 38 %
Sensor: Nr:Datum:Temp:Feuchte:
Aussen-T/F 401 27-10-2019 17:47:17 7.8 C 38 %
402 27-10-2019 17:57:17 7.9 C 38 %
403 27-10-2019 18:07:17 7.8 C 38 %
404 27-10-2019 18:17:17 7.9 C 38 %
405 27-10-2019 18:27:17 7.8 C 38 %
406 27-10-2019 18:37:17 7.8 C 38 %
407 27-10-2019 18:47:18 7.8 C 38 %
408 27-10-2019 18:57:18 7.8 C 38 %
409 27-10-2019 19:07:17 7.8 C 38 %
410 27-10-2019 19:17:17 7.8 C 38 %
411 27-10-2019 19:27:17 7.7 C 38 %
412 27-10-2019 19:37:17 7.6 C 38 %
413 27-10-2019 19:47:18 7.6 C 38 %
414 27-10-2019 19:57:18 7.6 C 38 %
415 27-10-2019 20:07:17 7 C 38 %
416 27-10-2019 20:17:17 6.7 C 38 %
417 27-10-2019 20:27:17 6.6 C 38 %
418 27-10-2019 20:37:17 6.5 C 39 %
419 27-10-2019 20:48:17 6.3 C 38 %
420 27-10-2019 20:58:17 6.1 C 38 %
421 27-10-2019 21:07:18 6.3 C 39 %
422 27-10-2019 21:17:17 6.2 C 39 %
423 27-10-2019 21:27:17 6 C 38 %
424 27-10-2019 21:37:17 6 C 38 %
425 27-10-2019 21:48:17 5.6 C 39 %
Sensor: Nr:Datum:Temp:Feuchte:
Aussen-T/F 426 27-10-2019 21:58:17 5.3 C 38 %
427 27-10-2019 22:07:18 5.2 C 38 %
428 27-10-2019 22:18:17 4.7 C 39 %
429 27-10-2019 22:28:17 4.7 C 39 %
430 27-10-2019 22:38:17 4.6 C 39 %
431 27-10-2019 22:47:17 4.5 C 39 %
432 27-10-2019 22:57:18 4.2 C 39 %
433 27-10-2019 23:07:17 4.3 C 39 %
434 27-10-2019 23:17:17 4.1 C 39 %
435 27-10-2019 23:27:17 3.9 C 40 %
436 27-10-2019 23:37:17 4.5 C 40 %
437 27-10-2019 23:48:17 4.5 C 40 %
438 27-10-2019 23:58:17 4.6 C 40 %
439 28-10-2019 00:08:17 4.6 C 39 %
440 28-10-2019 00:18:17 4.5 C 39 %
441 28-10-2019 00:27:17 4.7 C 40 %
442 28-10-2019 00:38:17 4.7 C 39 %
443 28-10-2019 00:47:18 4.8 C 39 %
444 28-10-2019 00:57:18 5 C 39 %
445 28-10-2019 01:07:17 5 C 38 %
446 28-10-2019 01:18:17 5.2 C 39 %
447 28-10-2019 01:28:17 5.2 C 38 %
448 28-10-2019 01:38:17 5.2 C 38 %
449 28-10-2019 01:47:17 5.2 C 38 %
450 28-10-2019 01:57:17 5.2 C 38 %
Sensor: Nr:Datum:Temp:Feuchte:
Aussen-T/F 451 28-10-2019 02:08:17 5.1 C 38 %
452 28-10-2019 02:18:17 4.9 C 38 %
453 28-10-2019 02:28:17 4.4 C 38 %
454 28-10-2019 02:38:17 4.5 C 38 %
455 28-10-2019 02:48:17 4.5 C 39 %
456 28-10-2019 02:58:17 4.6 C 39 %
457 28-10-2019 03:08:17 4.8 C 39 %
458 28-10-2019 03:18:18 4.7 C 39 %
459 28-10-2019 03:28:18 4.7 C 39 %
460 28-10-2019 03:38:17 4.7 C 39 %
461 28-10-2019 03:48:17 4.8 C 39 %
462 28-10-2019 03:58:17 4.5 C 39 %
463 28-10-2019 04:08:17 4.5 C 39 %
464 28-10-2019 04:18:18 4.5 C 39 %
465 28-10-2019 04:28:18 4.5 C 39 %
466 28-10-2019 04:38:17 4.5 C 39 %
467 28-10-2019 04:48:17 4.5 C 39 %
468 28-10-2019 04:58:17 4.5 C 39 %
469 28-10-2019 05:08:17 4.4 C 39 %
470 28-10-2019 05:18:17 4.4 C 39 %
471 28-10-2019 05:28:17 4.5 C 39 %
472 28-10-2019 05:38:17 4.4 C 39 %
473 28-10-2019 05:48:17 4.5 C 39 %
474 28-10-2019 05:58:17 4.6 C 39 %
475 28-10-2019 06:08:17 4.5 C 39 %
Sensor: Nr:Datum:Temp:Feuchte:
Aussen-T/F 476 28-10-2019 06:18:17 4.3 C 38 %
477 28-10-2019 06:28:17 4.3 C 38 %
478 28-10-2019 06:38:17 4.3 C 38 %
479 28-10-2019 06:48:17 4.5 C 38 %
480 28-10-2019 06:58:17 4.4 C 38 %
481 28-10-2019 07:08:17 4.6 C 39 %
482 28-10-2019 07:18:17 4.7 C 39 %
483 28-10-2019 07:28:17 4.6 C 39 %
484 28-10-2019 07:38:17 4.6 C 39 %
485 28-10-2019 07:48:17 4.6 C 39 %
486 28-10-2019 07:58:17 5 C 38 %
487 28-10-2019 08:08:17 5 C 38 %
488 28-10-2019 08:18:17 5 C 38 %
489 28-10-2019 08:28:18 5.1 C 38 %
490 28-10-2019 08:38:17 5.1 C 38 %
491 28-10-2019 08:48:17 5.2 C 38 %
492 28-10-2019 08:58:17 5.1 C 38 %
493 28-10-2019 09:08:17 5.2 C 38 %
494 28-10-2019 09:18:17 5.4 C 38 %
495 28-10-2019 09:28:17 5.2 C 38 %
496 28-10-2019 09:38:17 5.6 C 38 %
497 28-10-2019 09:48:16 5.5 C 38 %
498 28-10-2019 09:58:16 5.7 C 38 %
499 28-10-2019 10:08:17 5.8 C 38 %
500 28-10-2019 10:18:17 5.6 C 37 %
Sensor: Nr:Datum:Temp:Feuchte:
Aussen-T/F 501 28-10-2019 10:28:17 5.7 C 36 %
502 28-10-2019 10:38:17 6 C 36 %
503 28-10-2019 10:48:17 6 C 36 %
504 28-10-2019 10:58:17 5.9 C 35 %
505 28-10-2019 11:08:17 6.2 C 35 %
506 28-10-2019 11:18:16 6.6 C 36 %
507 28-10-2019 11:28:16 6.3 C 33 %
508 28-10-2019 11:38:17 6.4 C 34 %
509 28-10-2019 11:48:16 6.5 C 34 %
510 28-10-2019 11:58:16 6.6 C 33 %
511 28-10-2019 12:08:16 6.7 C 32 %
512 28-10-2019 12:18:16 6.8 C 31 %
513 28-10-2019 12:28:16 6.7 C 30 %
514 28-10-2019 12:38:16 6.8 C 30 %
515 28-10-2019 12:48:17 6.5 C 30 %
516 28-10-2019 12:58:17 6.7 C 30 %
517 28-10-2019 13:08:17 6.9 C 30 %
518 28-10-2019 13:18:16 7.1 C 30 %
519 28-10-2019 13:28:16 7.3 C 28 %
520 28-10-2019 13:38:17 7.5 C 27 %
521 28-10-2019 13:48:16 7.8 C 26 %
522 28-10-2019 13:58:16 8 C 28 %
523 28-10-2019 14:08:17 7.8 C 26 %
524 28-10-2019 14:18:17 7.6 C 25 %
525 28-10-2019 14:28:18 7.5 C 25 %
Sensor: Nr:Datum:Temp:Feuchte:
Aussen-T/F 526 28-10-2019 14:38:17 8.1 C 21 %
527 28-10-2019 14:48:16 8.1 C 20 %
528 28-10-2019 14:58:16 8.1 C 20 %
529 28-10-2019 15:08:16 8.2 C 20 %
530 28-10-2019 15:18:16 8.1 C 20 %
531 28-10-2019 15:28:16 8.2 C 20 %
532 28-10-2019 15:38:17 7.8 C 25 %
533 28-10-2019 15:48:16 7.8 C 26 %
534 28-10-2019 15:58:16 7.8 C 25 %
535 28-10-2019 16:08:16 7.3 C 28 %
536 28-10-2019 16:18:16 7.1 C 30 %
537 28-10-2019 16:28:16 6.9 C 32 %
538 28-10-2019 16:38:16 6.8 C 33 %
539 28-10-2019 16:48:16 6.8 C 33 %
540 28-10-2019 16:58:16 6.2 C 35 %
541 28-10-2019 17:08:16 6.3 C 36 %
542 28-10-2019 17:18:16 6.3 C 37 %
543 28-10-2019 17:28:16 6.5 C 37 %
544 28-10-2019 17:38:17 6.5 C 37 %
545 28-10-2019 17:48:16 6.6 C 35 %
546 28-10-2019 17:58:16 6.6 C 36 %
547 28-10-2019 18:08:16 6.6 C 36 %
548 28-10-2019 18:18:16 6.7 C 37 %
549 28-10-2019 18:28:16 6.7 C 36 %
550 28-10-2019 18:38:16 6.7 C 36 %
Sensor: Nr:Datum:Temp:Feuchte:
Aussen-T/F 551 28-10-2019 18:48:17 6.7 C 36 %
552 28-10-2019 18:58:17 6.6 C 36 %
553 28-10-2019 19:08:16 6.6 C 36 %
554 28-10-2019 19:18:16 6.6 C 37 %
555 28-10-2019 19:28:16 6.7 C 37 %
556 28-10-2019 19:38:16 6.7 C 37 %
557 28-10-2019 19:48:16 6.4 C 37 %
558 28-10-2019 19:58:16 6.2 C 37 %
559 28-10-2019 20:08:16 6.3 C 38 %
560 28-10-2019 20:18:16 6.5 C 38 %
561 28-10-2019 20:28:16 6.5 C 38 %
562 28-10-2019 20:38:16 6.5 C 38 %
563 28-10-2019 20:48:16 6.5 C 38 %
564 28-10-2019 20:58:17 6.5 C 37 %
565 28-10-2019 21:08:16 6.3 C 37 %
566 28-10-2019 21:18:16 6.3 C 37 %
567 28-10-2019 21:28:16 6.3 C 37 %
568 28-10-2019 21:38:16 6.3 C 37 %
569 28-10-2019 21:48:16 6.3 C 37 %
570 28-10-2019 21:58:16 6.3 C 37 %
571 28-10-2019 22:08:16 6.4 C 37 %
572 28-10-2019 22:18:16 6.3 C 37 %
573 28-10-2019 22:28:16 6.4 C 36 %
574 28-10-2019 22:38:16 6.4 C 35 %
575 28-10-2019 22:48:16 6.4 C 35 %
Sensor: Nr:Datum:Temp:Feuchte:
Aussen-T/F 576 28-10-2019 22:58:17 6.3 C 34 %
577 28-10-2019 23:08:16 6.3 C 33 %
578 28-10-2019 23:18:16 6.3 C 33 %
579 28-10-2019 23:28:16 6.3 C 33 %
580 28-10-2019 23:38:16 6.2 C 32 %
581 28-10-2019 23:48:15 6.3 C 33 %
582 28-10-2019 23:58:15 6.3 C 33 %
583 29-10-2019 00:08:16 6.3 C 33 %
584 29-10-2019 00:18:16 6.3 C 33 %
585 29-10-2019 00:28:16 6.2 C 32 %
586 29-10-2019 00:38:16 6.2 C 33 %
587 29-10-2019 00:48:15 6.2 C 32 %
588 29-10-2019 00:58:15 6.1 C 32 %
589 29-10-2019 01:08:16 6 C 32 %
590 29-10-2019 01:18:16 6 C 32 %
591 29-10-2019 01:28:16 5.9 C 33 %
592 29-10-2019 01:38:16 5.9 C 33 %
593 29-10-2019 01:48:15 5.9 C 34 %
594 29-10-2019 01:58:15 5.8 C 33 %
595 29-10-2019 02:08:16 5.9 C 33 %
596 29-10-2019 02:18:16 5.8 C 32 %
597 29-10-2019 02:28:16 5.8 C 33 %
598 29-10-2019 02:38:16 5.8 C 33 %
599 29-10-2019 02:48:17 5.8 C 33 %
600 29-10-2019 02:58:17 5.8 C 33 %
Sensor: Nr:Datum:Temp:Feuchte:
Aussen-T/F 601 29-10-2019 03:08:17 5.8 C 33 %
602 29-10-2019 03:18:17 5.8 C 33 %
603 29-10-2019 03:28:17 5.8 C 33 %
604 29-10-2019 03:38:17 5.8 C 33 %
605 29-10-2019 03:48:18 5.7 C 32 %
606 29-10-2019 03:58:18 5.7 C 33 %
607 29-10-2019 04:08:17 5.7 C 34 %
608 29-10-2019 04:18:17 5.7 C 33 %
609 29-10-2019 04:28:17 5.7 C 33 %
610 29-10-2019 04:38:17 5.7 C 33 %
611 29-10-2019 04:48:17 5.7 C 33 %
612 29-10-2019 04:58:18 5.7 C 33 %
613 29-10-2019 05:08:17 5.7 C 34 %
614 29-10-2019 05:18:17 5.8 C 33 %
615 29-10-2019 05:28:17 5.7 C 32 %
616 29-10-2019 05:38:17 5.7 C 32 %
617 29-10-2019 05:48:18 5.7 C 32 %
618 29-10-2019 05:58:18 5.7 C 32 %
619 29-10-2019 06:08:17 5.7 C 32 %
620 29-10-2019 06:18:17 5.7 C 32 %
621 29-10-2019 06:28:18 5.6 C 32 %
622 29-10-2019 06:38:17 5.5 C 32 %
623 29-10-2019 06:48:17 5.5 C 32 %
624 29-10-2019 06:58:17 5.5 C 32 %
625 29-10-2019 07:08:18 5.5 C 32 %
Sensor: Nr:Datum:Temp:Feuchte:
Aussen-T/F 626 29-10-2019 07:18:17 5.5 C 32 %
627 29-10-2019 07:28:17 5.4 C 32 %
628 29-10-2019 07:38:17 5.4 C 33 %
629 29-10-2019 07:48:17 5.4 C 33 %
630 29-10-2019 07:58:17 5.5 C 33 %
631 29-10-2019 08:08:18 5.7 C 33 %
632 29-10-2019 08:18:17 6 C 31 %
633 29-10-2019 08:28:17 6 C 28 %
634 29-10-2019 08:38:17 6 C 28 %
635 29-10-2019 08:48:17 6.2 C 27 %
636 29-10-2019 08:58:17 6.3 C 26 %
637 29-10-2019 09:08:18 6.3 C 26 %
638 29-10-2019 09:18:17 6.3 C 26 %
639 29-10-2019 09:28:17 6.6 C 26 %
640 29-10-2019 09:38:17 7.3 C 20 %
641 29-10-2019 09:48:17 7.2 C 20 %
642 29-10-2019 09:58:17 6.9 C 21 %
643 29-10-2019 10:08:17 7.6 C 20 %
644 29-10-2019 10:18:17 7.8 C 20 %
645 29-10-2019 10:28:17 8.2 C 20 %
646 29-10-2019 10:38:17 8.1 C 20 %
647 29-10-2019 10:48:18 8.4 C 20 %
648 29-10-2019 10:58:18 8.7 C 20 %
649 29-10-2019 11:08:17 8.7 C 20 %
650 29-10-2019 11:18:17 8.6 C 20 %
Sensor: Nr:Datum:Temp:Feuchte:
Aussen-T/F 651 29-10-2019 11:28:17 8.7 C 20 %
652 29-10-2019 11:38:17 9 C 20 %
653 29-10-2019 11:48:18 9.4 C 20 %
654 29-10-2019 11:58:18 9.6 C 20 %
655 29-10-2019 12:08:17 9.6 C 20 %
656 29-10-2019 12:18:17 9.2 C 20 %
657 29-10-2019 12:28:17 9.6 C 20 %
658 29-10-2019 12:38:17 10 C 20 %
659 29-10-2019 12:48:18 9.9 C 20 %
660 29-10-2019 12:58:18 10.4 C 20 %
661 29-10-2019 13:08:17 10.5 C 20 %
662 29-10-2019 13:18:17 10.4 C 20 %
663 29-10-2019 13:28:17 10.4 C 20 %
664 29-10-2019 13:38:17 10.4 C 20 %
665 29-10-2019 13:48:18 10.7 C 20 %
666 29-10-2019 13:58:18 10.3 C 20 %
667 29-10-2019 14:08:17 10.1 C 20 %
668 29-10-2019 14:18:17 10.5 C 20 %
669 29-10-2019 14:28:17 10.8 C 20 %
670 29-10-2019 14:38:17 11.6 C 20 %
671 29-10-2019 14:48:17 11.1 C 20 %
672 29-10-2019 14:58:18 10.5 C 20 %
673 29-10-2019 15:08:17 9.4 C 20 %
674 29-10-2019 15:18:17 9.1 C 20 %
675 29-10-2019 15:28:17 8.5 C 20 %
Sensor: Nr:Datum:Temp:Feuchte:
Aussen-T/F 676 29-10-2019 15:38:17 8.2 C 20 %
677 29-10-2019 15:48:17 9.2 C 20 %
678 29-10-2019 15:58:18 11.7 C 20 %
679 29-10-2019 16:08:17 11.3 C 20 %
680 29-10-2019 16:18:17 9.5 C 20 %
681 29-10-2019 16:28:17 10 C 20 %
682 29-10-2019 16:38:17 9.8 C 20 %
683 29-10-2019 16:48:17 8.9 C 20 %
684 29-10-2019 16:58:17 7.6 C 20 %
685 29-10-2019 17:08:18 7 C 20 %
686 29-10-2019 17:18:17 6.3 C 25 %
687 29-10-2019 17:28:17 6 C 26 %
688 29-10-2019 17:38:17 5.9 C 25 %
689 29-10-2019 17:48:17 5.5 C 26 %
690 29-10-2019 17:58:17 5.3 C 28 %
691 29-10-2019 18:08:18 5.5 C 27 %
692 29-10-2019 18:18:17 5.2 C 26 %
693 29-10-2019 18:28:17 5.1 C 28 %
694 29-10-2019 18:38:17 4.6 C 31 %
695 29-10-2019 18:48:17 4.5 C 31 %
696 29-10-2019 18:58:17 4.2 C 33 %
697 29-10-2019 19:08:18 3.9 C 35 %
698 29-10-2019 19:18:17 3.8 C 35 %
699 29-10-2019 19:28:17 3.6 C 35 %
700 29-10-2019 19:38:17 3.3 C 37 %
Sensor: Nr:Datum:Temp:Feuchte:
Aussen-T/F 701 29-10-2019 19:48:17 3.2 C 38 %
702 29-10-2019 19:58:17 3.4 C 38 %
703 29-10-2019 20:08:17 3.3 C 38 %
704 29-10-2019 20:18:17 3.3 C 39 %
705 29-10-2019 20:28:17 3.2 C 38 %
706 29-10-2019 20:38:17 3.3 C 38 %
707 29-10-2019 20:48:17 3 C 38 %
708 29-10-2019 20:58:17 2.8 C 39 %
709 29-10-2019 21:08:18 2.7 C 40 %
710 29-10-2019 21:18:17 2.3 C 39 %
711 29-10-2019 21:28:17 2.3 C 40 %
712 29-10-2019 21:38:17 2.2 C 40 %
713 29-10-2019 21:48:17 2.1 C 40 %
714 29-10-2019 21:58:17 2 C 40 %
715 29-10-2019 22:08:18 2 C 40 %
716 29-10-2019 22:18:17 1.8 C 41 %
717 29-10-2019 22:28:18 1.7 C 41 %
718 29-10-2019 22:38:17 1.7 C 41 %
719 29-10-2019 22:48:17 1.7 C 41 %
720 29-10-2019 22:58:17 1.7 C 41 %
721 29-10-2019 23:08:17 1.7 C 41 %
722 29-10-2019 23:18:17 1.8 C 41 %
723 29-10-2019 23:28:17 1.6 C 41 %
724 29-10-2019 23:38:17 1.5 C 41 %
725 29-10-2019 23:48:17 1.4 C 41 %
Sensor: Nr:Datum:Temp:Feuchte:
Aussen-T/F 726 29-10-2019 23:58:17 1.3 C 41 %
727 30-10-2019 00:08:17 1 C 41 %
728 30-10-2019 00:18:17 1.4 C 42 %
729 30-10-2019 00:28:17 1.3 C 42 %
730 30-10-2019 00:38:17 1.1 C 41 %
731 30-10-2019 00:48:18 1.5 C 42 %
732 30-10-2019 00:58:18 1.5 C 42 %
733 30-10-2019 01:08:17 1.4 C 42 %
734 30-10-2019 01:18:17 1.3 C 41 %
735 30-10-2019 01:28:17 1.3 C 41 %
736 30-10-2019 01:38:17 1 C 41 %
737 30-10-2019 01:48:17 0.5 C 41 %
738 30-10-2019 01:58:17 1.2 C 42 %
739 30-10-2019 02:08:17 1.4 C 42 %
740 30-10-2019 02:18:18 1.7 C 42 %
741 30-10-2019 02:28:18 1.6 C 42 %
742 30-10-2019 02:38:18 1.5 C 41 %
743 30-10-2019 02:48:17 1.4 C 41 %
744 30-10-2019 02:58:17 1.2 C 41 %
745 30-10-2019 03:08:17 0.9 C 42 %
746 30-10-2019 03:18:17 0.8 C 42 %
747 30-10-2019 03:28:17 0.5 C 41 %
748 30-10-2019 03:38:18 0.4 C 41 %
749 30-10-2019 03:48:17 0.1 C 41 %
750 30-10-2019 03:58:17 0.1 C 41 %
Sensor: Nr:Datum:Temp:Feuchte:
Aussen-T/F 751 30-10-2019 04:08:17 0.5 C 42 %
752 30-10-2019 04:18:17 0.7 C 42 %
753 30-10-2019 04:28:17 0.7 C 42 %
754 30-10-2019 04:38:17 0.5 C 41 %
755 30-10-2019 04:48:18 0.2 C 41 %
756 30-10-2019 04:58:18 0.4 C 42 %
757 30-10-2019 05:08:17 0.7 C 42 %
758 30-10-2019 05:18:17 0.9 C 42 %
759 30-10-2019 05:28:17 0.9 C 42 %
760 30-10-2019 05:38:17 1 C 41 %
761 30-10-2019 05:48:17 0.9 C 42 %
762 30-10-2019 05:58:17 0.8 C 42 %
763 30-10-2019 06:08:17 0.8 C 42 %
764 30-10-2019 06:18:17 0.5 C 42 %
765 30-10-2019 06:28:17 0.4 C 42 %
766 30-10-2019 06:38:17 0.5 C 42 %
767 30-10-2019 06:48:17 0.5 C 42 %
768 30-10-2019 06:58:18 0.6 C 42 %
769 30-10-2019 07:08:17 0.6 C 42 %
770 30-10-2019 07:18:17 0.6 C 42 %
771 30-10-2019 07:28:17 0.7 C 42 %
772 30-10-2019 07:38:17 1.2 C 41 %
773 30-10-2019 07:48:17 1.2 C 41 %
774 30-10-2019 07:58:17 1.2 C 41 %
775 30-10-2019 08:08:18 1.2 C 41 %
Sensor: Nr:Datum:Temp:Feuchte:
Aussen-T/F 776 30-10-2019 08:18:17 1.1 C 41 %
777 30-10-2019 08:28:17 1.1 C 41 %
778 30-10-2019 08:38:17 1.5 C 41 %
779 30-10-2019 08:48:17 1.3 C 41 %
780 30-10-2019 08:58:17 1.7 C 41 %
781 30-10-2019 09:08:18 2 C 40 %
782 30-10-2019 09:18:17 2 C 40 %
783 30-10-2019 09:28:17 1.6 C 41 %
784 30-10-2019 09:38:17 2.1 C 40 %
785 30-10-2019 09:48:17 2.3 C 40 %
786 30-10-2019 09:58:17 2.7 C 40 %
787 30-10-2019 10:08:18 3.3 C 39 %
788 30-10-2019 10:18:17 4 C 37 %
789 30-10-2019 10:28:17 4 C 36 %
790 30-10-2019 10:38:17 4.3 C 36 %
791 30-10-2019 10:48:17 4.6 C 33 %
792 30-10-2019 10:58:17 4.8 C 31 %
793 30-10-2019 11:08:17 5.1 C 31 %
794 30-10-2019 11:18:17 5.4 C 30 %
795 30-10-2019 11:28:17 5.2 C 29 %
796 30-10-2019 11:38:18 5.5 C 28 %
797 30-10-2019 11:48:17 5.8 C 28 %
798 30-10-2019 11:58:17 5.8 C 28 %
799 30-10-2019 12:08:17 5.8 C 25 %
800 30-10-2019 12:18:17 6.3 C 27 %
Sensor: Nr:Datum:Temp:Feuchte:
Aussen-T/F 801 30-10-2019 12:28:17 6.7 C 27 %
802 30-10-2019 12:38:17 6.9 C 25 %
803 30-10-2019 12:48:17 7 C 25 %
804 30-10-2019 12:58:17 6.8 C 23 %
805 30-10-2019 13:08:17 6.9 C 21 %
806 30-10-2019 13:18:17 7.1 C 21 %
807 30-10-2019 13:28:17 7.2 C 20 %
808 30-10-2019 13:38:18 7.3 C 20 %
809 30-10-2019 13:48:17 7.4 C 20 %
810 30-10-2019 13:58:17 7.4 C 20 %
811 30-10-2019 14:08:17 7.3 C 20 %
812 30-10-2019 14:18:17 7.4 C 20 %
813 30-10-2019 14:28:17 7.4 C 20 %
814 30-10-2019 14:38:17 7.6 C 20 %
815 30-10-2019 14:48:17 7.5 C 20 %
816 30-10-2019 14:58:17 7.5 C 20 %
817 30-10-2019 15:08:18 7.6 C 20 %
818 30-10-2019 15:18:17 7.6 C 20 %
819 30-10-2019 15:28:17 7.4 C 20 %
820 30-10-2019 15:38:17 7 C 20 %
821 30-10-2019 15:48:17 6.8 C 20 %
822 30-10-2019 15:58:17 6.7 C 21 %
823 30-10-2019 16:08:17 6.5 C 20 %
824 30-10-2019 16:18:17 6.4 C 21 %
825 30-10-2019 16:28:17 6.2 C 21 %
Sensor: Nr:Datum:Temp:Feuchte:
Aussen-T/F 826 30-10-2019 16:38:17 6 C 23 %
827 30-10-2019 16:48:17 5.8 C 23 %
828 30-10-2019 16:58:17 5.6 C 23 %
829 30-10-2019 17:08:18 5.4 C 21 %
830 30-10-2019 17:18:17 5.1 C 25 %
831 30-10-2019 17:28:17 4.9 C 25 %
832 30-10-2019 17:38:17 4.7 C 25 %
833 30-10-2019 17:48:17 4.3 C 25 %
834 30-10-2019 17:58:17 4.2 C 25 %
835 30-10-2019 18:08:17 4 C 26 %
836 30-10-2019 18:18:17 3.8 C 26 %
837 30-10-2019 18:28:17 3.7 C 28 %
838 30-10-2019 18:38:17 3.3 C 28 %
839 30-10-2019 18:48:17 3.3 C 28 %
840 30-10-2019 18:58:17 3.1 C 30 %
841 30-10-2019 19:08:17 2.9 C 31 %
842 30-10-2019 19:18:17 2.9 C 31 %
843 30-10-2019 19:28:17 2.6 C 31 %
844 30-10-2019 19:38:18 2.4 C 32 %
845 30-10-2019 19:48:17 2.3 C 36 %
846 30-10-2019 19:58:17 2.2 C 36 %
847 30-10-2019 20:08:17 2.5 C 36 %
848 30-10-2019 20:18:17 2.3 C 35 %
849 30-10-2019 20:28:17 2.4 C 36 %
850 30-10-2019 20:38:17 2 C 35 %
Sensor: Nr:Datum:Temp:Feuchte:
Aussen-T/F 851 30-10-2019 20:48:18 1.6 C 37 %
852 30-10-2019 20:58:18 1.6 C 39 %
853 30-10-2019 21:08:17 1.6 C 39 %
854 30-10-2019 21:18:17 1.4 C 39 %
855 30-10-2019 21:28:17 1.3 C 40 %
856 30-10-2019 21:38:17 1.8 C 41 %
857 30-10-2019 21:48:17 1.5 C 39 %
858 30-10-2019 21:58:17 1.2 C 39 %
859 30-10-2019 22:08:18 1 C 40 %
860 30-10-2019 22:18:17 0.8 C 40 %
861 30-10-2019 22:28:18 1 C 41 %
862 30-10-2019 22:38:17 0.8 C 41 %
863 30-10-2019 22:48:17 0.7 C 41 %
864 30-10-2019 22:58:17 0.9 C 42 %
865 30-10-2019 23:08:18 0.8 C 42 %
866 30-10-2019 23:18:17 0.6 C 42 %
867 30-10-2019 23:28:17 0.4 C 41 %
868 30-10-2019 23:38:17 0.4 C 41 %
869 30-10-2019 23:48:17 0.1 C 41 %
870 30-10-2019 23:58:17 0 C 41 %
871 31-10-2019 00:08:17 -0.2 C 41 %
872 31-10-2019 00:18:17 -0.3 C 41 %
873 31-10-2019 00:28:17 -0.4 C 41 %
874 31-10-2019 00:38:18 -0.3 C 42 %
875 31-10-2019 00:48:17 -0.3 C 42 %
Sensor: Nr:Datum:Temp:Feuchte:
Aussen-T/F 876 31-10-2019 00:58:17 -0.4 C 42 %
877 31-10-2019 01:08:17 -0.2 C 42 %
878 31-10-2019 01:18:17 -0.2 C 42 %
879 31-10-2019 01:28:17 -0.5 C 41 %
880 31-10-2019 01:38:17 -0.3 C 42 %
881 31-10-2019 01:48:18 -0.4 C 42 %
882 31-10-2019 01:58:18 -0.6 C 41 %
883 31-10-2019 02:08:17 -0.6 C 41 %
884 31-10-2019 02:18:17 -0.8 C 41 %
885 31-10-2019 02:28:17 -0.7 C 42 %
886 31-10-2019 02:38:17 -0.9 C 41 %
887 31-10-2019 02:48:17 -0.9 C 41 %
888 31-10-2019 02:58:17 -1 C 41 %
889 31-10-2019 03:08:17 -0.9 C 42 %
890 31-10-2019 03:18:17 -0.9 C 41 %
891 31-10-2019 03:28:17 -1.2 C 41 %
892 31-10-2019 03:38:17 -1.1 C 41 %
893 31-10-2019 03:48:18 -0.7 C 42 %
894 31-10-2019 03:58:18 -1 C 41 %
895 31-10-2019 04:08:17 -0.9 C 42 %
896 31-10-2019 04:18:17 -1.2 C 41 %
897 31-10-2019 04:28:17 -1.2 C 41 %
898 31-10-2019 04:38:18 -1 C 42 %
899 31-10-2019 04:48:17 -1.4 C 41 %
900 31-10-2019 04:58:17 -1.5 C 41 %
Sensor: Nr:Datum:Temp:Feuchte:
Aussen-T/F 901 31-10-2019 05:08:17 -1.3 C 41 %
902 31-10-2019 05:18:17 -1.4 C 41 %
903 31-10-2019 05:28:17 -1.4 C 41 %
904 31-10-2019 05:38:17 -1.6 C 41 %
905 31-10-2019 05:48:17 -1.7 C 41 %
906 31-10-2019 05:58:17 -1.7 C 41 %
907 31-10-2019 06:08:18 -1.5 C 41 %
908 31-10-2019 06:18:17 -1.6 C 41 %
909 31-10-2019 06:28:17 -1.8 C 41 %
910 31-10-2019 06:38:17 -1.8 C 41 %
911 31-10-2019 06:48:17 -1.9 C 41 %
912 31-10-2019 06:58:17 -2.1 C 41 %
913 31-10-2019 07:08:17 -1.9 C 41 %
914 31-10-2019 07:18:17 -2 C 41 %
915 31-10-2019 07:28:17 -1.9 C 41 %
916 31-10-2019 07:38:17 -2 C 41 %
917 31-10-2019 07:48:17 -2 C 41 %
918 31-10-2019 07:58:17 -1.9 C 41 %
919 31-10-2019 08:08:17 -2 C 41 %
920 31-10-2019 08:18:17 -1.6 C 41 %
921 31-10-2019 08:28:17 -1.5 C 41 %
922 31-10-2019 08:38:17 -1.1 C 42 %
923 31-10-2019 08:48:17 -1.3 C 41 %
924 31-10-2019 08:58:17 -1.2 C 41 %
925 31-10-2019 09:08:17 -0.8 C 41 %
Sensor: Nr:Datum:Temp:Feuchte:
Aussen-T/F 926 31-10-2019 09:18:17 -0.8 C 41 %
927 31-10-2019 09:28:17 -0.7 C 41 %
928 31-10-2019 09:38:17 -0.5 C 41 %
929 31-10-2019 09:48:17 -0.5 C 41 %
930 31-10-2019 09:58:17 -0.3 C 41 %
931 31-10-2019 10:08:17 -0.2 C 41 %
932 31-10-2019 10:18:17 0.2 C 41 %
933 31-10-2019 10:28:17 0.3 C 41 %
934 31-10-2019 10:38:17 0.7 C 41 %
935 31-10-2019 10:48:18 1.7 C 41 %
936 31-10-2019 10:58:18 1.7 C 39 %
937 31-10-2019 11:08:17 1.9 C 38 %
938 31-10-2019 11:18:17 2.2 C 37 %
939 31-10-2019 11:28:17 2.4 C 36 %
940 31-10-2019 11:38:17 2.7 C 36 %
941 31-10-2019 11:48:17 3.1 C 33 %
942 31-10-2019 11:58:17 3.2 C 32 %
943 31-10-2019 12:08:17 3.4 C 32 %
944 31-10-2019 12:18:17 3.6 C 32 %
945 31-10-2019 12:28:17 4.2 C 30 %
946 31-10-2019 12:38:17 5.4 C 26 %
947 31-10-2019 12:48:18 7.6 C 20 %
948 31-10-2019 12:58:18 9.7 C 20 %
949 31-10-2019 13:08:17 8.3 C 20 %
950 31-10-2019 13:18:17 6.8 C 20 %
Sensor: Nr:Datum:Temp:Feuchte:
Aussen-T/F 951 31-10-2019 13:28:17 6.5 C 20 %
952 31-10-2019 13:38:17 6 C 20 %
953 31-10-2019 13:48:17 6.4 C 20 %
954 31-10-2019 13:58:17 6 C 20 %
955 31-10-2019 14:08:18 6 C 20 %
956 31-10-2019 14:18:17 6.8 C 20 %
957 31-10-2019 14:28:17 7.5 C 20 %
958 31-10-2019 14:38:17 7.1 C 20 %
959 31-10-2019 14:48:17 7.6 C 20 %
960 31-10-2019 14:58:17 7.6 C 20 %
961 31-10-2019 15:08:17 7.4 C 20 %
962 31-10-2019 15:18:17 7 C 20 %
963 31-10-2019 15:28:17 7.3 C 20 %
964 31-10-2019 15:38:18 7.8 C 20 %
965 31-10-2019 15:48:17 7.7 C 20 %
966 31-10-2019 15:58:17 7.9 C 20 %
967 31-10-2019 16:08:17 7.6 C 20 %
968 31-10-2019 16:18:17 7.4 C 20 %
969 31-10-2019 16:28:17 6.1 C 20 %
970 31-10-2019 16:38:17 5.7 C 20 %
971 31-10-2019 16:48:17 4.8 C 21 %
972 31-10-2019 16:58:17 4.5 C 21 %
973 31-10-2019 17:08:17 4.1 C 23 %
974 31-10-2019 17:18:17 3.8 C 26 %
975 31-10-2019 17:28:17 3.6 C 26 %
Sensor: Nr:Datum:Temp:Feuchte:
Aussen-T/F 976 31-10-2019 17:38:18 3.2 C 26 %
977 31-10-2019 17:48:17 2.9 C 27 %
978 31-10-2019 17:58:17 2.8 C 27 %
979 31-10-2019 18:08:17 2.5 C 29 %
980 31-10-2019 18:18:17 2.2 C 28 %
981 31-10-2019 18:28:17 2.2 C 29 %
982 31-10-2019 18:38:18 2.2 C 29 %
983 31-10-2019 18:48:17 2.1 C 30 %
984 31-10-2019 18:58:17 1.9 C 30 %
985 31-10-2019 19:08:17 2.1 C 30 %
986 31-10-2019 19:18:17 1.7 C 31 %
987 31-10-2019 19:28:17 1.8 C 32 %
988 31-10-2019 19:38:17 1.6 C 31 %
989 31-10-2019 19:48:18 1.4 C 32 %
990 31-10-2019 19:58:18 1.3 C 33 %
991 31-10-2019 20:08:17 1 C 34 %
992 31-10-2019 20:18:17 1 C 35 %
993 31-10-2019 20:28:17 0.8 C 36 %
994 31-10-2019 20:38:17 0.8 C 36 %
995 31-10-2019 20:48:18 0.7 C 37 %
996 31-10-2019 20:58:18 0.6 C 38 %
997 31-10-2019 21:08:17 0.5 C 38 %
998 31-10-2019 21:18:17 0.5 C 38 %
999 31-10-2019 21:28:17 0.3 C 38 %
1000 31-10-2019 21:38:17 0.2 C 39 %
Sensor: Nr:Datum:Temp:Feuchte:
Aussen-T/F 1001 31-10-2019 21:48:18 0.4 C 40 %
1002 31-10-2019 21:58:18 0.5 C 40 %
1003 31-10-2019 22:08:17 0.5 C 40 %
1004 31-10-2019 22:18:17 0.4 C 40 %
1005 31-10-2019 22:28:17 0.1 C 39 %
1006 31-10-2019 22:38:17 0 C 39 %
1007 31-10-2019 22:48:17 0.1 C 40 %
1008 31-10-2019 22:58:17 0.1 C 40 %
1009 31-10-2019 23:08:17 0.4 C 41 %
1010 31-10-2019 23:18:17 0.4 C 40 %
1011 31-10-2019 23:28:17 0 C 38 %
1012 31-10-2019 23:38:17 0 C 40 %
1013 31-10-2019 23:48:17 0 C 40 %
1014 31-10-2019 23:58:17 -0.2 C 40 %
1015 01-11-2019 00:08:18 -0.4 C 40 %
1016 01-11-2019 00:18:17 -0.5 C 40 %
1017 01-11-2019 00:28:17 -0.5 C 41 %
1018 01-11-2019 00:38:17 -0.4 C 41 %
1019 01-11-2019 00:48:18 -0.6 C 41 %
1020 01-11-2019 00:58:18 -0.6 C 42 %
1021 01-11-2019 01:08:18 -0.7 C 41 %
1022 01-11-2019 01:18:17 -0.6 C 41 %
1023 01-11-2019 01:28:17 -0.6 C 41 %
1024 01-11-2019 01:38:17 -0.7 C 41 %
1025 01-11-2019 01:48:17 -0.7 C 41 %
Sensor: Nr:Datum:Temp:Feuchte:
Aussen-T/F 1026 01-11-2019 01:58:17 -0.7 C 41 %
1027 01-11-2019 02:08:17 -0.7 C 41 %
1028 01-11-2019 02:18:17 -0.6 C 41 %
1029 01-11-2019 02:28:17 -0.7 C 41 %
1030 01-11-2019 02:38:17 -0.6 C 42 %
1031 01-11-2019 02:48:18 -0.6 C 42 %
1032 01-11-2019 02:58:18 -0.6 C 42 %
1033 01-11-2019 03:08:17 -0.7 C 41 %
1034 01-11-2019 03:18:17 -0.7 C 41 %
1035 01-11-2019 03:28:17 -0.7 C 41 %
1036 01-11-2019 03:38:17 -0.7 C 41 %
1037 01-11-2019 03:48:17 -0.7 C 42 %
1038 01-11-2019 03:58:17 -0.2 C 42 %
1039 01-11-2019 04:08:17 0 C 42 %
1040 01-11-2019 04:18:17 0.3 C 42 %
1041 01-11-2019 04:28:17 0.5 C 43 %
1042 01-11-2019 04:38:17 0.8 C 43 %
1043 01-11-2019 04:48:17 1 C 41 %
1044 01-11-2019 04:58:17 1.2 C 41 %
1045 01-11-2019 05:08:17 1.5 C 41 %
1046 01-11-2019 05:18:17 1.6 C 41 %
1047 01-11-2019 05:28:17 1.7 C 41 %
1048 01-11-2019 05:38:17 1.9 C 40 %
1049 01-11-2019 05:48:17 2 C 39 %
1050 01-11-2019 05:58:17 2.1 C 39 %
Sensor: Nr:Datum:Temp:Feuchte:
Aussen-T/F 1051 01-11-2019 06:08:17 2.3 C 38 %
1052 01-11-2019 06:18:17 2.3 C 36 %
1053 01-11-2019 06:28:17 2.4 C 36 %
1054 01-11-2019 06:38:18 2.5 C 37 %
1055 01-11-2019 06:48:17 2.5 C 37 %
1056 01-11-2019 06:58:17 2.7 C 37 %
1057 01-11-2019 07:08:17 2.7 C 37 %
1058 01-11-2019 07:18:17 2.8 C 37 %
1059 01-11-2019 07:28:17 3 C 36 %
1060 01-11-2019 07:38:17 3.2 C 37 %
1061 01-11-2019 07:48:17 3.3 C 37 %
1062 01-11-2019 07:58:17 3.4 C 37 %
1063 01-11-2019 08:08:18 3.5 C 38 %
1064 01-11-2019 08:18:17 3.6 C 39 %
1065 01-11-2019 08:28:17 3.8 C 40 %
1066 01-11-2019 08:38:17 4.1 C 40 %
1067 01-11-2019 08:48:17 4.3 C 40 %
1068 01-11-2019 08:58:17 4.5 C 39 %
1069 01-11-2019 09:08:18 4.7 C 40 %
1070 01-11-2019 09:18:17 4.8 C 40 %
1071 01-11-2019 09:28:17 4.9 C 38 %
1072 01-11-2019 09:38:17 5.2 C 37 %
1073 01-11-2019 09:48:17 5.5 C 39 %
1074 01-11-2019 09:58:17 5.6 C 37 %
1075 01-11-2019 10:08:17 5.8 C 33 %
Sensor: Nr:Datum:Temp:Feuchte:
Aussen-T/F 1076 01-11-2019 10:18:17 6.3 C 32 %
1077 01-11-2019 10:28:17 6.5 C 32 %
1078 01-11-2019 10:38:18 6.9 C 33 %
1079 01-11-2019 10:48:17 7.3 C 31 %
1080 01-11-2019 10:58:17 7.4 C 30 %
1081 01-11-2019 11:08:17 7.4 C 26 %
1082 01-11-2019 11:18:17 7.3 C 26 %
1083 01-11-2019 11:28:17 7.2 C 26 %
1084 01-11-2019 11:38:17 7.6 C 26 %
1085 01-11-2019 11:48:17 7.9 C 25 %
1086 01-11-2019 11:58:17 8 C 26 %
1087 01-11-2019 12:08:17 8.1 C 26 %
1088 01-11-2019 12:18:17 8.5 C 26 %
1089 01-11-2019 12:28:17 8.1 C 25 %
1090 01-11-2019 12:38:17 8 C 25 %
1091 01-11-2019 12:48:17 8 C 25 %
1092 01-11-2019 12:58:17 7.8 C 26 %
1093 01-11-2019 13:08:18 7.9 C 26 %
1094 01-11-2019 13:18:17 8.3 C 27 %
1095 01-11-2019 13:28:17 8.3 C 26 %
1096 01-11-2019 13:38:17 8.1 C 27 %
1097 01-11-2019 13:48:17 7.9 C 30 %
1098 01-11-2019 13:58:17 7.9 C 30 %
1099 01-11-2019 14:08:17 8 C 31 %
1100 01-11-2019 14:18:17 8 C 31 %
Sensor: Nr:Datum:Temp:Feuchte:
Aussen-T/F 1101 01-11-2019 14:28:17 8.1 C 32 %
1102 01-11-2019 14:38:17 8.1 C 33 %
1103 01-11-2019 14:48:17 8.1 C 33 %
1104 01-11-2019 14:58:17 8.1 C 33 %
1105 01-11-2019 15:08:18 8.1 C 34 %
1106 01-11-2019 15:18:17 8 C 35 %
1107 01-11-2019 15:28:17 8 C 35 %
1108 01-11-2019 15:38:17 8 C 36 %
1109 01-11-2019 15:48:17 8 C 36 %
1110 01-11-2019 15:58:17 8.1 C 36 %
1111 01-11-2019 16:08:18 8 C 36 %
1112 01-11-2019 16:18:17 8.1 C 38 %
1113 01-11-2019 16:28:17 8.1 C 38 %
1114 01-11-2019 16:38:17 8.1 C 38 %
1115 01-11-2019 16:48:17 8.1 C 38 %
1116 01-11-2019 16:58:17 8.1 C 38 %
1117 01-11-2019 17:08:17 8 C 39 %
1118 01-11-2019 17:18:17 8.2 C 39 %
1119 01-11-2019 17:28:17 8.1 C 39 %
1120 01-11-2019 17:38:17 8.1 C 38 %
1121 01-11-2019 17:48:17 8.1 C 38 %
1122 01-11-2019 17:58:17 8.2 C 38 %
1123 01-11-2019 18:08:17 8.2 C 38 %
1124 01-11-2019 18:18:17 8.1 C 38 %
1125 01-11-2019 18:28:17 8.1 C 38 %
Sensor: Nr:Datum:Temp:Feuchte:
Aussen-T/F 1126 01-11-2019 18:38:17 8.1 C 38 %
1127 01-11-2019 18:48:17 8.1 C 38 %
1128 01-11-2019 18:58:17 8.1 C 39 %
1129 01-11-2019 19:08:17 8.1 C 39 %
1130 01-11-2019 19:18:17 8.2 C 39 %
1131 01-11-2019 19:28:17 8.2 C 39 %
1132 01-11-2019 19:38:17 8.3 C 39 %
1133 01-11-2019 19:48:17 8.3 C 38 %
1134 01-11-2019 19:58:17 8.3 C 38 %
1135 01-11-2019 20:08:17 8.4 C 38 %
1136 01-11-2019 20:18:17 8.4 C 38 %
1137 01-11-2019 20:28:17 8.5 C 38 %
1138 01-11-2019 20:38:17 8.6 C 38 %
1139 01-11-2019 20:48:17 8.6 C 38 %
1140 01-11-2019 20:58:18 8.9 C 38 %
1141 01-11-2019 21:08:17 8.9 C 38 %
1142 01-11-2019 21:18:17 8.9 C 38 %
1143 01-11-2019 21:28:17 9 C 38 %
1144 01-11-2019 21:38:17 9.1 C 38 %
1145 01-11-2019 21:48:17 9.2 C 38 %
1146 01-11-2019 21:58:17 9.2 C 38 %
1147 01-11-2019 22:08:17 9.4 C 38 %
1148 01-11-2019 22:18:17 9.5 C 38 %
1149 01-11-2019 22:28:17 9.7 C 38 %
1150 01-11-2019 22:38:17 9.5 C 38 %
Sensor: Nr:Datum:Temp:Feuchte:
Aussen-T/F 1151 01-11-2019 22:48:17 9.7 C 38 %
1152 01-11-2019 22:58:17 9.7 C 38 %
1153 01-11-2019 23:08:17 9.7 C 38 %
1154 01-11-2019 23:18:17 9.8 C 38 %
1155 01-11-2019 23:28:17 9.9 C 38 %
1156 01-11-2019 23:38:17 9.9 C 38 %
1157 01-11-2019 23:48:17 9.9 C 38 %
1158 01-11-2019 23:58:17 10 C 37 %
1159 02-11-2019 00:08:17 10.4 C 37 %
1160 02-11-2019 00:18:17 10.7 C 37 %
1161 02-11-2019 00:28:17 10.8 C 37 %
1162 02-11-2019 00:38:17 10.8 C 37 %
1163 02-11-2019 00:48:17 10.8 C 37 %
1164 02-11-2019 00:58:17 11 C 36 %
1165 02-11-2019 01:08:17 11.3 C 36 %
1166 02-11-2019 01:18:17 11.4 C 36 %
1167 02-11-2019 01:28:17 11.4 C 36 %
1168 02-11-2019 01:38:17 11.4 C 36 %
1169 02-11-2019 01:48:17 11.4 C 36 %
1170 02-11-2019 01:58:17 11.3 C 36 %
1171 02-11-2019 02:08:17 11.4 C 36 %
1172 02-11-2019 02:18:17 11.3 C 36 %
1173 02-11-2019 02:28:17 11.3 C 36 %
1174 02-11-2019 02:38:17 11.3 C 36 %
1175 02-11-2019 02:48:17 11.6 C 36 %
Sensor: Nr:Datum:Temp:Feuchte:
Aussen-T/F 1176 02-11-2019 02:58:17 11.6 C 36 %
1177 02-11-2019 03:08:17 11.3 C 36 %
1178 02-11-2019 03:18:17 11.7 C 36 %
1179 02-11-2019 03:28:17 12 C 36 %
1180 02-11-2019 03:38:17 11.6 C 36 %
1181 02-11-2019 03:48:17 11.4 C 35 %
1182 02-11-2019 03:58:17 11.3 C 35 %
1183 02-11-2019 04:08:17 11.5 C 35 %
1184 02-11-2019 04:18:17 11.3 C 36 %
1185 02-11-2019 04:28:17 11.6 C 36 %
1186 02-11-2019 04:38:17 11.7 C 36 %
1187 02-11-2019 04:48:17 11.5 C 36 %
1188 02-11-2019 04:58:17 12 C 36 %
1189 02-11-2019 05:08:17 11.9 C 36 %
1190 02-11-2019 05:18:17 12 C 36 %
1191 02-11-2019 05:28:17 12.1 C 36 %
1192 02-11-2019 05:38:17 12.1 C 36 %
1193 02-11-2019 05:48:17 12.1 C 36 %
1194 02-11-2019 05:58:17 12.1 C 36 %
1195 02-11-2019 06:08:18 12.3 C 36 %
1196 02-11-2019 06:18:17 12.4 C 36 %
1197 02-11-2019 06:28:17 12.5 C 36 %
1198 02-11-2019 06:38:17 12.8 C 38 %
1199 02-11-2019 06:48:17 13.4 C 36 %
1200 02-11-2019 06:58:17 13.1 C 34 %
Sensor: Nr:Datum:Temp:Feuchte:
Aussen-T/F 1201 02-11-2019 07:08:17 12.8 C 34 %
1202 02-11-2019 07:18:17 12.8 C 34 %
1203 02-11-2019 07:28:17 12.8 C 34 %
1204 02-11-2019 07:38:18 13 C 34 %
1205 02-11-2019 07:48:17 13.1 C 34 %
1206 02-11-2019 07:58:17 13.2 C 34 %
1207 02-11-2019 08:08:17 13.2 C 33 %
1208 02-11-2019 08:18:17 13.2 C 33 %
1209 02-11-2019 08:28:17 13.4 C 34 %
1210 02-11-2019 08:38:17 13.4 C 34 %
1211 02-11-2019 08:48:18 13.4 C 33 %
1212 02-11-2019 08:58:18 13.6 C 33 %
1213 02-11-2019 09:08:17 14.1 C 32 %
1214 02-11-2019 09:18:17 14.2 C 31 %
1215 02-11-2019 09:28:17 14.7 C 25 %
1216 02-11-2019 09:38:17 15 C 21 %
1217 02-11-2019 09:48:18 15.6 C 20 %
1218 02-11-2019 09:58:18 15 C 20 %
1219 02-11-2019 10:08:17 15 C 21 %
1220 02-11-2019 10:18:17 15 C 21 %
1221 02-11-2019 10:28:17 15 C 21 %
1222 02-11-2019 10:38:17 14.3 C 25 %
1223 02-11-2019 10:48:17 15.1 C 21 %
1224 02-11-2019 10:58:17 15.6 C 20 %
1225 02-11-2019 11:08:17 15.7 C 20 %
Sensor: Nr:Datum:Temp:Feuchte:
Aussen-T/F 1226 02-11-2019 11:18:17 15.7 C 20 %
1227 02-11-2019 11:28:17 16 C 20 %
1228 02-11-2019 11:38:17 16.2 C 20 %
1229 02-11-2019 11:48:17 16.2 C 20 %
1230 02-11-2019 11:58:17 16.3 C 20 %
1231 02-11-2019 12:08:17 16.5 C 20 %
1232 02-11-2019 12:18:17 16.6 C 20 %
1233 02-11-2019 12:28:17 16.3 C 20 %
1234 02-11-2019 12:38:17 16.4 C 20 %
1235 02-11-2019 12:48:17 16.6 C 20 %
1236 02-11-2019 12:58:17 16.6 C 20 %
1237 02-11-2019 13:08:17 16.2 C 20 %
1238 02-11-2019 13:18:17 16.6 C 20 %
1239 02-11-2019 13:28:17 16.4 C 20 %
1240 02-11-2019 13:38:17 16.2 C 20 %
1241 02-11-2019 13:48:18 16.1 C 20 %
1242 02-11-2019 13:58:18 16.1 C 20 %
1243 02-11-2019 14:08:17 16.2 C 20 %
1244 02-11-2019 14:18:17 16.6 C 20 %
1245 02-11-2019 14:28:17 16.4 C 20 %
1246 02-11-2019 14:38:17 16.1 C 20 %
1247 02-11-2019 14:48:18 16.1 C 20 %
1248 02-11-2019 14:58:18 15.6 C 20 %
1249 02-11-2019 15:08:17 15.3 C 20 %
1250 02-11-2019 15:18:17 15 C 20 %
Sensor: Nr:Datum:Temp:Feuchte:
Aussen-T/F 1251 02-11-2019 15:28:17 14.8 C 20 %
1252 02-11-2019 15:38:17 14.5 C 20 %
1253 02-11-2019 15:48:17 14.5 C 20 %
1254 02-11-2019 15:58:17 14.5 C 20 %
1255 02-11-2019 16:08:17 14.3 C 20 %
1256 02-11-2019 16:18:17 14.4 C 20 %
1257 02-11-2019 16:28:17 14.5 C 20 %
1258 02-11-2019 16:38:17 14.3 C 20 %
1259 02-11-2019 16:48:17 14.7 C 20 %
1260 02-11-2019 16:58:17 14.3 C 20 %
1261 02-11-2019 17:08:17 14.6 C 20 %
1262 02-11-2019 17:18:17 14.1 C 20 %
1263 02-11-2019 17:28:17 12.2 C 20 %
1264 02-11-2019 17:38:17 11.7 C 27 %
1265 02-11-2019 17:48:17 11.6 C 25 %
1266 02-11-2019 17:58:18 11.5 C 25 %
1267 02-11-2019 18:08:17 11.3 C 26 %
1268 02-11-2019 18:18:17 11 C 27 %
1269 02-11-2019 18:28:17 10.7 C 28 %
1270 02-11-2019 18:38:17 10.7 C 30 %
1271 02-11-2019 18:48:17 10.7 C 30 %
1272 02-11-2019 18:58:17 10.7 C 30 %
1273 02-11-2019 19:08:17 10.6 C 30 %
1274 02-11-2019 19:18:17 10.8 C 30 %
1275 02-11-2019 19:28:17 11 C 29 %
Sensor: Nr:Datum:Temp:Feuchte:
Aussen-T/F 1276 02-11-2019 19:38:17 11 C 26 %
1277 02-11-2019 19:48:17 10.7 C 28 %
1278 02-11-2019 19:58:17 10.7 C 30 %
1279 02-11-2019 20:08:18 10.5 C 29 %
1280 02-11-2019 20:18:17 10.7 C 27 %
1281 02-11-2019 20:28:17 10.7 C 27 %
1282 02-11-2019 20:38:17 10.8 C 26 %
1283 02-11-2019 20:48:17 11.1 C 25 %
1284 02-11-2019 20:58:17 10.6 C 26 %
1285 02-11-2019 21:08:18 10.7 C 25 %
1286 02-11-2019 21:18:18 10.7 C 23 %
1287 02-11-2019 21:28:18 10.5 C 23 %
1288 02-11-2019 21:38:17 10.4 C 22 %
1289 02-11-2019 21:48:17 10.5 C 23 %
1290 02-11-2019 21:58:17 10.2 C 25 %
1291 02-11-2019 22:08:17 10.2 C 25 %
1292 02-11-2019 22:18:17 10.5 C 22 %
1293 02-11-2019 22:28:17 10.4 C 22 %
1294 02-11-2019 22:38:17 10.1 C 25 %
1295 02-11-2019 22:48:18 10.1 C 23 %
1296 02-11-2019 22:58:18 9.8 C 26 %
1297 02-11-2019 23:08:17 9.6 C 27 %
1298 02-11-2019 23:18:17 9.6 C 27 %
1299 02-11-2019 23:28:17 9.8 C 26 %
1300 02-11-2019 23:38:17 10.6 C 20 %
Sensor: Nr:Datum:Temp:Feuchte:
Aussen-T/F 1301 02-11-2019 23:48:17 10.9 C 20 %
1302 02-11-2019 23:58:17 10.2 C 20 %
1303 03-11-2019 00:08:17 9.8 C 21 %
1304 03-11-2019 00:18:18 9.6 C 25 %
1305 03-11-2019 00:28:18 9.6 C 25 %
1306 03-11-2019 00:38:17 9.2 C 26 %
1307 03-11-2019 00:48:17 9.3 C 26 %
1308 03-11-2019 00:58:17 9.3 C 26 %
1309 03-11-2019 01:08:17 9.7 C 26 %
1310 03-11-2019 01:18:17 9.8 C 25 %
1311 03-11-2019 01:28:17 9.9 C 25 %
1312 03-11-2019 01:38:17 10 C 25 %
1313 03-11-2019 01:48:17 9.7 C 26 %
1314 03-11-2019 01:58:17 9.7 C 26 %
1315 03-11-2019 02:08:17 9.3 C 27 %
1316 03-11-2019 02:18:17 9.3 C 27 %
1317 03-11-2019 02:28:17 8.9 C 30 %
1318 03-11-2019 02:38:17 9 C 30 %
1319 03-11-2019 02:48:17 9.2 C 30 %
1320 03-11-2019 02:58:17 9.2 C 30 %
1321 03-11-2019 03:08:17 9 C 33 %
1322 03-11-2019 03:18:17 9.2 C 31 %
1323 03-11-2019 03:28:17 9.2 C 31 %
1324 03-11-2019 03:38:17 9.1 C 33 %
1325 03-11-2019 03:48:18 9.2 C 35 %
Sensor: Nr:Datum:Temp:Feuchte:
Aussen-T/F 1326 03-11-2019 03:58:18 9.3 C 34 %
1327 03-11-2019 04:08:17 9.5 C 32 %
1328 03-11-2019 04:18:17 9.5 C 33 %
1329 03-11-2019 04:28:17 9.4 C 35 %
1330 03-11-2019 04:38:17 9.4 C 36 %
1331 03-11-2019 04:48:17 9.3 C 36 %
1332 03-11-2019 04:58:17 9.3 C 36 %
1333 03-11-2019 05:08:18 9.4 C 37 %
1334 03-11-2019 05:18:17 9.4 C 36 %
1335 03-11-2019 05:28:17 9.4 C 36 %
1336 03-11-2019 05:38:17 9.4 C 37 %
1337 03-11-2019 05:48:18 9.4 C 37 %
1338 03-11-2019 05:58:18 9.5 C 37 %
1339 03-11-2019 06:08:17 9.5 C 37 %
1340 03-11-2019 06:18:17 9.6 C 37 %
1341 03-11-2019 06:28:17 9.7 C 36 %
1342 03-11-2019 06:38:17 9.7 C 36 %
1343 03-11-2019 06:48:17 9.6 C 36 %
1344 03-11-2019 06:58:18 9.7 C 36 %
1345 03-11-2019 07:08:17 9.7 C 36 %
1346 03-11-2019 07:18:17 9.6 C 36 %
1347 03-11-2019 07:28:17 9.5 C 38 %
1348 03-11-2019 07:38:17 9.6 C 38 %
1349 03-11-2019 07:48:17 9.4 C 37 %
1350 03-11-2019 07:58:17 9.3 C 37 %
Sensor: Nr:Datum:Temp:Feuchte:
Aussen-T/F 1351 03-11-2019 08:08:17 9.6 C 38 %
1352 03-11-2019 08:18:17 9.8 C 38 %
1353 03-11-2019 08:28:17 9.9 C 38 %
1354 03-11-2019 08:38:17 9.9 C 38 %
1355 03-11-2019 08:48:17 10.1 C 37 %
1356 03-11-2019 08:58:17 10.4 C 37 %
1357 03-11-2019 09:08:17 10.6 C 37 %
1358 03-11-2019 09:18:17 10.7 C 37 %
1359 03-11-2019 09:28:17 10.8 C 36 %
1360 03-11-2019 09:38:17 10.8 C 36 %
1361 03-11-2019 09:48:17 11.4 C 34 %
1362 03-11-2019 09:58:17 11.8 C 30 %
1363 03-11-2019 10:08:17 12.1 C 26 %
1364 03-11-2019 10:18:17 12.1 C 26 %
1365 03-11-2019 10:28:17 12.4 C 26 %
1366 03-11-2019 10:38:18 12.3 C 26 %
1367 03-11-2019 10:48:17 12.5 C 25 %
1368 03-11-2019 10:58:17 12.6 C 25 %
1369 03-11-2019 11:08:17 13.2 C 21 %
1370 03-11-2019 11:18:17 14 C 20 %
1371 03-11-2019 11:28:17 14 C 20 %
1372 03-11-2019 11:38:17 14.3 C 20 %
1373 03-11-2019 11:48:17 14.2 C 20 %
1374 03-11-2019 11:58:17 14.9 C 20 %
1375 03-11-2019 12:08:17 15 C 20 %
Sensor: Nr:Datum:Temp:Feuchte:
Aussen-T/F 1376 03-11-2019 12:18:17 15.2 C 20 %
1377 03-11-2019 12:28:17 15.4 C 20 %
1378 03-11-2019 12:38:17 15.5 C 20 %
1379 03-11-2019 12:48:17 16.8 C 20 %
1380 03-11-2019 12:58:17 15.8 C 20 %
1381 03-11-2019 13:08:17 16.3 C 20 %
1382 03-11-2019 13:18:17 16.4 C 20 %
1383 03-11-2019 13:28:17 15.6 C 20 %
1384 03-11-2019 13:38:17 16 C 20 %
1385 03-11-2019 13:48:17 16.4 C 20 %
1386 03-11-2019 13:58:17 16.5 C 20 %
1387 03-11-2019 14:08:17 16.8 C 20 %
1388 03-11-2019 14:18:17 15.8 C 20 %
1389 03-11-2019 14:28:17 15.9 C 20 %
1390 03-11-2019 14:38:17 15.8 C 20 %
1391 03-11-2019 14:48:17 16 C 20 %
1392 03-11-2019 14:58:17 15.9 C 20 %
1393 03-11-2019 15:08:17 15.6 C 20 %
1394 03-11-2019 15:18:17 14.9 C 20 %
1395 03-11-2019 15:28:17 14.8 C 20 %
1396 03-11-2019 15:38:17 14.6 C 20 %
1397 03-11-2019 15:48:17 14.2 C 20 %
1398 03-11-2019 15:58:17 14 C 20 %
1399 03-11-2019 16:08:17 13.8 C 20 %
1400 03-11-2019 16:18:17 13.7 C 20 %
Sensor: Nr:Datum:Temp:Feuchte:
Aussen-T/F 1401 03-11-2019 16:28:17 13.5 C 20 %
1402 03-11-2019 16:38:17 13.5 C 20 %
1403 03-11-2019 16:48:17 12.9 C 25 %
1404 03-11-2019 16:58:17 12.8 C 25 %
1405 03-11-2019 17:08:18 12.6 C 25 %
1406 03-11-2019 17:18:17 12.6 C 25 %
1407 03-11-2019 17:28:17 11.9 C 30 %
1408 03-11-2019 17:38:17 11.8 C 31 %
1409 03-11-2019 17:48:17 11.7 C 33 %
1410 03-11-2019 17:58:17 11.7 C 35 %
1411 03-11-2019 18:08:17 11.7 C 35 %
1412 03-11-2019 18:18:17 11.4 C 37 %
1413 03-11-2019 18:28:17 11.5 C 37 %
1414 03-11-2019 18:38:18 11.5 C 37 %
1415 03-11-2019 18:48:17 11.4 C 37 %
1416 03-11-2019 18:58:17 11.3 C 37 %
1417 03-11-2019 19:08:17 11.2 C 37 %
1418 03-11-2019 19:18:17 11.1 C 37 %
1419 03-11-2019 19:28:17 11 C 37 %
1420 03-11-2019 19:38:17 10.7 C 37 %
1421 03-11-2019 19:48:18 10.5 C 37 %
1422 03-11-2019 19:58:18 10.4 C 37 %
1423 03-11-2019 20:08:17 10.4 C 37 %
1424 03-11-2019 20:18:17 10.4 C 37 %
1425 03-11-2019 20:28:17 10.4 C 37 %
Sensor: Nr:Datum:Temp:Feuchte:
Aussen-T/F 1426 03-11-2019 20:38:17 10.4 C 37 %
1427 03-11-2019 20:48:18 10.4 C 37 %
1428 03-11-2019 20:58:18 10.2 C 37 %
1429 03-11-2019 21:08:17 10.3 C 37 %
1430 03-11-2019 21:18:17 10.3 C 35 %
1431 03-11-2019 21:28:17 10.4 C 34 %
1432 03-11-2019 21:38:17 10.4 C 32 %
1433 03-11-2019 21:48:18 10.4 C 32 %
1434 03-11-2019 21:58:18 10.4 C 32 %
1435 03-11-2019 22:08:17 10.5 C 31 %
1436 03-11-2019 22:18:17 10.3 C 31 %
1437 03-11-2019 22:28:17 10.4 C 32 %
1438 03-11-2019 22:38:17 10.3 C 34 %
1439 03-11-2019 22:48:17 10.1 C 34 %
1440 03-11-2019 22:58:17 9.8 C 36 %
1441 03-11-2019 23:08:18 10 C 36 %
1442 03-11-2019 23:18:17 10.1 C 35 %
1443 03-11-2019 23:28:18 10.5 C 32 %
1444 03-11-2019 23:38:17 11.1 C 26 %
1445 03-11-2019 23:48:17 11.1 C 26 %
1446 03-11-2019 23:58:17 11.2 C 26 %
1447 04-11-2019 00:08:17 10.7 C 28 %
1448 04-11-2019 00:18:17 10.6 C 29 %
1449 04-11-2019 00:28:17 10.7 C 25 %
1450 04-11-2019 00:38:18 10.8 C 25 %
Sensor: Nr:Datum:Temp:Feuchte:
Aussen-T/F 1451 04-11-2019 00:48:17 10.7 C 25 %
1452 04-11-2019 00:58:17 10.9 C 25 %
1453 04-11-2019 01:08:17 10.7 C 25 %
1454 04-11-2019 01:18:17 10.8 C 25 %
1455 04-11-2019 01:28:17 10.8 C 25 %
1456 04-11-2019 01:38:17 10.2 C 27 %
1457 04-11-2019 01:48:17 10 C 29 %
1458 04-11-2019 01:58:18 9.7 C 33 %
1459 04-11-2019 02:08:17 9.6 C 32 %
1460 04-11-2019 02:18:17 8.9 C 35 %
1461 04-11-2019 02:28:17 9 C 35 %
1462 04-11-2019 02:38:17 9 C 35 %
1463 04-11-2019 02:48:18 9.3 C 30 %
1464 04-11-2019 02:58:18 9.5 C 29 %
1465 04-11-2019 03:08:17 9.8 C 27 %
1466 04-11-2019 03:18:17 9.6 C 28 %
1467 04-11-2019 03:28:17 9.3 C 31 %
1468 04-11-2019 03:38:17 9.3 C 32 %
1469 04-11-2019 03:48:17 9.3 C 35 %
1470 04-11-2019 03:58:17 9.3 C 35 %
1471 04-11-2019 04:08:17 9.3 C 35 %
1472 04-11-2019 04:18:17 9.6 C 31 %
1473 04-11-2019 04:28:17 9.7 C 33 %
1474 04-11-2019 04:38:17 9.5 C 35 %
1475 04-11-2019 04:48:17 9.5 C 37 %
Sensor: Nr:Datum:Temp:Feuchte:
Aussen-T/F 1476 04-11-2019 04:58:17 9.5 C 36 %
1477 04-11-2019 05:08:17 9.5 C 36 %
1478 04-11-2019 05:18:17 9.7 C 36 %
1479 04-11-2019 05:28:17 10.1 C 30 %
1480 04-11-2019 05:38:17 10.1 C 30 %
1481 04-11-2019 05:48:17 9.7 C 31 %
1482 04-11-2019 05:58:17 9.1 C 32 %
1483 04-11-2019 06:08:18 8.9 C 37 %
1484 04-11-2019 06:18:17 8.8 C 37 %
1485 04-11-2019 06:28:17 8.8 C 36 %
1486 04-11-2019 06:38:17 9.1 C 35 %
1487 04-11-2019 06:48:18 9 C 35 %
1488 04-11-2019 06:58:18 8.6 C 34 %
1489 04-11-2019 07:08:17 8.6 C 35 %
1490 04-11-2019 07:18:17 8.4 C 32 %
1491 04-11-2019 07:28:17 8.4 C 34 %
1492 04-11-2019 07:38:17 9 C 30 %
1493 04-11-2019 07:48:17 9 C 30 %
1494 04-11-2019 07:58:17 8.5 C 31 %
1495 04-11-2019 08:08:18 8.7 C 33 %
1496 04-11-2019 08:18:17 8.7 C 35 %
1497 04-11-2019 08:28:17 8.7 C 35 %
1498 04-11-2019 08:38:17 9.4 C 35 %
1499 04-11-2019 08:48:17 9.6 C 34 %
1500 04-11-2019 08:58:17 9.6 C 33 %
Sensor: Nr:Datum:Temp:Feuchte:
Aussen-T/F 1501 04-11-2019 09:08:17 9.5 C 26 %
1502 04-11-2019 09:18:17 9.5 C 28 %
1503 04-11-2019 09:28:17 9.6 C 28 %
1504 04-11-2019 09:38:17 9.7 C 29 %
1505 04-11-2019 09:48:17 10 C 26 %
1506 04-11-2019 09:58:17 10.5 C 25 %
1507 04-11-2019 10:08:17 11.1 C 23 %
1508 04-11-2019 10:18:17 11.1 C 22 %
1509 04-11-2019 10:28:17 11.1 C 22 %
1510 04-11-2019 10:38:17 10.6 C 25 %
1511 04-11-2019 10:48:17 10.4 C 26 %
1512 04-11-2019 10:58:17 10.4 C 26 %
1513 04-11-2019 11:08:17 10.5 C 28 %
1514 04-11-2019 11:18:17 10.2 C 29 %
1515 04-11-2019 11:28:17 10.4 C 30 %
1516 04-11-2019 11:38:17 10.7 C 28 %
1517 04-11-2019 11:48:17 10.7 C 26 %
1518 04-11-2019 11:58:17 10.9 C 26 %
1519 04-11-2019 12:08:17 10.9 C 26 %
1520 04-11-2019 12:18:17 10.9 C 26 %
1521 04-11-2019 12:28:17 11 C 26 %
1522 04-11-2019 12:38:17 10.9 C 26 %
1523 04-11-2019 12:48:17 11 C 27 %
1524 04-11-2019 12:58:17 11.1 C 25 %
1525 04-11-2019 13:08:18 11.4 C 25 %
Sensor: Nr:Datum:Temp:Feuchte:
Aussen-T/F 1526 04-11-2019 13:18:17 11.9 C 24 %
1527 04-11-2019 13:28:17 12.2 C 21 %
1528 04-11-2019 13:38:17 12.1 C 22 %
1529 04-11-2019 13:48:17 12.5 C 20 %
1530 04-11-2019 13:58:17 12.3 C 20 %
1531 04-11-2019 14:08:17 12.1 C 20 %
1532 04-11-2019 14:18:17 12.2 C 20 %
1533 04-11-2019 14:28:17 12.7 C 20 %
1534 04-11-2019 14:38:17 13.1 C 20 %
1535 04-11-2019 14:48:17 13.8 C 20 %
1536 04-11-2019 14:58:17 12.8 C 20 %
1537 04-11-2019 15:08:17 13.7 C 20 %
1538 04-11-2019 15:18:17 13.4 C 20 %
1539 04-11-2019 15:28:17 12.9 C 20 %
1540 04-11-2019 15:38:17 13.7 C 20 %
1541 04-11-2019 15:48:18 14.2 C 20 %
1542 04-11-2019 15:58:18 13.6 C 20 %
1543 04-11-2019 16:08:17 12 C 20 %
1544 04-11-2019 16:18:17 11.5 C 20 %
1545 04-11-2019 16:28:17 11.1 C 20 %
1546 04-11-2019 16:38:17 10.4 C 25 %
1547 04-11-2019 16:48:17 10 C 26 %
1548 04-11-2019 16:58:17 10.1 C 28 %
1549 04-11-2019 17:08:17 9.8 C 27 %
1550 04-11-2019 17:18:17 9.9 C 28 %
Sensor: Nr:Datum:Temp:Feuchte:
Aussen-T/F 1551 04-11-2019 17:28:17 9.8 C 28 %
1552 04-11-2019 17:38:17 9.8 C 29 %
1553 04-11-2019 17:48:18 9.6 C 30 %
1554 04-11-2019 17:58:18 9.5 C 31 %
1555 04-11-2019 18:08:17 9.1 C 31 %
1556 04-11-2019 18:18:17 9 C 32 %
1557 04-11-2019 18:28:17 8.5 C 35 %
1558 04-11-2019 18:38:17 8.4 C 35 %
1559 04-11-2019 18:48:17 8.2 C 38 %
1560 04-11-2019 18:58:17 8.4 C 38 %
1561 04-11-2019 19:08:17 8.6 C 35 %
1562 04-11-2019 19:18:17 8.6 C 35 %
1563 04-11-2019 19:28:17 8.2 C 35 %
1564 04-11-2019 19:38:17 8.2 C 35 %
1565 04-11-2019 19:48:18 8.4 C 37 %
1566 04-11-2019 19:58:18 8.4 C 37 %
1567 04-11-2019 20:08:17 8.9 C 36 %
1568 04-11-2019 20:18:17 9.1 C 35 %
1569 04-11-2019 20:28:17 9 C 37 %
1570 04-11-2019 20:38:17 9.1 C 38 %
1571 04-11-2019 20:48:17 9.1 C 39 %
1572 04-11-2019 20:58:17 8.9 C 39 %
1573 04-11-2019 21:08:18 8.7 C 39 %
1574 04-11-2019 21:18:17 8.6 C 39 %
1575 04-11-2019 21:28:17 8.4 C 39 %
Sensor: Nr:Datum:Temp:Feuchte:
Aussen-T/F 1576 04-11-2019 21:38:17 8.2 C 38 %
1577 04-11-2019 21:48:17 7.7 C 39 %
1578 04-11-2019 21:58:17 7.5 C 39 %
1579 04-11-2019 22:08:17 7.5 C 39 %
1580 04-11-2019 22:18:17 7.2 C 39 %
1581 04-11-2019 22:28:17 7.3 C 39 %
1582 04-11-2019 22:38:17 7.5 C 40 %
1583 04-11-2019 22:48:17 7.5 C 39 %
1584 04-11-2019 22:58:17 7.9 C 40 %
1585 04-11-2019 23:08:17 8.1 C 39 %
1586 04-11-2019 23:18:17 8.4 C 39 %
1587 04-11-2019 23:28:17 8.5 C 38 %
1588 04-11-2019 23:38:17 9 C 35 %
1589 04-11-2019 23:48:17 9.5 C 27 %
1590 04-11-2019 23:58:17 9.5 C 26 %
1591 05-11-2019 00:08:17 9.2 C 27 %
1592 05-11-2019 00:18:17 9 C 27 %
1593 05-11-2019 00:28:17 9 C 27 %
1594 05-11-2019 00:38:18 8.8 C 29 %
1595 05-11-2019 00:48:17 9.1 C 27 %
1596 05-11-2019 00:58:17 9.1 C 26 %
1597 05-11-2019 01:08:17 9.1 C 26 %
1598 05-11-2019 01:18:17 8.7 C 27 %
1599 05-11-2019 01:28:17 9 C 26 %
1600 05-11-2019 01:38:17 8.7 C 27 %
Sensor: Nr:Datum:Temp:Feuchte:
Aussen-T/F 1601 05-11-2019 01:48:17 8.7 C 28 %
1602 05-11-2019 01:58:17 9 C 27 %
1603 05-11-2019 02:08:17 8.8 C 28 %
1604 05-11-2019 02:18:17 8.7 C 28 %
1605 05-11-2019 02:28:17 8.5 C 31 %
1606 05-11-2019 02:38:17 8.5 C 32 %
1607 05-11-2019 02:48:17 8.9 C 27 %
1608 05-11-2019 02:58:17 8.8 C 28 %
1609 05-11-2019 03:08:17 8.7 C 28 %
1610 05-11-2019 03:18:17 9.1 C 26 %
1611 05-11-2019 03:28:17 9 C 25 %
1612 05-11-2019 03:38:17 8.8 C 27 %
1613 05-11-2019 03:48:17 9 C 25 %
1614 05-11-2019 03:58:17 8.8 C 26 %
1615 05-11-2019 04:08:18 9.2 C 25 %
1616 05-11-2019 04:18:17 9 C 25 %
1617 05-11-2019 04:28:17 9.3 C 23 %
1618 05-11-2019 04:38:17 9.3 C 23 %
1619 05-11-2019 04:48:17 9 C 25 %
1620 05-11-2019 04:58:17 9.2 C 25 %
1621 05-11-2019 05:08:17 9.1 C 25 %
1622 05-11-2019 05:18:17 9.4 C 21 %
1623 05-11-2019 05:28:17 8.7 C 26 %
1624 05-11-2019 05:38:17 8.7 C 27 %
1625 05-11-2019 05:48:17 8.7 C 26 %
Sensor: Nr:Datum:Temp:Feuchte:
Aussen-T/F 1626 05-11-2019 05:58:17 8.6 C 27 %
1627 05-11-2019 06:08:17 8.5 C 27 %
1628 05-11-2019 06:18:17 8.7 C 26 %
1629 05-11-2019 06:28:17 8.8 C 26 %
1630 05-11-2019 06:38:17 8.8 C 26 %
1631 05-11-2019 06:48:17 8.7 C 27 %
1632 05-11-2019 06:58:17 9 C 25 %
1633 05-11-2019 07:08:18 9.2 C 25 %
1634 05-11-2019 07:18:17 9 C 25 %
1635 05-11-2019 07:28:17 8.7 C 26 %
1636 05-11-2019 07:38:17 8.2 C 27 %
1637 05-11-2019 07:48:17 8.2 C 27 %
1638 05-11-2019 07:58:17 7.9 C 30 %
1639 05-11-2019 08:08:17 8.2 C 28 %
1640 05-11-2019 08:18:17 8.4 C 28 %
1641 05-11-2019 08:28:17 8.8 C 26 %
1642 05-11-2019 08:38:18 8.5 C 26 %
1643 05-11-2019 08:48:17 9 C 25 %
1644 05-11-2019 08:58:17 9 C 25 %
1645 05-11-2019 09:08:17 8.7 C 26 %
1646 05-11-2019 09:18:17 9.1 C 21 %
1647 05-11-2019 09:28:17 8.7 C 26 %
1648 05-11-2019 09:38:17 9.2 C 25 %
1649 05-11-2019 09:48:18 9.8 C 20 %
1650 05-11-2019 09:58:18 10.4 C 20 %
Sensor: Nr:Datum:Temp:Feuchte:
Aussen-T/F 1651 05-11-2019 10:08:17 10.6 C 20 %
1652 05-11-2019 10:18:17 10.3 C 20 %
1653 05-11-2019 10:28:17 10.6 C 20 %
1654 05-11-2019 10:38:17 10.6 C 20 %
1655 05-11-2019 10:48:18 10.7 C 20 %
1656 05-11-2019 10:58:18 10.6 C 20 %
1657 05-11-2019 11:08:17 10.5 C 20 %
1658 05-11-2019 11:18:17 11 C 20 %
1659 05-11-2019 11:28:17 11.7 C 20 %
1660 05-11-2019 11:38:17 11.7 C 20 %
1661 05-11-2019 11:48:17 11.7 C 20 %
1662 05-11-2019 11:58:17 11.6 C 20 %
1663 05-11-2019 12:08:18 11.7 C 20 %
1664 05-11-2019 12:18:17 11.8 C 20 %
1665 05-11-2019 12:28:17 12.2 C 20 %
1666 05-11-2019 12:38:17 12.1 C 20 %
1667 05-11-2019 12:48:17 11.5 C 20 %
1668 05-11-2019 12:58:17 11.7 C 20 %
1669 05-11-2019 13:08:17 11.8 C 20 %
1670 05-11-2019 13:18:17 11.7 C 20 %
1671 05-11-2019 13:28:17 12.5 C 20 %
1672 05-11-2019 13:38:17 12.2 C 20 %
1673 05-11-2019 13:48:17 12.3 C 20 %
1674 05-11-2019 13:58:17 12.3 C 20 %
1675 05-11-2019 14:08:17 12.4 C 20 %
Sensor: Nr:Datum:Temp:Feuchte:
Aussen-T/F 1676 05-11-2019 14:18:17 12.2 C 20 %
1677 05-11-2019 14:28:17 12 C 20 %
1678 05-11-2019 14:38:17 11.9 C 20 %
1679 05-11-2019 14:48:17 12.1 C 20 %
1680 05-11-2019 14:58:17 12.2 C 20 %
1681 05-11-2019 15:08:17 12.1 C 20 %
1682 05-11-2019 15:18:17 11.3 C 20 %
1683 05-11-2019 15:28:17 10.8 C 20 %
1684 05-11-2019 15:38:17 11 C 20 %
1685 05-11-2019 15:48:17 11 C 20 %
1686 05-11-2019 15:58:17 11.1 C 20 %
1687 05-11-2019 16:08:17 11 C 20 %
1688 05-11-2019 16:18:17 9.8 C 25 %
1689 05-11-2019 16:28:17 9.4 C 25 %
1690 05-11-2019 16:38:17 9.5 C 25 %
1691 05-11-2019 16:48:17 9.5 C 25 %
1692 05-11-2019 16:58:17 9.2 C 29 %
1693 05-11-2019 17:08:17 9.3 C 29 %
1694 05-11-2019 17:18:17 9.3 C 30 %
1695 05-11-2019 17:28:17 9 C 31 %
1696 05-11-2019 17:38:17 8.8 C 32 %
1697 05-11-2019 17:48:17 8.4 C 35 %
1698 05-11-2019 17:58:17 8.5 C 32 %
1699 05-11-2019 18:08:18 8.4 C 33 %
1700 05-11-2019 18:18:17 8.5 C 34 %
Sensor: Nr:Datum:Temp:Feuchte:
Aussen-T/F 1701 05-11-2019 18:28:17 7.9 C 34 %
1702 05-11-2019 18:38:17 7.8 C 35 %
1703 05-11-2019 18:48:17 7.8 C 36 %
1704 05-11-2019 18:58:17 7.7 C 36 %
1705 05-11-2019 19:08:18 7.6 C 37 %
1706 05-11-2019 19:18:17 7.6 C 37 %
1707 05-11-2019 19:28:17 7.7 C 37 %
1708 05-11-2019 19:38:17 7.8 C 38 %
1709 05-11-2019 19:48:17 8 C 37 %
1710 05-11-2019 19:58:17 8.1 C 36 %
1711 05-11-2019 20:08:18 7.7 C 35 %
1712 05-11-2019 20:18:17 7.9 C 36 %
1713 05-11-2019 20:28:17 7.9 C 35 %
1714 05-11-2019 20:38:17 7.5 C 35 %
1715 05-11-2019 20:48:17 7.1 C 35 %
1716 05-11-2019 20:58:17 7.1 C 37 %
1717 05-11-2019 21:08:18 7.1 C 38 %
1718 05-11-2019 21:18:17 7.3 C 39 %
1719 05-11-2019 21:28:17 7.3 C 38 %
1720 05-11-2019 21:38:17 7.2 C 38 %
1721 05-11-2019 21:48:17 7.3 C 38 %
1722 05-11-2019 21:58:17 7.2 C 38 %
1723 05-11-2019 22:08:18 7.2 C 38 %
1724 05-11-2019 22:18:17 7.2 C 38 %
1725 05-11-2019 22:28:18 7.3 C 38 %
Sensor: Nr:Datum:Temp:Feuchte:
Aussen-T/F 1726 05-11-2019 22:38:17 7.4 C 38 %
1727 05-11-2019 22:48:17 7.4 C 38 %
1728 05-11-2019 22:58:17 7.4 C 38 %
1729 05-11-2019 23:08:17 7.4 C 38 %
1730 05-11-2019 23:18:17 7.4 C 38 %
1731 05-11-2019 23:28:17 7.3 C 37 %
1732 05-11-2019 23:38:17 7.3 C 38 %
1733 05-11-2019 23:48:17 7.5 C 38 %
1734 05-11-2019 23:58:17 7.9 C 37 %
1735 06-11-2019 00:08:17 7.8 C 36 %
1736 06-11-2019 00:18:17 7.7 C 36 %
1737 06-11-2019 00:28:17 7.6 C 36 %
1738 06-11-2019 00:38:17 7.8 C 37 %
1739 06-11-2019 00:48:17 7.8 C 37 %
1740 06-11-2019 00:58:17 7.9 C 36 %
1741 06-11-2019 01:08:17 7.9 C 35 %
1742 06-11-2019 01:18:17 8 C 35 %
1743 06-11-2019 01:28:17 7.6 C 35 %
1744 06-11-2019 01:38:17 7.3 C 37 %
1745 06-11-2019 01:48:17 7.4 C 38 %
1746 06-11-2019 01:58:17 7.3 C 38 %
1747 06-11-2019 02:08:17 7.5 C 39 %
1748 06-11-2019 02:18:17 7.7 C 39 %
1749 06-11-2019 02:28:17 7.6 C 39 %
1750 06-11-2019 02:38:17 7.6 C 39 %
Sensor: Nr:Datum:Temp:Feuchte:
Aussen-T/F 1751 06-11-2019 02:48:17 7.6 C 39 %
1752 06-11-2019 02:58:17 7.5 C 39 %
1753 06-11-2019 03:08:18 7.1 C 37 %
1754 06-11-2019 03:18:18 6.9 C 39 %
1755 06-11-2019 03:28:18 6.9 C 40 %
1756 06-11-2019 03:38:17 6.6 C 39 %
1757 06-11-2019 03:48:17 6.5 C 39 %
1758 06-11-2019 03:58:17 6.4 C 39 %
1759 06-11-2019 04:08:17 6.7 C 40 %
1760 06-11-2019 04:18:17 6.8 C 40 %
1761 06-11-2019 04:28:17 7 C 39 %
1762 06-11-2019 04:38:17 6.8 C 39 %
1763 06-11-2019 04:48:17 6.9 C 39 %
1764 06-11-2019 04:58:17 6.6 C 39 %
1765 06-11-2019 05:08:17 6.7 C 39 %
1766 06-11-2019 05:18:17 6.8 C 39 %
1767 06-11-2019 05:28:17 6.8 C 39 %
1768 06-11-2019 05:38:17 6.8 C 39 %
1769 06-11-2019 05:48:18 6.8 C 39 %
1770 06-11-2019 05:58:18 6.9 C 39 %
1771 06-11-2019 06:08:17 7.1 C 39 %
1772 06-11-2019 06:18:17 7.1 C 39 %
1773 06-11-2019 06:28:17 7.3 C 38 %
1774 06-11-2019 06:38:18 7.3 C 37 %
1775 06-11-2019 06:48:17 7.3 C 37 %
Sensor: Nr:Datum:Temp:Feuchte:
Aussen-T/F 1776 06-11-2019 06:58:17 7.2 C 36 %
1777 06-11-2019 07:08:17 7.1 C 36 %
1778 06-11-2019 07:18:17 7.1 C 36 %
1779 06-11-2019 07:28:17 6.8 C 37 %
1780 06-11-2019 07:38:17 6.8 C 38 %
1781 06-11-2019 07:48:17 6.9 C 38 %
1782 06-11-2019 07:58:17 7 C 38 %
1783 06-11-2019 08:08:17 7.1 C 38 %
1784 06-11-2019 08:18:17 7.3 C 38 %
1785 06-11-2019 08:28:17 7.4 C 38 %
1786 06-11-2019 08:38:18 7.8 C 38 %
1787 06-11-2019 08:48:17 8 C 36 %
1788 06-11-2019 08:58:17 8.1 C 35 %
1789 06-11-2019 09:08:17 8.4 C 31 %
1790 06-11-2019 09:18:17 8.4 C 31 %
1791 06-11-2019 09:28:17 8.6 C 30 %
1792 06-11-2019 09:38:17 8.8 C 29 %
1793 06-11-2019 09:48:17 9 C 27 %
1794 06-11-2019 09:58:17 9.2 C 26 %
1795 06-11-2019 10:08:17 9.3 C 25 %
1796 06-11-2019 10:18:17 9.6 C 25 %
1797 06-11-2019 10:28:17 9.6 C 25 %
1798 06-11-2019 10:38:18 9.5 C 25 %
1799 06-11-2019 10:48:17 9.5 C 25 %
1800 06-11-2019 10:58:17 9.4 C 25 %
Sensor: Nr:Datum:Temp:Feuchte:
Aussen-T/F 1801 06-11-2019 11:08:17 9.4 C 25 %
1802 06-11-2019 11:18:17 9.5 C 26 %
1803 06-11-2019 11:28:17 9.4 C 26 %
1804 06-11-2019 11:38:17 9.5 C 27 %
1805 06-11-2019 11:48:17 9.5 C 27 %
1806 06-11-2019 11:58:17 9.7 C 27 %
1807 06-11-2019 12:08:17 9.9 C 26 %
1808 06-11-2019 12:18:17 9.7 C 26 %
1809 06-11-2019 12:28:17 9.6 C 27 %
1810 06-11-2019 12:38:17 9.7 C 27 %
1811 06-11-2019 12:48:17 10 C 25 %
1812 06-11-2019 12:58:17 10.2 C 25 %
1813 06-11-2019 13:08:18 10.3 C 25 %
1814 06-11-2019 13:18:17 10.5 C 23 %
1815 06-11-2019 13:28:17 10.2 C 23 %
1816 06-11-2019 13:38:17 10.3 C 23 %
1817 06-11-2019 13:48:17 10.3 C 23 %
1818 06-11-2019 13:58:17 10.1 C 25 %
1819 06-11-2019 14:08:18 9.8 C 25 %
1820 06-11-2019 14:18:17 9.6 C 26 %
1821 06-11-2019 14:28:17 9.5 C 28 %
1822 06-11-2019 14:38:17 9.6 C 27 %
1823 06-11-2019 14:48:17 9.6 C 28 %
1824 06-11-2019 14:58:17 9.4 C 28 %
1825 06-11-2019 15:08:18 9.6 C 28 %
Sensor: Nr:Datum:Temp:Feuchte:
Aussen-T/F 1826 06-11-2019 15:18:17 9.5 C 30 %
1827 06-11-2019 15:28:17 9.4 C 31 %
1828 06-11-2019 15:38:17 9.3 C 32 %
1829 06-11-2019 15:48:17 9.2 C 32 %
1830 06-11-2019 15:58:17 9.2 C 35 %
1831 06-11-2019 16:08:18 9.2 C 35 %
1832 06-11-2019 16:18:17 9.1 C 35 %
1833 06-11-2019 16:28:17 9.1 C 36 %
1834 06-11-2019 16:38:17 9 C 36 %
1835 06-11-2019 16:48:17 8.9 C 37 %
1836 06-11-2019 16:58:17 8.9 C 37 %
1837 06-11-2019 17:08:17 8.9 C 38 %
1838 06-11-2019 17:18:17 8.7 C 38 %
1839 06-11-2019 17:28:17 8.8 C 38 %
1840 06-11-2019 17:38:17 8.8 C 39 %
1841 06-11-2019 17:48:18 8.7 C 39 %
1842 06-11-2019 17:58:18 8.8 C 39 %
1843 06-11-2019 18:08:17 8.8 C 39 %
1844 06-11-2019 18:18:17 8.8 C 39 %
1845 06-11-2019 18:28:17 8.8 C 39 %
1846 06-11-2019 18:38:17 8.8 C 39 %
1847 06-11-2019 18:48:17 8.8 C 39 %
1848 06-11-2019 18:58:17 8.8 C 39 %
1849 06-11-2019 19:08:17 8.7 C 39 %
1850 06-11-2019 19:18:17 8.7 C 38 %
Sensor: Nr:Datum:Temp:Feuchte:
Aussen-T/F 1851 06-11-2019 19:28:17 8.6 C 38 %
1852 06-11-2019 19:38:17 8.6 C 38 %
1853 06-11-2019 19:48:18 8.6 C 38 %
1854 06-11-2019 19:58:18 8.5 C 38 %
1855 06-11-2019 20:08:17 8.4 C 38 %
1856 06-11-2019 20:18:17 8.4 C 38 %
1857 06-11-2019 20:28:17 8.4 C 38 %
1858 06-11-2019 20:38:17 8.3 C 38 %
1859 06-11-2019 20:48:17 8.2 C 38 %
1860 06-11-2019 20:58:17 8.3 C 38 %
1861 06-11-2019 21:08:17 8.3 C 38 %
1862 06-11-2019 21:18:17 8.3 C 38 %
1863 06-11-2019 21:28:17 8.3 C 38 %
1864 06-11-2019 21:38:17 8.3 C 38 %
1865 06-11-2019 21:48:18 8.2 C 38 %
1866 06-11-2019 21:58:18 8.2 C 38 %
1867 06-11-2019 22:08:17 8.2 C 38 %
1868 06-11-2019 22:18:17 8.3 C 38 %
1869 06-11-2019 22:28:17 8.2 C 38 %
1870 06-11-2019 22:38:17 8.2 C 38 %
1871 06-11-2019 22:48:17 8.2 C 38 %
1872 06-11-2019 22:58:18 8.2 C 38 %
1873 06-11-2019 23:08:17 8.2 C 38 %
1874 06-11-2019 23:18:17 8.1 C 38 %
1875 06-11-2019 23:28:17 8.2 C 38 %
Sensor: Nr:Datum:Temp:Feuchte:
Aussen-T/F 1876 06-11-2019 23:38:17 8.2 C 38 %
1877 06-11-2019 23:48:17 8.2 C 38 %
1878 06-11-2019 23:58:17 8 C 38 %
1879 07-11-2019 00:08:17 7.9 C 39 %
1880 07-11-2019 00:18:17 7.8 C 39 %
1881 07-11-2019 00:28:17 7.8 C 39 %
1882 07-11-2019 00:38:17 7.6 C 39 %
1883 07-11-2019 00:48:17 7.6 C 39 %
1884 07-11-2019 00:58:17 7.6 C 39 %
1885 07-11-2019 01:08:17 7.5 C 39 %
1886 07-11-2019 01:18:17 7.4 C 39 %
1887 07-11-2019 01:28:17 7.3 C 39 %
1888 07-11-2019 01:38:17 7.3 C 39 %
1889 07-11-2019 01:48:18 7.2 C 39 %
1890 07-11-2019 01:58:18 7.3 C 39 %
1891 07-11-2019 02:08:17 7.3 C 39 %
1892 07-11-2019 02:18:17 7.4 C 39 %
1893 07-11-2019 02:28:17 7.4 C 39 %
1894 07-11-2019 02:38:17 7.4 C 39 %
1895 07-11-2019 02:48:17 7.4 C 39 %
1896 07-11-2019 02:58:17 7.5 C 38 %
1897 07-11-2019 03:08:17 7.4 C 38 %
1898 07-11-2019 03:18:17 7.2 C 38 %
1899 07-11-2019 03:28:17 7.1 C 38 %
1900 07-11-2019 03:38:17 6.9 C 39 %
Sensor: Nr:Datum:Temp:Feuchte:
Aussen-T/F 1901 07-11-2019 03:48:17 6.9 C 39 %
1902 07-11-2019 03:58:18 6.8 C 39 %
1903 07-11-2019 04:08:17 6.7 C 39 %
1904 07-11-2019 04:18:17 6.9 C 39 %
1905 07-11-2019 04:28:17 6.8 C 39 %
1906 07-11-2019 04:38:17 6.9 C 39 %
1907 07-11-2019 04:48:17 6.8 C 39 %
1908 07-11-2019 04:58:17 7 C 38 %
1909 07-11-2019 05:08:17 7 C 38 %
1910 07-11-2019 05:18:17 6.8 C 39 %
1911 07-11-2019 05:28:17 6.7 C 39 %
1912 07-11-2019 05:38:17 6.7 C 39 %
1913 07-11-2019 05:48:17 6.7 C 39 %
1914 07-11-2019 05:58:17 6.7 C 39 %
1915 07-11-2019 06:08:17 6.7 C 39 %
1916 07-11-2019 06:18:17 6.7 C 39 %
1917 07-11-2019 06:28:17 6.7 C 39 %
1918 07-11-2019 06:38:17 6.7 C 39 %
1919 07-11-2019 06:48:17 6.7 C 39 %
1920 07-11-2019 06:58:17 6.8 C 39 %
1921 07-11-2019 07:08:18 6.8 C 39 %
1922 07-11-2019 07:18:17 6.9 C 39 %
1923 07-11-2019 07:28:17 6.9 C 39 %
1924 07-11-2019 07:38:17 6.9 C 39 %
1925 07-11-2019 07:48:17 7.1 C 38 %
Sensor: Nr:Datum:Temp:Feuchte:
Aussen-T/F 1926 07-11-2019 07:58:17 7.3 C 38 %
1927 07-11-2019 08:08:17 7.5 C 38 %
1928 07-11-2019 08:18:17 7.6 C 38 %
1929 07-11-2019 08:28:17 7.6 C 38 %
1930 07-11-2019 08:38:18 7.8 C 38 %
1931 07-11-2019 08:48:17 7.9 C 38 %
1932 07-11-2019 08:58:17 8.1 C 37 %
1933 07-11-2019 09:08:17 8 C 37 %
1934 07-11-2019 09:18:17 8.2 C 36 %
1935 07-11-2019 09:28:17 8.5 C 36 %
1936 07-11-2019 09:38:17 8.5 C 36 %
1937 07-11-2019 09:48:17 8.5 C 36 %
1938 07-11-2019 09:58:17 8.5 C 36 %
1939 07-11-2019 10:08:17 9.1 C 35 %
1940 07-11-2019 10:18:17 9.4 C 36 %
1941 07-11-2019 10:28:17 9.5 C 36 %
1942 07-11-2019 10:38:17 9.7 C 35 %
1943 07-11-2019 10:48:18 9.3 C 28 %
1944 07-11-2019 10:58:18 9.3 C 29 %
1945 07-11-2019 11:08:17 9.4 C 29 %
1946 07-11-2019 11:18:17 9.2 C 29 %
1947 07-11-2019 11:28:17 9.2 C 30 %
1948 07-11-2019 11:38:17 9 C 29 %
1949 07-11-2019 11:48:18 8.9 C 29 %
1950 07-11-2019 11:58:18 8.7 C 28 %
Sensor: Nr:Datum:Temp:Feuchte:
Aussen-T/F 1951 07-11-2019 12:08:17 8.7 C 33 %
1952 07-11-2019 12:18:17 8.9 C 34 %
1953 07-11-2019 12:28:17 8.9 C 34 %
1954 07-11-2019 12:38:17 8.6 C 28 %
1955 07-11-2019 12:48:17 8.9 C 26 %
1956 07-11-2019 12:58:17 8.9 C 25 %
1957 07-11-2019 13:08:17 9.7 C 25 %
1958 07-11-2019 13:18:17 9.5 C 23 %
1959 07-11-2019 13:28:17 9.4 C 26 %
1960 07-11-2019 13:38:17 10.2 C 21 %
1961 07-11-2019 13:48:17 9.8 C 20 %
1962 07-11-2019 13:58:17 9.2 C 21 %
1963 07-11-2019 14:08:17 8.9 C 25 %
1964 07-11-2019 14:18:17 8.8 C 25 %
1965 07-11-2019 14:28:17 8.8 C 25 %
1966 07-11-2019 14:38:17 9.3 C 25 %
1967 07-11-2019 14:48:18 9.7 C 23 %
1968 07-11-2019 14:58:18 9.9 C 21 %
1969 07-11-2019 15:08:17 9.6 C 21 %
1970 07-11-2019 15:18:17 9.8 C 21 %
1971 07-11-2019 15:28:17 10.1 C 20 %
1972 07-11-2019 15:38:17 9.7 C 25 %
1973 07-11-2019 15:48:17 9.3 C 29 %
1974 07-11-2019 15:58:17 9.5 C 23 %
1975 07-11-2019 16:08:17 9.7 C 20 %
Sensor: Nr:Datum:Temp:Feuchte:
Aussen-T/F 1976 07-11-2019 16:18:17 9.6 C 20 %
1977 07-11-2019 16:28:17 9.3 C 20 %
1978 07-11-2019 16:38:18 9.1 C 20 %
1979 07-11-2019 16:48:17 9 C 20 %
1980 07-11-2019 16:58:17 8.8 C 20 %
1981 07-11-2019 17:08:17 8.4 C 20 %
1982 07-11-2019 17:18:17 7.1 C 30 %
1983 07-11-2019 17:28:18 8.2 C 20 %
1984 07-11-2019 17:38:17 8 C 20 %
1985 07-11-2019 17:48:17 7.8 C 20 %
1986 07-11-2019 17:58:17 7.1 C 23 %
1987 07-11-2019 18:08:17 6.6 C 27 %
1988 07-11-2019 18:18:17 6 C 30 %
1989 07-11-2019 18:28:17 5.6 C 36 %
1990 07-11-2019 18:38:17 5.5 C 38 %
1991 07-11-2019 18:48:18 5.6 C 38 %
1992 07-11-2019 18:58:18 5.6 C 38 %
1993 07-11-2019 19:08:17 6 C 40 %
1994 07-11-2019 19:18:17 6.4 C 39 %
1995 07-11-2019 19:28:17 6.1 C 33 %
1996 07-11-2019 19:38:17 5.8 C 34 %
1997 07-11-2019 19:48:18 5.3 C 35 %
1998 07-11-2019 19:58:18 5.1 C 36 %
1999 07-11-2019 20:08:17 5.1 C 36 %
2000 07-11-2019 20:18:17 5.6 C 40 %
Sensor: Nr:Datum:Temp:Feuchte:
Aussen-T/F 2001 07-11-2019 20:28:17 5.5 C 38 %
2002 07-11-2019 20:38:17 5.3 C 36 %
2003 07-11-2019 20:48:17 5.2 C 36 %
2004 07-11-2019 20:58:17 4.9 C 37 %
2005 07-11-2019 21:08:17 4.5 C 38 %
2006 07-11-2019 21:18:17 4.5 C 39 %
2007 07-11-2019 21:28:17 4.5 C 39 %
2008 07-11-2019 21:38:18 4.5 C 39 %
2009 07-11-2019 21:48:17 4.8 C 40 %
2010 07-11-2019 21:58:17 4.5 C 38 %
2011 07-11-2019 22:08:17 4.5 C 38 %
2012 07-11-2019 22:18:17 4 C 38 %
2013 07-11-2019 22:28:17 3.6 C 40 %
2014 07-11-2019 22:38:17 3.5 C 40 %
2015 07-11-2019 22:48:17 3.3 C 40 %
2016 07-11-2019 22:58:17 3.7 C 41 %
2017 07-11-2019 23:08:18 4.1 C 40 %
2018 07-11-2019 23:18:17 4.5 C 40 %
2019 07-11-2019 23:28:18 4.5 C 37 %
2020 07-11-2019 23:38:17 4.5 C 35 %
2021 07-11-2019 23:48:17 4.3 C 35 %
2022 07-11-2019 23:58:17 4.1 C 35 %
2023 08-11-2019 00:08:17 3.9 C 37 %
2024 08-11-2019 00:18:17 3.7 C 38 %
2025 08-11-2019 00:28:17 3.7 C 39 %
Sensor: Nr:Datum:Temp:Feuchte:
Aussen-T/F 2026 08-11-2019 00:38:17 3.5 C 40 %
2027 08-11-2019 00:48:18 3.3 C 40 %
2028 08-11-2019 00:58:18 3.2 C 40 %
2029 08-11-2019 01:08:17 3.3 C 41 %
2030 08-11-2019 01:18:17 3.3 C 41 %
2031 08-11-2019 01:28:17 3.2 C 40 %
2032 08-11-2019 01:38:17 3.1 C 40 %
2033 08-11-2019 01:48:18 2.9 C 40 %
2034 08-11-2019 01:58:18 2.4 C 40 %
2035 08-11-2019 02:08:17 2 C 40 %
2036 08-11-2019 02:18:17 2 C 40 %
2037 08-11-2019 02:28:17 1.9 C 42 %
2038 08-11-2019 02:38:17 2.1 C 41 %
2039 08-11-2019 02:48:18 1.8 C 42 %
2040 08-11-2019 02:58:18 1.8 C 42 %
2041 08-11-2019 03:08:17 2 C 41 %
2042 08-11-2019 03:18:17 2 C 41 %
2043 08-11-2019 03:28:17 1.8 C 42 %
2044 08-11-2019 03:38:17 2.3 C 41 %
2045 08-11-2019 03:48:18 2.1 C 41 %
2046 08-11-2019 03:58:18 1.7 C 41 %
2047 08-11-2019 04:08:17 1.7 C 41 %
2048 08-11-2019 04:18:17 1.4 C 41 %
2049 08-11-2019 04:28:17 1.4 C 41 %
2050 08-11-2019 04:38:17 1.2 C 41 %
Sensor: Nr:Datum:Temp:Feuchte:
Aussen-T/F 2051 08-11-2019 04:48:17 1.2 C 41 %
2052 08-11-2019 04:58:17 1.3 C 41 %
2053 08-11-2019 05:08:17 1.2 C 41 %
2054 08-11-2019 05:18:17 1.2 C 41 %
2055 08-11-2019 05:28:17 1.1 C 41 %
2056 08-11-2019 05:38:17 1.1 C 41 %
2057 08-11-2019 05:48:17 1.3 C 41 %
2058 08-11-2019 05:58:17 1.3 C 41 %
2059 08-11-2019 06:08:17 1.4 C 41 %
2060 08-11-2019 06:18:17 1.4 C 41 %
2061 08-11-2019 06:28:17 1.4 C 41 %
2062 08-11-2019 06:38:18 1.3 C 41 %
2063 08-11-2019 06:48:17 1.2 C 41 %
2064 08-11-2019 06:58:17 1.1 C 41 %
2065 08-11-2019 07:08:17 1.2 C 41 %
2066 08-11-2019 07:18:17 1.5 C 41 %
2067 08-11-2019 07:28:17 1.3 C 41 %
2068 08-11-2019 07:38:17 1.2 C 41 %
2069 08-11-2019 07:48:18 1.3 C 41 %
2070 08-11-2019 07:58:18 1.8 C 41 %
2071 08-11-2019 08:08:17 2.1 C 41 %
2072 08-11-2019 08:18:17 2.3 C 41 %
2073 08-11-2019 08:28:17 2.6 C 41 %
2074 08-11-2019 08:38:17 2.9 C 41 %
2075 08-11-2019 08:48:18 3.1 C 40 %
Sensor: Nr:Datum:Temp:Feuchte:
Aussen-T/F 2076 08-11-2019 08:58:18 3.1 C 40 %
2077 08-11-2019 09:08:17 3.3 C 40 %
2078 08-11-2019 09:18:18 3 C 40 %
2079 08-11-2019 09:28:18 3.3 C 40 %
2080 08-11-2019 09:38:17 3.3 C 40 %
2081 08-11-2019 09:48:17 3.5 C 40 %
2082 08-11-2019 09:58:17 3.7 C 40 %
2083 08-11-2019 10:08:17 3.8 C 40 %
2084 08-11-2019 10:18:17 4.1 C 39 %
2085 08-11-2019 10:28:17 4.6 C 39 %
2086 08-11-2019 10:38:17 4.6 C 39 %
2087 08-11-2019 10:48:18 5.1 C 37 %
2088 08-11-2019 10:58:18 4.9 C 37 %
2089 08-11-2019 11:08:17 5.1 C 37 %
2090 08-11-2019 11:18:17 5.4 C 35 %
2091 08-11-2019 11:28:17 5.3 C 33 %
2092 08-11-2019 11:38:17 5.6 C 35 %
2093 08-11-2019 11:48:18 5.6 C 34 %
2094 08-11-2019 11:58:18 5.7 C 34 %
2095 08-11-2019 12:08:17 5.7 C 32 %
2096 08-11-2019 12:18:17 6 C 32 %
2097 08-11-2019 12:28:17 6.4 C 32 %
2098 08-11-2019 12:38:17 6.4 C 31 %
2099 08-11-2019 12:48:18 6.5 C 28 %
2100 08-11-2019 12:58:18 6.8 C 30 %
Sensor: Nr:Datum:Temp:Feuchte:
Aussen-T/F 2101 08-11-2019 13:08:17 7 C 28 %
2102 08-11-2019 13:18:17 7.3 C 30 %
2103 08-11-2019 13:28:17 6.9 C 27 %
2104 08-11-2019 13:38:17 7.1 C 28 %
2105 08-11-2019 13:48:17 7.3 C 26 %
2106 08-11-2019 13:58:17 7.5 C 27 %
2107 08-11-2019 14:08:18 7.5 C 26 %
2108 08-11-2019 14:18:17 7.7 C 27 %
2109 08-11-2019 14:28:17 7.6 C 27 %
2110 08-11-2019 14:38:17 7.6 C 27 %
2111 08-11-2019 14:48:17 7.5 C 27 %
2112 08-11-2019 14:58:17 7.5 C 29 %
2113 08-11-2019 15:08:17 7.5 C 30 %
2114 08-11-2019 15:18:17 7.4 C 30 %
2115 08-11-2019 15:28:17 7.4 C 31 %
2116 08-11-2019 15:38:17 7.3 C 30 %
2117 08-11-2019 15:48:17 7.2 C 31 %
2118 08-11-2019 15:58:17 7.1 C 32 %
2119 08-11-2019 16:08:18 7.1 C 31 %
2120 08-11-2019 16:18:17 6.8 C 33 %
2121 08-11-2019 16:28:17 6.6 C 34 %
2122 08-11-2019 16:38:17 6.4 C 35 %
2123 08-11-2019 16:48:17 6.3 C 36 %
2124 08-11-2019 16:58:17 6.2 C 36 %
2125 08-11-2019 17:08:18 6.1 C 36 %
Sensor: Nr:Datum:Temp:Feuchte:
Aussen-T/F 2126 08-11-2019 17:18:17 6 C 36 %
2127 08-11-2019 17:28:17 5.9 C 36 %
2128 08-11-2019 17:38:17 5.9 C 36 %
2129 08-11-2019 17:48:17 5.9 C 36 %
2130 08-11-2019 17:58:17 5.8 C 38 %
2131 08-11-2019 18:08:17 5.8 C 39 %
2132 08-11-2019 18:18:17 5.8 C 39 %
2133 08-11-2019 18:28:17 5.8 C 40 %
2134 08-11-2019 18:38:17 5.8 C 40 %
2135 08-11-2019 18:48:17 5.8 C 40 %
2136 08-11-2019 18:58:17 5.7 C 40 %
2137 08-11-2019 19:08:18 5.8 C 40 %
2138 08-11-2019 19:18:17 5.6 C 39 %
2139 08-11-2019 19:28:17 5.6 C 39 %
2140 08-11-2019 19:38:17 5.3 C 39 %
2141 08-11-2019 19:48:17 5.4 C 40 %
2142 08-11-2019 19:58:17 5.4 C 40 %
2143 08-11-2019 20:08:18 5.4 C 40 %
2144 08-11-2019 20:18:17 5.4 C 40 %
2145 08-11-2019 20:28:17 5.3 C 40 %
2146 08-11-2019 20:38:17 5.4 C 40 %
2147 08-11-2019 20:48:17 5.3 C 40 %
2148 08-11-2019 20:58:17 5.1 C 39 %
2149 08-11-2019 21:08:17 4.8 C 39 %
2150 08-11-2019 21:18:18 4.5 C 40 %
Sensor: Nr:Datum:Temp:Feuchte:
Aussen-T/F 2151 08-11-2019 21:28:18 4.3 C 40 %
2152 08-11-2019 21:38:17 4.5 C 40 %
2153 08-11-2019 21:48:17 4.5 C 40 %
2154 08-11-2019 21:58:17 4.5 C 40 %
2155 08-11-2019 22:08:17 4.3 C 40 %
2156 08-11-2019 22:19:17 4.4 C 40 %
2157 08-11-2019 22:28:17 4.6 C 40 %
2158 08-11-2019 22:38:17 4.7 C 40 %
2159 08-11-2019 22:49:17 4.7 C 40 %
2160 08-11-2019 22:59:17 4.8 C 40 %
2161 08-11-2019 23:08:18 4.6 C 40 %
2162 08-11-2019 23:18:17 4.6 C 40 %
2163 08-11-2019 23:28:18 4.7 C 40 %
2164 08-11-2019 23:38:17 4.7 C 40 %
2165 08-11-2019 23:49:17 4.6 C 40 %
2166 08-11-2019 23:59:17 4.6 C 40 %
2167 09-11-2019 00:09:17 4.6 C 40 %
2168 09-11-2019 00:19:17 4.5 C 40 %
2169 09-11-2019 00:29:17 4.5 C 40 %
2170 09-11-2019 00:39:17 4.5 C 40 %
2171 09-11-2019 00:48:17 4.5 C 40 %
2172 09-11-2019 00:58:17 4.5 C 40 %
2173 09-11-2019 01:08:17 4.4 C 40 %
2174 09-11-2019 01:18:17 4.4 C 40 %
2175 09-11-2019 01:28:17 4.3 C 40 %
Sensor: Nr:Datum:Temp:Feuchte:
Aussen-T/F 2176 09-11-2019 01:38:17 4.3 C 39 %
2177 09-11-2019 01:49:17 4.2 C 39 %
2178 09-11-2019 01:59:17 4.2 C 39 %
2179 09-11-2019 02:09:18 4.3 C 39 %
2180 09-11-2019 02:19:17 4.3 C 39 %
2181 09-11-2019 02:29:17 4.3 C 38 %
2182 09-11-2019 02:39:17 4.3 C 38 %
2183 09-11-2019 02:49:17 4.3 C 38 %
2184 09-11-2019 02:59:17 4.3 C 38 %
2185 09-11-2019 03:09:18 4.3 C 38 %
2186 09-11-2019 03:19:17 4.3 C 38 %
2187 09-11-2019 03:29:17 4.4 C 38 %
2188 09-11-2019 03:39:17 4.5 C 38 %
2189 09-11-2019 03:49:17 4.5 C 37 %
2190 09-11-2019 03:59:17 4.6 C 37 %
2191 09-11-2019 04:09:18 4.6 C 37 %
2192 09-11-2019 04:19:17 4.5 C 37 %
2193 09-11-2019 04:29:17 4.5 C 37 %
2194 09-11-2019 04:39:17 3.6 C 39 %
2195 09-11-2019 04:49:17 3.5 C 40 %
2196 09-11-2019 04:59:17 3.6 C 40 %
2197 09-11-2019 05:09:17 4 C 40 %
2198 09-11-2019 05:19:17 4.2 C 39 %
2199 09-11-2019 05:29:17 4.5 C 36 %
2200 09-11-2019 05:39:17 4.5 C 36 %
Sensor: Nr:Datum:Temp:Feuchte:
Aussen-T/F 2201 09-11-2019 05:49:17 4.6 C 36 %
2202 09-11-2019 05:59:17 4.4 C 33 %
2203 09-11-2019 06:09:17 4.1 C 31 %
2204 09-11-2019 06:19:17 3.9 C 31 %
2205 09-11-2019 06:29:17 3.8 C 30 %
2206 09-11-2019 06:39:17 3.6 C 31 %
2207 09-11-2019 06:49:17 3.5 C 31 %
2208 09-11-2019 06:59:17 3.2 C 32 %
2209 09-11-2019 07:09:17 2.8 C 35 %
2210 09-11-2019 07:19:17 2.8 C 36 %
2211 09-11-2019 07:29:17 2.8 C 37 %
2212 09-11-2019 07:39:17 2.6 C 38 %
2213 09-11-2019 07:49:18 2.3 C 39 %
2214 09-11-2019 07:59:18 2.3 C 40 %
2215 09-11-2019 08:09:17 2.1 C 40 %
2216 09-11-2019 08:19:17 2.2 C 40 %
2217 09-11-2019 08:29:17 2.4 C 41 %
2218 09-11-2019 08:39:17 2.7 C 41 %
2219 09-11-2019 08:49:18 2.8 C 41 %
2220 09-11-2019 08:59:18 3.6 C 41 %
2221 09-11-2019 09:09:17 3.7 C 40 %
2222 09-11-2019 09:19:17 4 C 37 %
2223 09-11-2019 09:29:17 4.7 C 32 %
2224 09-11-2019 09:39:17 4.8 C 28 %
2225 09-11-2019 09:49:18 5 C 26 %
Sensor: Nr:Datum:Temp:Feuchte:
Aussen-T/F 2226 09-11-2019 09:59:18 5 C 25 %
2227 09-11-2019 10:09:17 5.2 C 25 %
2228 09-11-2019 10:19:17 5.2 C 25 %
2229 09-11-2019 10:29:17 6 C 25 %
2230 09-11-2019 10:39:17 5.8 C 23 %
2231 09-11-2019 10:49:17 5.5 C 23 %
2232 09-11-2019 10:59:17 5.7 C 25 %
2233 09-11-2019 11:09:17 5.4 C 25 %
2234 09-11-2019 11:19:17 5.3 C 23 %
2235 09-11-2019 11:29:17 5.5 C 23 %
2236 09-11-2019 11:39:17 5.5 C 23 %
2237 09-11-2019 11:49:18 5.6 C 23 %
2238 09-11-2019 11:59:18 5.6 C 23 %
2239 09-11-2019 12:09:17 5.6 C 23 %
2240 09-11-2019 12:19:17 5.8 C 23 %
2241 09-11-2019 12:29:17 6 C 23 %
2242 09-11-2019 12:39:17 6.5 C 20 %
2243 09-11-2019 12:49:18 6.5 C 20 %
2244 09-11-2019 12:59:18 6.8 C 20 %
2245 09-11-2019 13:09:17 6.5 C 20 %
2246 09-11-2019 13:19:17 6.8 C 20 %
2247 09-11-2019 13:29:17 6.9 C 20 %
2248 09-11-2019 13:39:17 7.2 C 20 %
2249 09-11-2019 13:49:17 6.9 C 20 %
2250 09-11-2019 13:59:17 6.6 C 20 %
Sensor: Nr:Datum:Temp:Feuchte:
Aussen-T/F 2251 09-11-2019 14:09:17 6.6 C 20 %
2252 09-11-2019 14:19:17 6.6 C 20 %
2253 09-11-2019 14:29:17 6.5 C 20 %
2254 09-11-2019 14:39:17 6.5 C 20 %
2255 09-11-2019 14:49:17 6.5 C 20 %
2256 09-11-2019 14:59:17 6.5 C 21 %
2257 09-11-2019 15:09:17 6.2 C 23 %
2258 09-11-2019 15:19:17 5.7 C 26 %
2259 09-11-2019 15:29:17 5.6 C 29 %
2260 09-11-2019 15:39:17 5.6 C 30 %
2261 09-11-2019 15:49:17 5.6 C 30 %
2262 09-11-2019 15:59:17 5.7 C 29 %
2263 09-11-2019 16:09:18 6 C 27 %
2264 09-11-2019 16:19:17 5.9 C 29 %
2265 09-11-2019 16:29:17 5.8 C 29 %
2266 09-11-2019 16:39:17 5.7 C 30 %
2267 09-11-2019 16:49:17 5.6 C 31 %
2268 09-11-2019 16:59:17 5.6 C 30 %
2269 09-11-2019 17:09:17 5.7 C 30 %
2270 09-11-2019 17:19:17 5.7 C 30 %
2271 09-11-2019 17:29:17 5.4 C 30 %
2272 09-11-2019 17:39:17 5.2 C 30 %
2273 09-11-2019 17:49:18 5 C 31 %
2274 09-11-2019 17:59:18 5.1 C 30 %
2275 09-11-2019 18:09:17 5.1 C 29 %
Sensor: Nr:Datum:Temp:Feuchte:
Aussen-T/F 2276 09-11-2019 18:19:17 4.7 C 30 %
2277 09-11-2019 18:29:17 4.3 C 35 %
2278 09-11-2019 18:39:17 4.1 C 36 %
2279 09-11-2019 18:49:17 3.8 C 38 %
2280 09-11-2019 18:59:17 3.6 C 39 %
2281 09-11-2019 19:09:17 4.3 C 39 %
2282 09-11-2019 19:19:17 4.7 C 32 %
2283 09-11-2019 19:29:17 4.7 C 29 %
2284 09-11-2019 19:39:17 4.6 C 28 %
2285 09-11-2019 19:49:17 4.3 C 30 %
2286 09-11-2019 19:59:17 3.9 C 30 %
2287 09-11-2019 20:09:18 3.4 C 31 %
2288 09-11-2019 20:19:17 2.5 C 33 %
2289 09-11-2019 20:29:17 2.5 C 37 %
2290 09-11-2019 20:39:17 2.7 C 39 %
2291 09-11-2019 20:49:17 2.5 C 39 %
2292 09-11-2019 20:59:17 2.4 C 40 %
2293 09-11-2019 21:09:17 2.4 C 40 %
2294 09-11-2019 21:19:17 2.4 C 40 %
2295 09-11-2019 21:29:17 2.1 C 40 %
2296 09-11-2019 21:39:17 2.1 C 40 %
2297 09-11-2019 21:49:17 2.2 C 41 %
2298 09-11-2019 21:59:17 2 C 41 %
2299 09-11-2019 22:09:17 1.6 C 41 %
2300 09-11-2019 22:19:17 1.2 C 41 %
Sensor: Nr:Datum:Temp:Feuchte:
Aussen-T/F 2301 09-11-2019 22:29:17 1.3 C 42 %
2302 09-11-2019 22:39:17 1.5 C 42 %
2303 09-11-2019 22:49:18 1.4 C 42 %
2304 09-11-2019 22:59:18 1.2 C 42 %
2305 09-11-2019 23:09:17 1 C 41 %
2306 09-11-2019 23:19:17 0.7 C 43 %
2307 09-11-2019 23:29:17 0.6 C 43 %
2308 09-11-2019 23:39:17 0.7 C 43 %
2309 09-11-2019 23:49:17 0.7 C 43 %
2310 09-11-2019 23:59:17 0.2 C 43 %
2311 10-11-2019 00:09:18 0.1 C 43 %
2312 10-11-2019 00:19:17 -0.1 C 43 %
2313 10-11-2019 00:29:17 -0.1 C 42 %
2314 10-11-2019 00:39:17 -0.1 C 43 %
2315 10-11-2019 00:49:17 0.1 C 43 %
2316 10-11-2019 00:59:17 0 C 43 %
2317 10-11-2019 01:09:17 0.4 C 43 %
2318 10-11-2019 01:19:17 0.8 C 43 %
2319 10-11-2019 01:29:17 0.9 C 43 %
2320 10-11-2019 01:39:17 1 C 42 %
2321 10-11-2019 01:49:17 1 C 42 %
2322 10-11-2019 01:59:17 0.8 C 43 %
2323 10-11-2019 02:09:18 1 C 42 %
2324 10-11-2019 02:19:17 0.7 C 43 %
2325 10-11-2019 02:29:17 0.6 C 43 %
Sensor: Nr:Datum:Temp:Feuchte:
Aussen-T/F 2326 10-11-2019 02:39:17 0.7 C 43 %
2327 10-11-2019 02:49:17 0.8 C 43 %
2328 10-11-2019 02:59:17 0.8 C 43 %
2329 10-11-2019 03:09:17 0.6 C 43 %
2330 10-11-2019 03:19:17 0.5 C 43 %
2331 10-11-2019 03:29:17 0.6 C 43 %
2332 10-11-2019 03:39:17 0.5 C 43 %
2333 10-11-2019 03:49:17 0.6 C 43 %
2334 10-11-2019 03:59:18 0.5 C 43 %
2335 10-11-2019 04:09:17 0.4 C 43 %
2336 10-11-2019 04:19:17 0.3 C 42 %
2337 10-11-2019 04:29:17 0.4 C 42 %
2338 10-11-2019 04:39:17 0.4 C 42 %
2339 10-11-2019 04:49:18 0.3 C 42 %
2340 10-11-2019 04:59:18 0.5 C 42 %
2341 10-11-2019 05:09:17 0.5 C 43 %
2342 10-11-2019 05:19:17 0.8 C 43 %
2343 10-11-2019 05:29:17 0.9 C 43 %
2344 10-11-2019 05:39:17 0.9 C 43 %
2345 10-11-2019 05:49:17 0.9 C 43 %
2346 10-11-2019 05:59:17 0.9 C 43 %
2347 10-11-2019 06:09:17 0.9 C 43 %
2348 10-11-2019 06:19:17 1.1 C 41 %
2349 10-11-2019 06:29:17 0.8 C 42 %
2350 10-11-2019 06:39:17 0.9 C 42 %
Sensor: Nr:Datum:Temp:Feuchte:
Aussen-T/F 2351 10-11-2019 06:49:17 0.9 C 42 %
2352 10-11-2019 06:59:17 0.9 C 42 %
2353 10-11-2019 07:09:17 0.9 C 42 %
2354 10-11-2019 07:19:18 0.9 C 43 %
2355 10-11-2019 07:29:18 0.9 C 42 %
2356 10-11-2019 07:39:17 0.9 C 42 %
2357 10-11-2019 07:49:17 0.9 C 42 %
2358 10-11-2019 07:59:17 1 C 41 %
2359 10-11-2019 08:09:17 1.1 C 41 %
2360 10-11-2019 08:19:17 1.2 C 42 %
2361 10-11-2019 08:29:17 1.3 C 41 %
2362 10-11-2019 08:39:17 1.3 C 42 %
2363 10-11-2019 08:49:17 1.4 C 41 %
2364 10-11-2019 08:59:17 1.6 C 41 %
2365 10-11-2019 09:09:18 1.6 C 41 %
2366 10-11-2019 09:19:17 1.8 C 41 %
2367 10-11-2019 09:29:18 1.7 C 41 %
2368 10-11-2019 09:39:17 2 C 40 %
2369 10-11-2019 09:49:17 2.1 C 40 %
2370 10-11-2019 09:59:17 2.3 C 39 %
2371 10-11-2019 10:09:17 2.3 C 38 %
2372 10-11-2019 10:19:17 2.4 C 38 %
2373 10-11-2019 10:29:17 2.4 C 36 %
2374 10-11-2019 10:39:18 2.8 C 36 %
2375 10-11-2019 10:49:17 3.1 C 35 %
Sensor: Nr:Datum:Temp:Feuchte:
Aussen-T/F 2376 10-11-2019 10:59:17 2.8 C 32 %
2377 10-11-2019 11:09:17 3.2 C 33 %
2378 10-11-2019 11:19:17 3.4 C 33 %
2379 10-11-2019 11:29:17 3.5 C 33 %
2380 10-11-2019 11:39:17 3.7 C 33 %
2381 10-11-2019 11:49:17 3.6 C 30 %
2382 10-11-2019 11:59:17 3.5 C 30 %
2383 10-11-2019 12:09:17 3.4 C 30 %
2384 10-11-2019 12:19:17 3.6 C 30 %
2385 10-11-2019 12:29:17 3.6 C 28 %
2386 10-11-2019 12:39:17 3.5 C 27 %
2387 10-11-2019 12:49:17 3.6 C 26 %
2388 10-11-2019 12:59:17 3.6 C 26 %
2389 10-11-2019 13:09:17 3.6 C 26 %
2390 10-11-2019 13:19:17 3.8 C 26 %
2391 10-11-2019 13:29:17 4.1 C 26 %
2392 10-11-2019 13:39:17 4.1 C 25 %
2393 10-11-2019 13:49:17 4.2 C 25 %
2394 10-11-2019 13:59:17 4.1 C 25 %
2395 10-11-2019 14:09:17 4.2 C 25 %
2396 10-11-2019 14:19:17 4.1 C 25 %
2397 10-11-2019 14:29:17 4.3 C 25 %
2398 10-11-2019 14:39:17 4.4 C 25 %
2399 10-11-2019 14:49:17 4.4 C 23 %
2400 10-11-2019 14:59:17 4.5 C 23 %
Sensor: Nr:Datum:Temp:Feuchte:
Aussen-T/F 2401 10-11-2019 15:09:18 4.5 C 23 %
2402 10-11-2019 15:19:17 4.5 C 25 %
2403 10-11-2019 15:29:17 4.5 C 25 %
2404 10-11-2019 15:39:17 4.5 C 25 %
2405 10-11-2019 15:49:17 4.3 C 25 %
2406 10-11-2019 15:59:17 4.3 C 26 %
2407 10-11-2019 16:09:17 4.2 C 25 %
2408 10-11-2019 16:19:17 4.1 C 26 %
2409 10-11-2019 16:29:17 4.1 C 26 %
2410 10-11-2019 16:39:17 4 C 27 %
2411 10-11-2019 16:49:18 3.9 C 28 %
2412 10-11-2019 16:59:18 3.8 C 28 %
2413 10-11-2019 17:09:17 3.7 C 29 %
2414 10-11-2019 17:19:17 3.7 C 29 %
2415 10-11-2019 17:29:17 3.7 C 30 %
2416 10-11-2019 17:39:17 3.7 C 30 %
2417 10-11-2019 17:49:18 3.7 C 30 %
2418 10-11-2019 17:59:18 3.6 C 30 %
2419 10-11-2019 18:09:17 3.7 C 30 %
2420 10-11-2019 18:19:17 3.7 C 30 %
2421 10-11-2019 18:29:17 3.6 C 30 %
2422 10-11-2019 18:39:17 3.6 C 30 %
2423 10-11-2019 18:49:18 3.6 C 30 %
2424 10-11-2019 18:59:18 3.5 C 31 %
2425 10-11-2019 19:09:17 3.5 C 31 %
Sensor: Nr:Datum:Temp:Feuchte:
Aussen-T/F 2426 10-11-2019 19:19:17 3.4 C 31 %
2427 10-11-2019 19:29:17 3.4 C 32 %
2428 10-11-2019 19:39:17 3.4 C 32 %
2429 10-11-2019 19:49:17 3.4 C 32 %
2430 10-11-2019 19:59:17 3.4 C 33 %
2431 10-11-2019 20:09:17 3.5 C 34 %
2432 10-11-2019 20:19:17 3.6 C 34 %
2433 10-11-2019 20:29:17 3.6 C 33 %
2434 10-11-2019 20:39:17 3.6 C 33 %
2435 10-11-2019 20:49:17 3.7 C 34 %
2436 10-11-2019 20:59:17 3.7 C 34 %
2437 10-11-2019 21:09:18 3.7 C 34 %
2438 10-11-2019 21:19:17 3.7 C 32 %
2439 10-11-2019 21:29:17 3.7 C 32 %
2440 10-11-2019 21:39:17 3.6 C 32 %
2441 10-11-2019 21:49:17 3.6 C 33 %
2442 10-11-2019 21:59:17 3.6 C 33 %
2443 10-11-2019 22:09:17 3.6 C 32 %
2444 10-11-2019 22:19:17 3.6 C 33 %
2445 10-11-2019 22:29:17 3.7 C 34 %
2446 10-11-2019 22:39:17 3.7 C 35 %
2447 10-11-2019 22:49:17 3.8 C 32 %
2448 10-11-2019 22:59:17 3.9 C 31 %
2449 10-11-2019 23:09:17 3.9 C 31 %
2450 10-11-2019 23:19:17 3.8 C 30 %
Sensor: Nr:Datum:Temp:Feuchte:
Aussen-T/F 2451 10-11-2019 23:29:17 3.8 C 29 %
2452 10-11-2019 23:39:17 3.8 C 30 %
2453 10-11-2019 23:49:17 3.8 C 29 %
2454 10-11-2019 23:59:17 3.8 C 29 %
2455 11-11-2019 00:09:17 3.8 C 28 %
2456 11-11-2019 00:19:17 3.7 C 27 %
2457 11-11-2019 00:29:17 3.6 C 27 %
2458 11-11-2019 00:39:17 3.5 C 28 %
2459 11-11-2019 00:49:17 3.5 C 27 %
2460 11-11-2019 00:59:17 3.4 C 27 %
2461 11-11-2019 01:09:17 3.2 C 27 %
2462 11-11-2019 01:19:17 3.2 C 27 %
2463 11-11-2019 01:29:17 3.1 C 28 %
2464 11-11-2019 01:39:17 3.1 C 28 %
2465 11-11-2019 01:49:17 3 C 28 %
2466 11-11-2019 01:59:17 3 C 28 %
2467 11-11-2019 02:09:17 3.1 C 28 %
2468 11-11-2019 02:19:17 3 C 29 %
2469 11-11-2019 02:29:17 3 C 28 %
2470 11-11-2019 02:39:17 3.1 C 28 %
2471 11-11-2019 02:49:17 2.8 C 28 %
2472 11-11-2019 02:59:17 2.8 C 29 %
2473 11-11-2019 03:09:17 2.7 C 30 %
2474 11-11-2019 03:19:17 2.7 C 29 %
2475 11-11-2019 03:29:17 2.7 C 29 %
Sensor: Nr:Datum:Temp:Feuchte:
Aussen-T/F 2476 11-11-2019 03:39:17 2.6 C 29 %
2477 11-11-2019 03:49:17 2.5 C 28 %
2478 11-11-2019 03:59:17 2.5 C 28 %
2479 11-11-2019 04:09:17 2.4 C 29 %
2480 11-11-2019 04:19:17 2.4 C 30 %
2481 11-11-2019 04:29:17 2.4 C 30 %
2482 11-11-2019 04:39:17 2.4 C 30 %
2483 11-11-2019 04:49:17 2.5 C 30 %
2484 11-11-2019 04:59:17 2.5 C 30 %
2485 11-11-2019 05:09:17 2.6 C 30 %
2486 11-11-2019 05:19:17 2.6 C 30 %
2487 11-11-2019 05:29:17 2.6 C 30 %
2488 11-11-2019 05:39:17 2.6 C 30 %
2489 11-11-2019 05:49:17 2.7 C 30 %
2490 11-11-2019 05:59:17 2.6 C 30 %
2491 11-11-2019 06:09:17 2.7 C 29 %
2492 11-11-2019 06:19:17 2.7 C 29 %
2493 11-11-2019 06:29:17 2.6 C 30 %
2494 11-11-2019 06:39:17 2.7 C 30 %
2495 11-11-2019 06:49:17 2.7 C 30 %
2496 11-11-2019 06:59:17 2.7 C 31 %
2497 11-11-2019 07:09:17 2.7 C 31 %
2498 11-11-2019 07:19:18 2.7 C 31 %
2499 11-11-2019 07:29:18 2.8 C 31 %
2500 11-11-2019 07:39:17 2.9 C 32 %
Sensor: Nr:Datum:Temp:Feuchte:
Aussen-T/F 2501 11-11-2019 07:49:17 3 C 31 %
2502 11-11-2019 07:59:17 3.2 C 30 %
2503 11-11-2019 08:09:17 3.5 C 26 %
2504 11-11-2019 08:19:17 3.7 C 25 %
2505 11-11-2019 08:29:17 3.9 C 25 %
2506 11-11-2019 08:39:17 4.2 C 21 %
2507 11-11-2019 08:49:17 4.4 C 20 %
2508 11-11-2019 08:59:17 4.7 C 20 %
2509 11-11-2019 09:09:17 4.7 C 20 %
2510 11-11-2019 09:19:17 4.5 C 20 %
2511 11-11-2019 09:29:17 4.9 C 20 %
2512 11-11-2019 09:39:17 5.2 C 20 %
2513 11-11-2019 09:49:17 5.4 C 20 %
2514 11-11-2019 09:59:17 5.2 C 20 %
2515 11-11-2019 10:09:17 5.2 C 20 %
2516 11-11-2019 10:19:17 5.2 C 20 %
2517 11-11-2019 10:29:17 5 C 20 %
2518 11-11-2019 10:39:17 5.1 C 20 %
2519 11-11-2019 10:49:17 4.8 C 20 %
2520 11-11-2019 10:59:17 5.3 C 20 %
2521 11-11-2019 11:09:17 5.2 C 20 %
2522 11-11-2019 11:19:17 5.6 C 20 %
2523 11-11-2019 11:29:17 5.9 C 20 %
2524 11-11-2019 11:39:17 5.9 C 20 %
2525 11-11-2019 11:49:17 6 C 20 %
Sensor: Nr:Datum:Temp:Feuchte:
Aussen-T/F 2526 11-11-2019 11:59:17 5.8 C 20 %
2527 11-11-2019 12:09:17 6.4 C 20 %
2528 11-11-2019 12:19:17 6.2 C 20 %
2529 11-11-2019 12:29:17 6.4 C 20 %
2530 11-11-2019 12:39:17 6.5 C 20 %
2531 11-11-2019 12:49:17 6.5 C 20 %
2532 11-11-2019 12:59:17 7.1 C 20 %
2533 11-11-2019 13:09:17 7.2 C 20 %
2534 11-11-2019 13:19:17 7.2 C 20 %
2535 11-11-2019 13:29:17 6.5 C 20 %
2536 11-11-2019 13:39:17 6.7 C 20 %
2537 11-11-2019 13:49:17 6.5 C 20 %
2538 11-11-2019 13:59:17 6.4 C 20 %
2539 11-11-2019 14:09:17 6.2 C 20 %
2540 11-11-2019 14:19:17 6.2 C 20 %
2541 11-11-2019 14:29:17 6.3 C 20 %
2542 11-11-2019 14:39:17 5.8 C 20 %
2543 11-11-2019 14:49:17 5.4 C 20 %
2544 11-11-2019 14:59:17 5.3 C 20 %
2545 11-11-2019 15:09:17 5.5 C 20 %
2546 11-11-2019 15:19:17 5.5 C 20 %
2547 11-11-2019 15:29:17 5.3 C 20 %
2548 11-11-2019 15:39:17 5.1 C 20 %
2549 11-11-2019 15:49:17 4.9 C 20 %
2550 11-11-2019 15:59:17 4.8 C 20 %
Sensor: Nr:Datum:Temp:Feuchte:
Aussen-T/F 2551 11-11-2019 16:09:17 4.7 C 21 %
2552 11-11-2019 16:19:17 4.7 C 20 %
2553 11-11-2019 16:29:17 4.6 C 23 %
2554 11-11-2019 16:39:17 4.6 C 23 %
2555 11-11-2019 16:49:17 4.6 C 23 %
2556 11-11-2019 16:59:17 4.5 C 23 %
2557 11-11-2019 17:09:17 4.5 C 21 %
2558 11-11-2019 17:19:17 4.5 C 23 %
2559 11-11-2019 17:29:17 4.4 C 23 %
2560 11-11-2019 17:39:17 4.3 C 23 %
2561 11-11-2019 17:49:17 4.1 C 25 %
2562 11-11-2019 17:59:17 4.1 C 25 %
2563 11-11-2019 18:09:17 3.9 C 26 %
2564 11-11-2019 18:19:17 4 C 25 %
2565 11-11-2019 18:29:17 4.1 C 25 %
2566 11-11-2019 18:39:17 4 C 26 %
2567 11-11-2019 18:49:17 3.9 C 30 %
2568 11-11-2019 18:59:17 3.9 C 31 %
2569 11-11-2019 19:09:17 3.9 C 35 %
2570 11-11-2019 19:19:17 3.8 C 36 %
2571 11-11-2019 19:29:17 3.9 C 39 %
2572 11-11-2019 19:39:17 3.9 C 40 %
2573 11-11-2019 19:49:17 3.8 C 40 %
2574 11-11-2019 19:59:17 3.8 C 41 %
2575 11-11-2019 20:09:17 3.8 C 41 %
Sensor: Nr:Datum:Temp:Feuchte:
Aussen-T/F 2576 11-11-2019 20:19:17 3.8 C 41 %
2577 11-11-2019 20:29:17 3.8 C 40 %
2578 11-11-2019 20:39:18 3.9 C 40 %
2579 11-11-2019 20:49:17 3.9 C 40 %
2580 11-11-2019 20:59:17 4 C 39 %
2581 11-11-2019 21:09:17 4.1 C 39 %
2582 11-11-2019 21:19:17 4.2 C 37 %
2583 11-11-2019 21:29:17 4.2 C 37 %
2584 11-11-2019 21:39:17 4.3 C 37 %
2585 11-11-2019 21:49:17 4.4 C 36 %
2586 11-11-2019 21:59:17 4.4 C 36 %
2587 11-11-2019 22:09:17 4.4 C 36 %
2588 11-11-2019 22:19:17 4.4 C 36 %
2589 11-11-2019 22:29:17 4.3 C 35 %
2590 11-11-2019 22:39:17 4.4 C 37 %
2591 11-11-2019 22:49:17 4.4 C 38 %
2592 11-11-2019 22:59:17 4.4 C 39 %
2593 11-11-2019 23:09:17 4.5 C 39 %
2594 11-11-2019 23:19:17 4.5 C 39 %
2595 11-11-2019 23:29:17 4.5 C 39 %
2596 11-11-2019 23:39:17 4.5 C 39 %
2597 11-11-2019 23:49:17 4.5 C 38 %
2598 11-11-2019 23:59:17 4.2 C 38 %
2599 12-11-2019 00:09:17 4.3 C 40 %
2600 12-11-2019 00:19:17 4.4 C 40 %
Sensor: Nr:Datum:Temp:Feuchte:
Aussen-T/F 2601 12-11-2019 00:29:17 4.3 C 40 %
2602 12-11-2019 00:39:17 4.5 C 39 %
2603 12-11-2019 00:49:17 3.8 C 38 %
2604 12-11-2019 00:59:17 4 C 40 %
2605 12-11-2019 01:09:17 4.5 C 37 %
2606 12-11-2019 01:19:17 4.8 C 35 %
2607 12-11-2019 01:29:17 4.7 C 32 %
2608 12-11-2019 01:39:17 5 C 28 %
2609 12-11-2019 01:49:17 4.9 C 28 %
2610 12-11-2019 01:59:17 5 C 27 %
2611 12-11-2019 02:09:17 5.2 C 25 %
2612 12-11-2019 02:19:17 4.9 C 30 %
2613 12-11-2019 02:29:17 4.7 C 31 %
2614 12-11-2019 02:39:17 4.7 C 32 %
2615 12-11-2019 02:49:17 5.1 C 26 %
2616 12-11-2019 02:59:17 5 C 28 %
2617 12-11-2019 03:09:17 5.1 C 26 %
2618 12-11-2019 03:19:17 5 C 26 %
2619 12-11-2019 03:29:17 4.8 C 28 %
2620 12-11-2019 03:39:17 4.9 C 27 %
2621 12-11-2019 03:49:17 4.8 C 27 %
2622 12-11-2019 03:59:17 4.8 C 28 %
2623 12-11-2019 04:09:17 4.8 C 29 %
2624 12-11-2019 04:19:17 5.1 C 25 %
2625 12-11-2019 04:29:17 5 C 25 %
Sensor: Nr:Datum:Temp:Feuchte:
Aussen-T/F 2626 12-11-2019 04:39:17 5.2 C 23 %
2627 12-11-2019 04:49:17 5 C 25 %
2628 12-11-2019 04:59:17 4.9 C 26 %
2629 12-11-2019 05:09:17 4.7 C 26 %
2630 12-11-2019 05:19:17 4.5 C 30 %
2631 12-11-2019 05:29:17 4.5 C 31 %
2632 12-11-2019 05:39:17 4.4 C 31 %
2633 12-11-2019 05:49:17 4.4 C 30 %
2634 12-11-2019 05:59:17 4.5 C 30 %
2635 12-11-2019 06:09:17 4.6 C 30 %
2636 12-11-2019 06:19:18 4.8 C 29 %
2637 12-11-2019 06:29:18 4.9 C 26 %
2638 12-11-2019 06:39:17 4.7 C 26 %
2639 12-11-2019 06:49:17 4.8 C 26 %
2640 12-11-2019 06:59:17 4.9 C 26 %
2641 12-11-2019 07:09:17 4.9 C 25 %
2642 12-11-2019 07:19:17 5 C 25 %
2643 12-11-2019 07:29:17 5 C 23 %
2644 12-11-2019 07:39:17 5.2 C 21 %
2645 12-11-2019 07:49:17 5.5 C 23 %
2646 12-11-2019 07:59:17 5 C 23 %
2647 12-11-2019 08:09:17 5.1 C 25 %
2648 12-11-2019 08:19:17 5.1 C 25 %
2649 12-11-2019 08:29:17 5.2 C 25 %
2650 12-11-2019 08:39:17 5.4 C 20 %
Sensor: Nr:Datum:Temp:Feuchte:
Aussen-T/F 2651 12-11-2019 08:49:17 5.3 C 21 %
2652 12-11-2019 08:59:17 5.6 C 20 %
2653 12-11-2019 09:09:17 6 C 20 %
2654 12-11-2019 09:19:17 6.3 C 20 %
2655 12-11-2019 09:29:17 6.4 C 20 %
2656 12-11-2019 09:39:17 7.2 C 20 %
2657 12-11-2019 09:49:17 7.1 C 20 %
2658 12-11-2019 09:59:17 7.2 C 20 %
2659 12-11-2019 10:09:17 7.5 C 20 %
2660 12-11-2019 10:19:17 7.8 C 20 %
2661 12-11-2019 10:29:17 7.8 C 20 %
2662 12-11-2019 10:39:17 7.9 C 20 %
2663 12-11-2019 10:49:17 8.3 C 20 %
2664 12-11-2019 10:59:17 8.2 C 20 %
2665 12-11-2019 11:09:17 8.1 C 20 %
2666 12-11-2019 11:19:17 8 C 20 %
2667 12-11-2019 11:29:17 7.5 C 20 %
2668 12-11-2019 11:39:17 7.1 C 20 %
2669 12-11-2019 11:49:17 7 C 20 %
2670 12-11-2019 11:59:17 7.1 C 20 %
2671 12-11-2019 12:09:17 7.6 C 20 %
2672 12-11-2019 12:19:17 7.8 C 20 %
2673 12-11-2019 12:29:17 8.4 C 20 %
2674 12-11-2019 12:39:17 7.9 C 20 %
2675 12-11-2019 12:49:17 7.6 C 20 %
Sensor: Nr:Datum:Temp:Feuchte:
Aussen-T/F 2676 12-11-2019 12:59:17 7.7 C 20 %
2677 12-11-2019 13:09:17 7.8 C 20 %
2678 12-11-2019 13:19:17 7.5 C 20 %
2679 12-11-2019 13:29:17 7.5 C 20 %
2680 12-11-2019 13:39:17 7.3 C 20 %
2681 12-11-2019 13:49:17 7.3 C 20 %
2682 12-11-2019 13:59:17 7.5 C 20 %
2683 12-11-2019 14:09:17 7.5 C 20 %
2684 12-11-2019 14:19:17 7.9 C 20 %
2685 12-11-2019 14:29:17 7.8 C 20 %
2686 12-11-2019 14:39:17 7.6 C 20 %
2687 12-11-2019 14:49:17 7.6 C 20 %
2688 12-11-2019 14:59:17 7.7 C 20 %
2689 12-11-2019 15:09:17 7.8 C 20 %
2690 12-11-2019 15:19:17 7.8 C 20 %
2691 12-11-2019 15:29:17 7.8 C 20 %
2692 12-11-2019 15:39:17 7.4 C 20 %
2693 12-11-2019 15:49:17 7.2 C 20 %
2694 12-11-2019 15:59:17 7.2 C 20 %
2695 12-11-2019 16:09:17 7.1 C 20 %
2696 12-11-2019 16:19:17 7 C 20 %
2697 12-11-2019 16:29:17 6.9 C 20 %
2698 12-11-2019 16:39:17 6.8 C 20 %
2699 12-11-2019 16:49:17 6.4 C 20 %
2700 12-11-2019 16:59:17 6.4 C 20 %
Sensor: Nr:Datum:Temp:Feuchte:
Aussen-T/F 2701 12-11-2019 17:09:17 6.3 C 20 %
2702 12-11-2019 17:19:17 6 C 20 %
2703 12-11-2019 17:29:17 6 C 20 %
2704 12-11-2019 17:39:17 6.1 C 20 %
2705 12-11-2019 17:49:17 5.7 C 20 %
2706 12-11-2019 17:59:17 5.5 C 20 %
2707 12-11-2019 18:09:17 4.8 C 26 %
2708 12-11-2019 18:19:17 4.7 C 26 %
2709 12-11-2019 18:29:17 5.1 C 21 %
2710 12-11-2019 18:39:17 4.9 C 26 %
2711 12-11-2019 18:49:17 4.6 C 25 %
2712 12-11-2019 18:59:17 4.8 C 23 %
2713 12-11-2019 19:09:18 4.4 C 25 %
2714 12-11-2019 19:19:17 3.7 C 28 %
2715 12-11-2019 19:29:17 3.2 C 30 %
2716 12-11-2019 19:39:17 3 C 31 %
2717 12-11-2019 19:49:18 2.8 C 32 %
2718 12-11-2019 19:59:18 2.5 C 34 %
2719 12-11-2019 20:09:17 2.5 C 34 %
2720 12-11-2019 20:19:17 2.2 C 33 %
2721 12-11-2019 20:29:17 1.8 C 36 %
2722 12-11-2019 20:39:17 1.5 C 37 %
2723 12-11-2019 20:49:17 1.7 C 41 %
2724 12-11-2019 20:59:17 2.6 C 42 %
2725 12-11-2019 21:09:17 3.2 C 35 %
Sensor: Nr:Datum:Temp:Feuchte:
Aussen-T/F 2726 12-11-2019 21:19:17 2.7 C 32 %
2727 12-11-2019 21:29:17 2.1 C 33 %
2728 12-11-2019 21:39:17 2.4 C 36 %
2729 12-11-2019 21:49:17 2.6 C 35 %
2730 12-11-2019 21:59:17 3.3 C 32 %
2731 12-11-2019 22:09:17 3.4 C 32 %
2732 12-11-2019 22:19:17 3.6 C 31 %
2733 12-11-2019 22:29:17 4 C 27 %
2734 12-11-2019 22:39:17 4.2 C 26 %
2735 12-11-2019 22:49:17 4.2 C 26 %
2736 12-11-2019 22:59:17 4.3 C 26 %
2737 12-11-2019 23:09:17 4.4 C 23 %
2738 12-11-2019 23:19:17 4.3 C 23 %
2739 12-11-2019 23:29:17 4.3 C 23 %
2740 12-11-2019 23:39:17 4.3 C 25 %
2741 12-11-2019 23:49:17 4.4 C 25 %
2742 12-11-2019 23:59:17 4.4 C 21 %
2743 13-11-2019 00:09:17 4.4 C 21 %
2744 13-11-2019 00:19:17 4.4 C 21 %
2745 13-11-2019 00:29:17 4.3 C 23 %
2746 13-11-2019 00:39:17 4.3 C 21 %
2747 13-11-2019 00:49:17 4.3 C 21 %
2748 13-11-2019 00:59:17 4.2 C 25 %
2749 13-11-2019 01:09:17 4.1 C 25 %
2750 13-11-2019 01:19:17 4 C 25 %
Sensor: Nr:Datum:Temp:Feuchte:
Aussen-T/F 2751 13-11-2019 01:29:17 3.7 C 25 %
2752 13-11-2019 01:39:17 3.6 C 26 %
2753 13-11-2019 01:49:17 2.8 C 29 %
2754 13-11-2019 01:59:17 2.4 C 31 %
2755 13-11-2019 02:09:17 2.3 C 32 %
2756 13-11-2019 02:19:17 2.2 C 32 %
2757 13-11-2019 02:29:17 2.1 C 31 %
2758 13-11-2019 02:39:17 2.8 C 29 %
2759 13-11-2019 02:49:17 3.1 C 28 %
2760 13-11-2019 02:59:17 3.9 C 21 %
2761 13-11-2019 03:09:17 3.9 C 20 %
2762 13-11-2019 03:19:17 4 C 20 %
2763 13-11-2019 03:29:17 3.8 C 21 %
2764 13-11-2019 03:39:17 4 C 20 %
2765 13-11-2019 03:49:17 3.9 C 23 %
2766 13-11-2019 03:59:17 4 C 20 %
2767 13-11-2019 04:09:17 4.1 C 20 %
2768 13-11-2019 04:19:17 3.9 C 21 %
2769 13-11-2019 04:29:17 3.8 C 23 %
2770 13-11-2019 04:39:17 4.2 C 20 %
2771 13-11-2019 04:49:17 4 C 20 %
2772 13-11-2019 04:59:17 3.9 C 21 %
2773 13-11-2019 05:09:17 3.6 C 25 %
2774 13-11-2019 05:19:17 3.8 C 25 %
2775 13-11-2019 05:29:17 3.7 C 26 %
Sensor: Nr:Datum:Temp:Feuchte:
Aussen-T/F 2776 13-11-2019 05:39:17 3.8 C 26 %
2777 13-11-2019 05:49:17 3.8 C 26 %
2778 13-11-2019 05:59:17 3.8 C 26 %
2779 13-11-2019 06:09:17 3.8 C 26 %
2780 13-11-2019 06:19:17 3.9 C 25 %
2781 13-11-2019 06:29:17 3.9 C 25 %
2782 13-11-2019 06:39:17 3.9 C 25 %
2783 13-11-2019 06:49:17 3.2 C 25 %
2784 13-11-2019 06:59:17 3.1 C 30 %
2785 13-11-2019 07:09:17 3.3 C 30 %
2786 13-11-2019 07:19:17 3.3 C 30 %
2787 13-11-2019 07:29:17 3.7 C 27 %
2788 13-11-2019 07:39:17 3.7 C 27 %
2789 13-11-2019 07:49:17 3.8 C 26 %
2790 13-11-2019 07:59:17 3.9 C 26 %
2791 13-11-2019 08:09:17 4 C 25 %
2792 13-11-2019 08:19:17 4.2 C 25 %
2793 13-11-2019 08:29:17 4.3 C 21 %
2794 13-11-2019 08:39:17 4.5 C 20 %
2795 13-11-2019 08:49:17 4.5 C 21 %
2796 13-11-2019 08:59:17 4.5 C 21 %
2797 13-11-2019 09:09:17 4.7 C 21 %
2798 13-11-2019 09:19:17 5.1 C 20 %
2799 13-11-2019 09:29:17 5.5 C 20 %
2800 13-11-2019 09:39:17 5.6 C 20 %
Sensor: Nr:Datum:Temp:Feuchte:
Aussen-T/F 2801 13-11-2019 09:49:17 5.6 C 20 %
2802 13-11-2019 09:59:17 5.5 C 20 %
2803 13-11-2019 10:09:17 5.6 C 20 %
2804 13-11-2019 10:19:17 5.7 C 20 %
2805 13-11-2019 10:29:17 5.8 C 20 %
2806 13-11-2019 10:39:17 5.9 C 20 %
2807 13-11-2019 10:49:17 5.7 C 20 %
2808 13-11-2019 10:59:17 5.7 C 20 %
2809 13-11-2019 11:09:17 5.6 C 20 %
2810 13-11-2019 11:19:17 5.8 C 20 %
2811 13-11-2019 11:29:17 6 C 20 %
2812 13-11-2019 11:39:17 6.1 C 20 %
2813 13-11-2019 11:49:17 6.1 C 20 %
2814 13-11-2019 11:59:17 6.6 C 20 %
2815 13-11-2019 12:09:17 6.5 C 20 %
2816 13-11-2019 12:19:17 6.6 C 20 %
2817 13-11-2019 12:29:17 6.8 C 20 %
2818 13-11-2019 12:39:17 6.7 C 20 %
2819 13-11-2019 12:49:17 6.4 C 20 %
2820 13-11-2019 12:59:17 6.7 C 20 %
2821 13-11-2019 13:09:17 6.8 C 20 %
2822 13-11-2019 13:19:17 6.7 C 20 %
2823 13-11-2019 13:29:17 6.4 C 20 %
2824 13-11-2019 13:39:17 6.5 C 20 %
2825 13-11-2019 13:49:17 6.4 C 20 %
Sensor: Nr:Datum:Temp:Feuchte:
Aussen-T/F 2826 13-11-2019 13:59:17 6.3 C 20 %
2827 13-11-2019 14:09:17 6.3 C 20 %
2828 13-11-2019 14:19:17 6.3 C 20 %
2829 13-11-2019 14:29:17 6.2 C 20 %
2830 13-11-2019 14:39:17 6.2 C 20 %
2831 13-11-2019 14:49:17 6.2 C 20 %
2832 13-11-2019 14:59:17 6.3 C 20 %
2833 13-11-2019 15:09:17 6.3 C 20 %
2834 13-11-2019 15:19:17 6.3 C 20 %
2835 13-11-2019 15:29:17 6.2 C 20 %
2836 13-11-2019 15:39:17 6.2 C 20 %
2837 13-11-2019 15:49:17 6.2 C 20 %
2838 13-11-2019 15:59:17 6.2 C 20 %
2839 13-11-2019 16:09:17 6.2 C 20 %
2840 13-11-2019 16:19:17 6.2 C 20 %
2841 13-11-2019 16:29:17 6.1 C 20 %
2842 13-11-2019 16:39:17 6 C 20 %
2843 13-11-2019 16:49:17 6 C 20 %
2844 13-11-2019 16:59:17 6 C 20 %
2845 13-11-2019 17:09:17 6 C 20 %
2846 13-11-2019 17:19:17 6 C 20 %
2847 13-11-2019 17:29:17 5.9 C 20 %
2848 13-11-2019 17:39:17 6 C 20 %
2849 13-11-2019 17:49:17 5.9 C 20 %
2850 13-11-2019 17:59:17 5.9 C 20 %
Sensor: Nr:Datum:Temp:Feuchte:
Aussen-T/F 2851 13-11-2019 18:09:17 5.8 C 20 %
2852 13-11-2019 18:19:17 5.8 C 20 %
2853 13-11-2019 18:29:17 5.9 C 20 %
2854 13-11-2019 18:39:17 5.8 C 20 %
2855 13-11-2019 18:49:17 5.7 C 20 %
2856 13-11-2019 18:59:17 5.6 C 21 %
2857 13-11-2019 19:09:18 5.6 C 21 %
2858 13-11-2019 19:19:17 5.6 C 23 %
2859 13-11-2019 19:29:17 5.6 C 20 %
2860 13-11-2019 19:39:17 5.6 C 21 %
2861 13-11-2019 19:49:17 5.8 C 20 %
2862 13-11-2019 19:59:17 5.8 C 20 %
2863 13-11-2019 20:09:17 5.8 C 20 %
2864 13-11-2019 20:19:17 5.9 C 20 %
2865 13-11-2019 20:29:17 5.8 C 20 %
2866 13-11-2019 20:39:17 5.8 C 20 %
2867 13-11-2019 20:49:17 5.8 C 20 %
2868 13-11-2019 20:59:17 5.6 C 20 %
2869 13-11-2019 21:09:17 5.5 C 23 %
2870 13-11-2019 21:19:17 5.4 C 25 %
2871 13-11-2019 21:29:17 4.8 C 27 %
2872 13-11-2019 21:39:17 4.8 C 27 %
2873 13-11-2019 21:49:17 4.7 C 28 %
2874 13-11-2019 21:59:17 4.7 C 29 %
2875 13-11-2019 22:09:17 4.2 C 28 %
Sensor: Nr:Datum:Temp:Feuchte:
Aussen-T/F 2876 13-11-2019 22:19:17 3.8 C 32 %
2877 13-11-2019 22:29:17 3.8 C 33 %
2878 13-11-2019 22:39:17 3.8 C 33 %
2879 13-11-2019 22:49:17 4.1 C 32 %
2880 13-11-2019 22:59:17 4 C 31 %
2881 13-11-2019 23:09:17 4.1 C 29 %
2882 13-11-2019 23:19:17 3.4 C 33 %
2883 13-11-2019 23:29:17 3.6 C 33 %
2884 13-11-2019 23:39:17 3.6 C 33 %
2885 13-11-2019 23:49:17 3.9 C 33 %
2886 13-11-2019 23:59:17 4.2 C 30 %
2887 14-11-2019 00:09:17 4.4 C 30 %
2888 14-11-2019 00:19:17 4.5 C 31 %
2889 14-11-2019 00:29:17 4.7 C 30 %
2890 14-11-2019 00:39:17 4.6 C 30 %
2891 14-11-2019 00:49:17 4.7 C 31 %
2892 14-11-2019 00:59:17 4.4 C 30 %
2893 14-11-2019 01:09:17 3.7 C 31 %
2894 14-11-2019 01:19:17 3.8 C 37 %
2895 14-11-2019 01:29:17 3.7 C 37 %
2896 14-11-2019 01:39:17 3.8 C 39 %
2897 14-11-2019 01:49:17 3.8 C 38 %
2898 14-11-2019 01:59:17 3.9 C 39 %
2899 14-11-2019 02:09:17 4 C 37 %
2900 14-11-2019 02:19:17 4 C 35 %
Sensor: Nr:Datum:Temp:Feuchte:
Aussen-T/F 2901 14-11-2019 02:29:17 4.1 C 36 %
2902 14-11-2019 02:39:17 4.4 C 35 %
2903 14-11-2019 02:49:17 4.5 C 33 %
2904 14-11-2019 02:59:17 4.8 C 31 %
2905 14-11-2019 03:09:17 5 C 29 %
2906 14-11-2019 03:19:17 4.8 C 30 %
2907 14-11-2019 03:29:17 5 C 30 %
2908 14-11-2019 03:39:17 5.1 C 29 %
2909 14-11-2019 03:49:17 5.2 C 28 %
2910 14-11-2019 03:59:17 5.1 C 28 %
2911 14-11-2019 04:09:17 5.2 C 29 %
2912 14-11-2019 04:19:17 5.1 C 29 %
2913 14-11-2019 04:29:17 4.6 C 31 %
2914 14-11-2019 04:39:17 4.5 C 32 %
2915 14-11-2019 04:49:17 4.6 C 33 %
2916 14-11-2019 04:59:17 4.2 C 31 %
2917 14-11-2019 05:09:17 3.4 C 33 %
2918 14-11-2019 05:19:17 3.3 C 40 %
2919 14-11-2019 05:29:17 3.7 C 41 %
2920 14-11-2019 05:39:18 4.1 C 40 %
2921 14-11-2019 05:49:17 4.4 C 38 %
2922 14-11-2019 05:59:17 4.4 C 36 %
2923 14-11-2019 06:09:17 3.6 C 34 %
2924 14-11-2019 06:19:17 3.5 C 36 %
2925 14-11-2019 06:29:17 3.5 C 36 %
Sensor: Nr:Datum:Temp:Feuchte:
Aussen-T/F 2926 14-11-2019 06:39:17 3.9 C 38 %
2927 14-11-2019 06:49:17 4.2 C 36 %
2928 14-11-2019 06:59:17 4.6 C 30 %
2929 14-11-2019 07:09:17 4.6 C 30 %
2930 14-11-2019 07:19:17 4.8 C 26 %
2931 14-11-2019 07:29:17 4.8 C 25 %
2932 14-11-2019 07:39:17 4.5 C 26 %
2933 14-11-2019 07:49:17 4.5 C 26 %
2934 14-11-2019 07:59:17 4.5 C 26 %
2935 14-11-2019 08:09:17 4.2 C 26 %
2936 14-11-2019 08:19:17 4.2 C 26 %
2937 14-11-2019 08:29:17 4.6 C 26 %
2938 14-11-2019 08:39:17 4.7 C 25 %
2939 14-11-2019 08:49:17 4.6 C 25 %
2940 14-11-2019 08:59:17 4.5 C 26 %
2941 14-11-2019 09:09:17 5 C 21 %
2942 14-11-2019 09:19:17 5 C 21 %
2943 14-11-2019 09:29:17 5.4 C 20 %
2944 14-11-2019 09:39:17 5.6 C 20 %
2945 14-11-2019 09:49:17 5.6 C 20 %
2946 14-11-2019 09:59:17 5.9 C 20 %
2947 14-11-2019 10:09:17 6.1 C 20 %
2948 14-11-2019 10:19:17 6.3 C 20 %
2949 14-11-2019 10:29:17 6.5 C 20 %
2950 14-11-2019 10:39:17 6.7 C 20 %
Sensor: Nr:Datum:Temp:Feuchte:
Aussen-T/F 2951 14-11-2019 10:49:17 7.1 C 20 %
2952 14-11-2019 10:59:17 7.2 C 20 %
2953 14-11-2019 11:09:17 7.4 C 20 %
2954 14-11-2019 11:19:17 7.9 C 20 %
2955 14-11-2019 11:29:17 8.2 C 20 %
2956 14-11-2019 11:39:17 8.2 C 20 %
2957 14-11-2019 11:49:17 8.2 C 20 %
2958 14-11-2019 11:59:17 8.9 C 20 %
2959 14-11-2019 12:09:17 9.3 C 20 %
2960 14-11-2019 12:19:17 9.1 C 20 %
2961 14-11-2019 12:29:17 9 C 20 %
2962 14-11-2019 12:39:17 8.6 C 20 %
2963 14-11-2019 12:49:17 8.3 C 20 %
2964 14-11-2019 12:59:17 8.3 C 20 %
2965 14-11-2019 13:09:17 8.6 C 20 %
2966 14-11-2019 13:19:17 8.8 C 20 %
2967 14-11-2019 13:29:17 8.6 C 20 %
2968 14-11-2019 13:39:17 8.7 C 20 %
2969 14-11-2019 13:49:17 9.1 C 20 %
2970 14-11-2019 13:59:17 9.6 C 20 %
2971 14-11-2019 14:09:17 9.4 C 20 %
2972 14-11-2019 14:19:17 9.2 C 20 %
2973 14-11-2019 14:29:17 9 C 20 %
2974 14-11-2019 14:39:17 8.9 C 20 %
2975 14-11-2019 14:49:17 8.5 C 20 %
Sensor: Nr:Datum:Temp:Feuchte:
Aussen-T/F 2976 14-11-2019 14:59:17 8.1 C 20 %
2977 14-11-2019 15:09:17 7.9 C 20 %
2978 14-11-2019 15:19:17 7.8 C 20 %
2979 14-11-2019 15:29:17 7.3 C 20 %
2980 14-11-2019 15:39:17 6.9 C 20 %
2981 14-11-2019 15:49:17 6.7 C 20 %
2982 14-11-2019 15:59:17 6.5 C 20 %
2983 14-11-2019 16:09:17 6.5 C 20 %
2984 14-11-2019 16:19:17 6 C 20 %
2985 14-11-2019 16:29:17 5.6 C 20 %
2986 14-11-2019 16:39:17 5.2 C 20 %
2987 14-11-2019 16:49:17 4.8 C 20 %
2988 14-11-2019 16:59:17 4.6 C 20 %
2989 14-11-2019 17:09:17 4.4 C 20 %
2990 14-11-2019 17:19:17 4.3 C 20 %
2991 14-11-2019 17:29:17 3.9 C 20 %
2992 14-11-2019 17:39:17 3.8 C 20 %
2993 14-11-2019 17:49:17 3.8 C 20 %
2994 14-11-2019 17:59:17 3.8 C 20 %
2995 14-11-2019 18:09:17 4.1 C 20 %
2996 14-11-2019 18:19:17 3.9 C 20 %
2997 14-11-2019 18:29:17 3.8 C 20 %
2998 14-11-2019 18:39:17 3.9 C 20 %
2999 14-11-2019 18:49:17 3.3 C 20 %
3000 14-11-2019 18:59:17 3.4 C 20 %
Sensor: Nr:Datum:Temp:Feuchte:
Aussen-T/F 3001 14-11-2019 19:09:17 3.2 C 20 %
3002 14-11-2019 19:19:17 2.6 C 25 %
3003 14-11-2019 19:29:17 2.7 C 25 %
3004 14-11-2019 19:39:17 2.7 C 25 %
3005 14-11-2019 19:49:17 2.6 C 25 %
3006 14-11-2019 19:59:18 2.7 C 26 %
3007 14-11-2019 20:09:17 2.4 C 26 %
3008 14-11-2019 20:19:17 2.3 C 30 %
3009 14-11-2019 20:29:17 2.4 C 27 %
3010 14-11-2019 20:39:17 2.6 C 26 %
3011 14-11-2019 20:49:17 2.5 C 26 %
3012 14-11-2019 20:59:17 2 C 27 %
3013 14-11-2019 21:09:17 1.6 C 32 %
3014 14-11-2019 21:19:17 1.6 C 36 %
3015 14-11-2019 21:29:17 1.7 C 35 %
3016 14-11-2019 21:39:17 1.6 C 35 %
3017 14-11-2019 21:49:17 1.4 C 35 %
3018 14-11-2019 21:59:17 1.4 C 36 %
3019 14-11-2019 22:09:17 1.6 C 37 %
3020 14-11-2019 22:19:17 1.5 C 36 %
3021 14-11-2019 22:29:17 1.5 C 37 %
3022 14-11-2019 22:39:17 1.6 C 39 %
3023 14-11-2019 22:49:17 1.6 C 39 %
3024 14-11-2019 22:59:17 1.9 C 40 %
3025 14-11-2019 23:09:17 2 C 38 %
Sensor: Nr:Datum:Temp:Feuchte:
Aussen-T/F 3026 14-11-2019 23:19:17 2 C 37 %
3027 14-11-2019 23:29:17 2 C 36 %
3028 14-11-2019 23:39:17 2.2 C 36 %
3029 14-11-2019 23:49:17 2.1 C 36 %
3030 14-11-2019 23:59:17 2.1 C 36 %
3031 15-11-2019 00:09:17 2.1 C 36 %
3032 15-11-2019 00:19:17 2.2 C 35 %
3033 15-11-2019 00:29:17 2.3 C 36 %
3034 15-11-2019 00:39:17 2.5 C 36 %
3035 15-11-2019 00:49:17 2.8 C 33 %
3036 15-11-2019 00:59:17 3 C 31 %
3037 15-11-2019 01:09:17 3.2 C 30 %
3038 15-11-2019 01:19:17 2.9 C 31 %
3039 15-11-2019 01:29:17 2.8 C 32 %
3040 15-11-2019 01:39:17 3.1 C 30 %
3041 15-11-2019 01:49:17 3.2 C 30 %
3042 15-11-2019 01:59:17 3.1 C 30 %
3043 15-11-2019 02:09:17 2.7 C 30 %
3044 15-11-2019 02:19:17 2.6 C 31 %
3045 15-11-2019 02:29:17 2.6 C 31 %
3046 15-11-2019 02:39:17 2.7 C 30 %
3047 15-11-2019 02:49:17 2.8 C 31 %
3048 15-11-2019 02:59:17 3.2 C 30 %
3049 15-11-2019 03:09:17 2.9 C 30 %
3050 15-11-2019 03:19:17 2.7 C 30 %
Sensor: Nr:Datum:Temp:Feuchte:
Aussen-T/F 3051 15-11-2019 03:29:17 2.5 C 30 %
3052 15-11-2019 03:39:17 2.3 C 30 %
3053 15-11-2019 03:49:17 2.2 C 30 %
3054 15-11-2019 03:59:17 2.2 C 31 %
3055 15-11-2019 04:09:17 2.2 C 31 %
3056 15-11-2019 04:19:17 2.6 C 30 %
3057 15-11-2019 04:29:17 3.1 C 26 %
3058 15-11-2019 04:39:17 3.2 C 25 %
3059 15-11-2019 04:49:17 3 C 25 %
3060 15-11-2019 04:59:17 3.1 C 25 %
3061 15-11-2019 05:09:17 2.8 C 27 %
3062 15-11-2019 05:19:17 2.6 C 26 %
3063 15-11-2019 05:29:17 2.7 C 25 %
3064 15-11-2019 05:39:17 2.5 C 27 %
3065 15-11-2019 05:49:17 2.6 C 25 %
3066 15-11-2019 05:59:17 3.2 C 23 %
3067 15-11-2019 06:09:17 3.3 C 20 %
3068 15-11-2019 06:19:17 3.4 C 20 %
3069 15-11-2019 06:29:17 3.3 C 20 %
3070 15-11-2019 06:39:17 3.4 C 20 %
3071 15-11-2019 06:49:17 3.4 C 20 %
3072 15-11-2019 06:59:17 3.1 C 20 %
3073 15-11-2019 07:09:17 3 C 20 %
3074 15-11-2019 07:19:17 2.9 C 21 %
3075 15-11-2019 07:29:17 3 C 21 %
Sensor: Nr:Datum:Temp:Feuchte:
Aussen-T/F 3076 15-11-2019 07:39:17 2.9 C 23 %
3077 15-11-2019 07:49:17 2.8 C 25 %
3078 15-11-2019 07:59:17 3.2 C 20 %
3079 15-11-2019 08:09:17 3.3 C 20 %
3080 15-11-2019 08:19:17 3.3 C 20 %
3081 15-11-2019 08:29:17 3.3 C 20 %
3082 15-11-2019 08:39:17 3.3 C 20 %
3083 15-11-2019 08:49:17 3.1 C 23 %
3084 15-11-2019 08:59:17 3.3 C 21 %
3085 15-11-2019 09:09:17 3.3 C 21 %
3086 15-11-2019 09:19:17 3.6 C 20 %
3087 15-11-2019 09:29:17 4.1 C 20 %
3088 15-11-2019 09:39:17 4.5 C 20 %
3089 15-11-2019 09:49:17 4.4 C 20 %
3090 15-11-2019 09:59:17 4.6 C 20 %
3091 15-11-2019 10:09:17 4.9 C 20 %
3092 15-11-2019 10:19:17 5.2 C 20 %
3093 15-11-2019 10:29:17 5.5 C 20 %
3094 15-11-2019 10:39:17 5.4 C 20 %
3095 15-11-2019 10:49:17 5.5 C 20 %
3096 15-11-2019 10:59:17 5.8 C 20 %
3097 15-11-2019 11:09:17 5.9 C 20 %
3098 15-11-2019 11:19:17 5.3 C 20 %
3099 15-11-2019 11:29:17 5.2 C 20 %
3100 15-11-2019 11:39:17 5.8 C 20 %
Sensor: Nr:Datum:Temp:Feuchte:
Aussen-T/F 3101 15-11-2019 11:49:17 6.1 C 20 %
3102 15-11-2019 11:59:17 6.4 C 20 %
3103 15-11-2019 12:09:17 6.5 C 20 %
3104 15-11-2019 12:19:17 6.5 C 20 %
3105 15-11-2019 12:29:17 6.3 C 20 %
3106 15-11-2019 12:39:17 6.3 C 20 %
3107 15-11-2019 12:49:17 6.4 C 20 %
3108 15-11-2019 12:59:17 6.5 C 20 %
3109 15-11-2019 13:09:17 6.8 C 20 %
3110 15-11-2019 13:19:17 6.9 C 20 %
3111 15-11-2019 13:29:17 7 C 20 %
3112 15-11-2019 13:39:17 7.4 C 20 %
3113 15-11-2019 13:49:17 7.4 C 20 %
3114 15-11-2019 13:59:17 7.3 C 20 %
3115 15-11-2019 14:09:17 7.5 C 20 %
3116 15-11-2019 14:19:17 7.6 C 20 %
3117 15-11-2019 14:29:17 7.7 C 20 %
3118 15-11-2019 14:39:17 7.5 C 20 %
3119 15-11-2019 14:49:17 7.8 C 20 %
3120 15-11-2019 14:59:17 8 C 20 %
3121 15-11-2019 15:09:17 7.8 C 20 %
3122 15-11-2019 15:19:17 7.7 C 20 %
3123 15-11-2019 15:29:17 7.6 C 20 %
3124 15-11-2019 15:39:17 7.3 C 20 %
3125 15-11-2019 15:49:17 7.1 C 20 %
Sensor: Nr:Datum:Temp:Feuchte:
Aussen-T/F 3126 15-11-2019 15:59:17 6.8 C 20 %
3127 15-11-2019 16:09:17 6.7 C 20 %
3128 15-11-2019 16:19:17 5.5 C 20 %
3129 15-11-2019 16:29:17 5 C 20 %
3130 15-11-2019 16:39:17 4.4 C 20 %
3131 15-11-2019 16:49:17 4 C 23 %
3132 15-11-2019 16:59:17 3.9 C 26 %
3133 15-11-2019 17:09:17 3.8 C 27 %
3134 15-11-2019 17:19:17 3.9 C 27 %
3135 15-11-2019 17:29:17 3.8 C 28 %
3136 15-11-2019 17:39:17 4 C 27 %
3137 15-11-2019 17:49:17 3.8 C 28 %
3138 15-11-2019 17:59:17 3.8 C 29 %
3139 15-11-2019 18:09:17 3.8 C 29 %
3140 15-11-2019 18:19:17 4.3 C 27 %
3141 15-11-2019 18:29:17 4.2 C 26 %
3142 15-11-2019 18:39:17 4.1 C 27 %
3143 15-11-2019 18:49:17 4 C 28 %
3144 15-11-2019 18:59:17 4 C 28 %
3145 15-11-2019 19:09:17 3.9 C 31 %
3146 15-11-2019 19:19:17 3.6 C 31 %
3147 15-11-2019 19:29:17 3.7 C 32 %
3148 15-11-2019 19:39:17 3.6 C 31 %
3149 15-11-2019 19:49:17 3.7 C 32 %
3150 15-11-2019 19:59:17 3.7 C 32 %
Sensor: Nr:Datum:Temp:Feuchte:
Aussen-T/F 3151 15-11-2019 20:09:17 3.4 C 33 %
3152 15-11-2019 20:19:17 3.3 C 34 %
3153 15-11-2019 20:29:17 3.2 C 35 %
3154 15-11-2019 20:39:17 3.5 C 32 %
3155 15-11-2019 20:49:17 3.2 C 32 %
3156 15-11-2019 20:59:17 3.5 C 32 %
3157 15-11-2019 21:09:17 3.5 C 31 %
3158 15-11-2019 21:19:17 3.5 C 31 %
3159 15-11-2019 21:29:17 3.2 C 31 %
3160 15-11-2019 21:39:17 3 C 34 %
3161 15-11-2019 21:49:17 2.9 C 36 %
3162 15-11-2019 21:59:17 3 C 36 %
3163 15-11-2019 22:09:17 2.8 C 36 %
3164 15-11-2019 22:19:17 2.6 C 37 %
3165 15-11-2019 22:29:17 2.6 C 39 %
3166 15-11-2019 22:39:17 2.7 C 39 %
3167 15-11-2019 22:49:17 2.7 C 39 %
3168 15-11-2019 22:59:17 2.5 C 38 %
3169 15-11-2019 23:09:17 2.6 C 39 %
3170 15-11-2019 23:19:17 2.7 C 39 %
3171 15-11-2019 23:29:17 2.6 C 38 %
3172 15-11-2019 23:39:17 2.5 C 38 %
3173 15-11-2019 23:49:17 2.5 C 40 %
3174 15-11-2019 23:59:17 2.3 C 40 %
3175 16-11-2019 00:09:17 2.3 C 40 %
Sensor: Nr:Datum:Temp:Feuchte:
Aussen-T/F 3176 16-11-2019 00:19:17 2.3 C 40 %
3177 16-11-2019 00:29:17 2.3 C 40 %
3178 16-11-2019 00:39:17 2.3 C 40 %
3179 16-11-2019 00:49:17 2.4 C 40 %
3180 16-11-2019 00:59:17 2.3 C 40 %
3181 16-11-2019 01:09:17 2.3 C 40 %
3182 16-11-2019 01:19:17 2.2 C 40 %
3183 16-11-2019 01:29:17 2.2 C 40 %
3184 16-11-2019 01:39:17 2.2 C 40 %
3185 16-11-2019 01:49:17 2.3 C 40 %
3186 16-11-2019 01:59:17 2.3 C 40 %
3187 16-11-2019 02:09:17 2.3 C 40 %
3188 16-11-2019 02:19:17 2.3 C 40 %
3189 16-11-2019 02:29:17 2.2 C 40 %
3190 16-11-2019 02:39:17 2.1 C 39 %
3191 16-11-2019 02:49:17 2.1 C 40 %
3192 16-11-2019 02:59:17 2 C 40 %
3193 16-11-2019 03:09:17 2 C 40 %
3194 16-11-2019 03:19:17 1.9 C 41 %
3195 16-11-2019 03:29:17 1.5 C 40 %
3196 16-11-2019 03:39:18 1.3 C 40 %
3197 16-11-2019 03:49:17 1.3 C 41 %
3198 16-11-2019 03:59:17 1.3 C 41 %
3199 16-11-2019 04:09:17 1.1 C 41 %
3200 16-11-2019 04:19:17 0.8 C 41 %
Sensor: Nr:Datum:Temp:Feuchte:
Aussen-T/F 3201 16-11-2019 04:29:17 0.3 C 40 %
3202 16-11-2019 04:39:17 0 C 41 %
3203 16-11-2019 04:49:17 -0.2 C 41 %
3204 16-11-2019 04:59:17 -0.1 C 42 %
3205 16-11-2019 05:09:17 -0.4 C 42 %
3206 16-11-2019 05:19:17 -0.5 C 42 %
3207 16-11-2019 05:29:17 -0.7 C 42 %
3208 16-11-2019 05:39:17 -0.6 C 42 %
3209 16-11-2019 05:49:17 -0.8 C 42 %
3210 16-11-2019 05:59:17 -1 C 42 %
3211 16-11-2019 06:09:17 -1 C 42 %
3212 16-11-2019 06:19:17 -1.1 C 42 %
3213 16-11-2019 06:29:17 -1 C 43 %
3214 16-11-2019 06:39:17 -1 C 43 %
3215 16-11-2019 06:49:17 -1.4 C 42 %
3216 16-11-2019 06:59:17 -1.5 C 42 %
3217 16-11-2019 07:09:17 -1.5 C 42 %
3218 16-11-2019 07:19:17 -1.6 C 42 %
3219 16-11-2019 07:29:17 -1.4 C 43 %
3220 16-11-2019 07:39:17 -1 C 43 %
3221 16-11-2019 07:49:17 -0.9 C 43 %
3222 16-11-2019 07:59:17 -0.7 C 43 %
3223 16-11-2019 08:09:17 -0.7 C 43 %
3224 16-11-2019 08:19:17 -0.7 C 43 %
3225 16-11-2019 08:29:17 -0.6 C 43 %
Sensor: Nr:Datum:Temp:Feuchte:
Aussen-T/F 3226 16-11-2019 08:39:17 -0.5 C 43 %
3227 16-11-2019 08:49:17 -0.4 C 43 %
3228 16-11-2019 08:59:17 -0.3 C 43 %
3229 16-11-2019 09:09:17 -0.4 C 43 %
3230 16-11-2019 09:19:17 -0.5 C 43 %
3231 16-11-2019 09:29:17 -0.5 C 43 %
3232 16-11-2019 09:39:17 -0.4 C 43 %
3233 16-11-2019 09:49:17 -0.4 C 43 %
3234 16-11-2019 09:59:17 -0.2 C 43 %
3235 16-11-2019 10:09:17 0.2 C 43 %
3236 16-11-2019 10:19:17 0.6 C 43 %
3237 16-11-2019 10:29:17 0.6 C 41 %
3238 16-11-2019 10:39:17 0.3 C 40 %
3239 16-11-2019 10:49:17 0.5 C 40 %
3240 16-11-2019 10:59:17 0.6 C 39 %
3241 16-11-2019 11:09:17 0.7 C 38 %
3242 16-11-2019 11:19:17 1.1 C 36 %
3243 16-11-2019 11:29:17 1.6 C 32 %
3244 16-11-2019 11:39:17 2.4 C 32 %
3245 16-11-2019 11:49:17 2.1 C 30 %
3246 16-11-2019 11:59:17 1.8 C 31 %
3247 16-11-2019 12:09:17 1.6 C 32 %
3248 16-11-2019 12:19:17 1.6 C 33 %
3249 16-11-2019 12:29:17 2.3 C 31 %
3250 16-11-2019 12:39:17 2.5 C 30 %
Sensor: Nr:Datum:Temp:Feuchte:
Aussen-T/F 3251 16-11-2019 12:49:17 2.6 C 32 %
3252 16-11-2019 12:59:17 2.6 C 33 %
3253 16-11-2019 13:09:17 2.5 C 35 %
3254 16-11-2019 13:19:17 2.6 C 36 %
3255 16-11-2019 13:29:17 3.2 C 36 %
3256 16-11-2019 13:39:17 3.7 C 35 %
3257 16-11-2019 13:49:17 4 C 32 %
3258 16-11-2019 13:59:17 3.9 C 32 %
3259 16-11-2019 14:09:17 3.7 C 32 %
3260 16-11-2019 14:19:17 3.7 C 33 %
3261 16-11-2019 14:29:17 3.7 C 32 %
3262 16-11-2019 14:39:17 3.9 C 32 %
3263 16-11-2019 14:49:17 3.9 C 31 %
3264 16-11-2019 14:59:17 4 C 30 %
3265 16-11-2019 15:09:17 4.4 C 29 %
3266 16-11-2019 15:19:17 4.7 C 29 %
3267 16-11-2019 15:29:17 4.6 C 29 %
3268 16-11-2019 15:39:17 4.4 C 28 %
3269 16-11-2019 15:49:17 4.5 C 28 %
3270 16-11-2019 15:59:17 4.2 C 28 %
3271 16-11-2019 16:09:17 4 C 29 %
3272 16-11-2019 16:19:17 4.3 C 26 %
3273 16-11-2019 16:29:17 3.8 C 27 %
3274 16-11-2019 16:39:17 3.5 C 30 %
3275 16-11-2019 16:49:17 3.6 C 31 %
Sensor: Nr:Datum:Temp:Feuchte:
Aussen-T/F 3276 16-11-2019 16:59:17 3.4 C 32 %
3277 16-11-2019 17:09:17 3.5 C 32 %
3278 16-11-2019 17:19:17 3.3 C 32 %
3279 16-11-2019 17:29:17 2.6 C 36 %
3280 16-11-2019 17:39:17 2.2 C 36 %
3281 16-11-2019 17:49:17 2.3 C 39 %
3282 16-11-2019 17:59:17 2.2 C 40 %
3283 16-11-2019 18:09:17 2 C 39 %
3284 16-11-2019 18:19:17 2.2 C 40 %
3285 16-11-2019 18:29:17 2 C 40 %
3286 16-11-2019 18:39:17 1.9 C 40 %
3287 16-11-2019 18:49:17 1.7 C 40 %
3288 16-11-2019 18:59:17 1.6 C 40 %
3289 16-11-2019 19:09:17 1.4 C 40 %
3290 16-11-2019 19:19:17 1.3 C 41 %
3291 16-11-2019 19:29:17 1 C 41 %
3292 16-11-2019 19:39:17 1.1 C 42 %
3293 16-11-2019 19:49:17 0.7 C 42 %
3294 16-11-2019 19:59:17 0.5 C 42 %
3295 16-11-2019 20:09:17 0.5 C 43 %
3296 16-11-2019 20:19:17 0.6 C 43 %
3297 16-11-2019 20:29:17 0.7 C 44 %
3298 16-11-2019 20:39:17 0.7 C 44 %
3299 16-11-2019 20:49:17 0.6 C 43 %
3300 16-11-2019 20:59:17 0.6 C 43 %
Sensor: Nr:Datum:Temp:Feuchte:
Aussen-T/F 3301 16-11-2019 21:09:17 1.1 C 43 %
3302 16-11-2019 21:19:17 0.3 C 43 %
3303 16-11-2019 21:29:17 0.1 C 43 %
3304 16-11-2019 21:39:17 0 C 43 %
3305 16-11-2019 21:49:17 -0.2 C 42 %
3306 16-11-2019 21:59:17 -0.3 C 43 %
3307 16-11-2019 22:09:17 0 C 43 %
3308 16-11-2019 22:19:17 -0.5 C 43 %
3309 16-11-2019 22:29:17 -0.7 C 42 %
3310 16-11-2019 22:39:17 -0.9 C 42 %
3311 16-11-2019 22:49:17 -0.9 C 42 %
3312 16-11-2019 22:59:17 -1 C 42 %
3313 16-11-2019 23:09:17 -1.2 C 42 %
3314 16-11-2019 23:19:17 -1 C 42 %
3315 16-11-2019 23:29:17 -1.3 C 42 %
3316 16-11-2019 23:39:17 -1.3 C 42 %
3317 16-11-2019 23:49:17 -1.6 C 42 %
3318 16-11-2019 23:59:17 -1.6 C 42 %
3319 17-11-2019 00:09:17 -1.6 C 42 %
3320 17-11-2019 00:19:17 -1.3 C 43 %
3321 17-11-2019 00:29:17 -1.6 C 42 %
3322 17-11-2019 00:39:17 -1.9 C 42 %
3323 17-11-2019 00:49:17 -1.9 C 42 %
3324 17-11-2019 00:59:17 -2 C 41 %
3325 17-11-2019 01:09:17 -2.2 C 41 %
Sensor: Nr:Datum:Temp:Feuchte:
Aussen-T/F 3326 17-11-2019 01:19:17 -1.4 C 42 %
3327 17-11-2019 01:29:17 -2 C 41 %
3328 17-11-2019 01:39:17 -1.7 C 42 %
3329 17-11-2019 01:49:17 -1.3 C 42 %
3330 17-11-2019 01:59:17 -1.2 C 42 %
3331 17-11-2019 02:09:17 -1 C 43 %
3332 17-11-2019 02:19:17 -1 C 43 %
3333 17-11-2019 02:29:17 -0.5 C 43 %
3334 17-11-2019 02:39:17 -0.3 C 43 %
3335 17-11-2019 02:49:17 -0.2 C 43 %
3336 17-11-2019 02:59:17 -0.2 C 43 %
3337 17-11-2019 03:09:17 0 C 43 %
3338 17-11-2019 03:19:17 0.1 C 43 %
3339 17-11-2019 03:29:17 0.2 C 43 %
3340 17-11-2019 03:39:17 0.3 C 43 %
3341 17-11-2019 03:49:17 0.5 C 43 %
3342 17-11-2019 03:59:17 0.5 C 43 %
3343 17-11-2019 04:09:17 0.7 C 43 %
3344 17-11-2019 04:19:17 0.8 C 43 %
3345 17-11-2019 04:29:17 0.9 C 43 %
3346 17-11-2019 04:39:17 0.9 C 43 %
3347 17-11-2019 04:49:17 0.8 C 43 %
3348 17-11-2019 04:59:17 0.8 C 43 %
3349 17-11-2019 05:09:17 0.8 C 43 %
3350 17-11-2019 05:19:17 0.8 C 43 %
Sensor: Nr:Datum:Temp:Feuchte:
Aussen-T/F 3351 17-11-2019 05:29:17 1 C 42 %
3352 17-11-2019 05:39:17 0.8 C 43 %
3353 17-11-2019 05:49:17 0.8 C 43 %
3354 17-11-2019 05:59:17 0.8 C 43 %
3355 17-11-2019 06:09:17 0.8 C 43 %
3356 17-11-2019 06:19:17 0.8 C 43 %
3357 17-11-2019 06:29:17 0.8 C 43 %
3358 17-11-2019 06:39:17 0.9 C 43 %
3359 17-11-2019 06:49:17 1 C 41 %
3360 17-11-2019 06:59:17 0.9 C 43 %
3361 17-11-2019 07:09:17 1 C 41 %
3362 17-11-2019 07:19:17 1 C 41 %
3363 17-11-2019 07:29:17 1 C 41 %
3364 17-11-2019 07:39:17 1.1 C 41 %
3365 17-11-2019 07:49:17 1.1 C 41 %
3366 17-11-2019 07:59:17 1.1 C 41 %
3367 17-11-2019 08:09:17 1.2 C 41 %
3368 17-11-2019 08:19:17 1.2 C 41 %
3369 17-11-2019 08:29:17 1.2 C 41 %
3370 17-11-2019 08:39:17 1.3 C 41 %
3371 17-11-2019 08:49:17 1.4 C 41 %
3372 17-11-2019 08:59:17 1.5 C 42 %
3373 17-11-2019 09:09:17 1.5 C 42 %
3374 17-11-2019 09:19:17 1.8 C 42 %
3375 17-11-2019 09:29:17 2 C 41 %
Sensor: Nr:Datum:Temp:Feuchte:
Aussen-T/F 3376 17-11-2019 09:39:17 2.1 C 41 %
3377 17-11-2019 09:49:17 2.1 C 41 %
3378 17-11-2019 09:59:17 2.3 C 41 %
3379 17-11-2019 10:09:17 2.5 C 42 %
3380 17-11-2019 10:19:17 2.6 C 42 %
3381 17-11-2019 10:29:17 2.6 C 42 %
3382 17-11-2019 10:39:17 2.7 C 41 %
3383 17-11-2019 10:49:17 2.8 C 41 %
3384 17-11-2019 10:59:17 3 C 41 %
3385 17-11-2019 11:09:17 3.2 C 40 %
3386 17-11-2019 11:19:17 3.3 C 40 %
3387 17-11-2019 11:29:17 3.5 C 39 %
3388 17-11-2019 11:39:17 3.5 C 39 %
3389 17-11-2019 11:49:17 3.5 C 39 %
3390 17-11-2019 11:59:17 3.7 C 38 %
3391 17-11-2019 12:09:17 3.9 C 38 %
3392 17-11-2019 12:19:17 3.8 C 38 %
3393 17-11-2019 12:29:17 3.9 C 38 %
3394 17-11-2019 12:39:17 4 C 37 %
3395 17-11-2019 12:49:17 4.1 C 37 %
3396 17-11-2019 12:59:17 4.4 C 37 %
3397 17-11-2019 13:09:17 4.5 C 36 %
3398 17-11-2019 13:19:17 4.6 C 33 %
3399 17-11-2019 13:29:17 4.7 C 32 %
3400 17-11-2019 13:39:17 4.7 C 32 %
Sensor: Nr:Datum:Temp:Feuchte:
Aussen-T/F 3401 17-11-2019 13:49:17 4.8 C 32 %
3402 17-11-2019 13:59:17 4.8 C 32 %
3403 17-11-2019 14:09:17 4.9 C 33 %
3404 17-11-2019 14:19:17 4.9 C 31 %
3405 17-11-2019 14:29:17 5.1 C 31 %
3406 17-11-2019 14:39:17 4.6 C 29 %
3407 17-11-2019 14:49:17 4.4 C 31 %
3408 17-11-2019 14:59:17 4.3 C 35 %
3409 17-11-2019 15:09:17 4.3 C 35 %
3410 17-11-2019 15:19:17 4.2 C 37 %
3411 17-11-2019 15:29:17 4.1 C 37 %
3412 17-11-2019 15:39:18 4.2 C 38 %
3413 17-11-2019 15:49:17 4 C 38 %
3414 17-11-2019 15:59:17 4 C 37 %
3415 17-11-2019 16:09:17 4 C 38 %
3416 17-11-2019 16:19:17 4 C 38 %
3417 17-11-2019 16:29:17 3.8 C 40 %
3418 17-11-2019 16:39:17 3.8 C 40 %
3419 17-11-2019 16:49:17 3.8 C 39 %
3420 17-11-2019 16:59:17 3.7 C 40 %
3421 17-11-2019 17:09:17 3.7 C 40 %
3422 17-11-2019 17:19:17 3.6 C 40 %
3423 17-11-2019 17:29:17 3.6 C 40 %
3424 17-11-2019 17:39:17 3.6 C 40 %
3425 17-11-2019 17:49:17 3.6 C 41 %
Sensor: Nr:Datum:Temp:Feuchte:
Aussen-T/F 3426 17-11-2019 17:59:17 3.7 C 41 %
3427 17-11-2019 18:09:17 3.8 C 41 %
3428 17-11-2019 18:19:17 3.9 C 42 %
3429 17-11-2019 18:29:17 3.9 C 42 %
3430 17-11-2019 18:39:17 3.9 C 41 %
3431 17-11-2019 18:49:17 3.9 C 41 %
3432 17-11-2019 18:59:17 3.8 C 41 %
3433 17-11-2019 19:09:17 3.8 C 40 %
3434 17-11-2019 19:19:17 3.8 C 41 %
3435 17-11-2019 19:29:17 3.8 C 41 %
3436 17-11-2019 19:39:17 3.8 C 41 %
3437 17-11-2019 19:49:17 3.9 C 41 %
3438 17-11-2019 19:59:17 3.9 C 41 %
3439 17-11-2019 20:09:17 3.9 C 41 %
3440 17-11-2019 20:19:17 3.9 C 41 %
3441 17-11-2019 20:29:17 3.9 C 41 %
3442 17-11-2019 20:39:17 3.9 C 41 %
3443 17-11-2019 20:49:17 4 C 40 %
3444 17-11-2019 20:59:17 4 C 40 %
3445 17-11-2019 21:09:17 3.9 C 41 %
3446 17-11-2019 21:19:17 4 C 40 %
3447 17-11-2019 21:29:17 3.9 C 41 %
3448 17-11-2019 21:39:17 3.9 C 41 %
3449 17-11-2019 21:49:17 3.9 C 41 %
3450 17-11-2019 21:59:17 3.9 C 41 %
Sensor: Nr:Datum:Temp:Feuchte:
Aussen-T/F 3451 17-11-2019 22:09:17 3.9 C 41 %
3452 17-11-2019 22:19:17 3.9 C 41 %
3453 17-11-2019 22:29:17 3.9 C 41 %
3454 17-11-2019 22:39:17 3.9 C 41 %
3455 17-11-2019 22:49:17 3.9 C 41 %
3456 17-11-2019 22:59:17 3.8 C 41 %
3457 17-11-2019 23:09:17 3.8 C 41 %
3458 17-11-2019 23:19:17 3.8 C 41 %
3459 17-11-2019 23:29:17 3.8 C 41 %
3460 17-11-2019 23:39:17 3.8 C 41 %
3461 17-11-2019 23:49:17 3.7 C 41 %
3462 17-11-2019 23:59:17 3.6 C 41 %
3463 18-11-2019 00:09:17 3.6 C 40 %
3464 18-11-2019 00:19:17 3.6 C 40 %
3465 18-11-2019 00:29:17 3.5 C 40 %
3466 18-11-2019 00:39:17 3.5 C 40 %
3467 18-11-2019 00:49:17 3.4 C 40 %
3468 18-11-2019 00:59:17 3.4 C 39 %
3469 18-11-2019 01:09:17 3.4 C 39 %
3470 18-11-2019 01:19:17 3.4 C 38 %
3471 18-11-2019 01:29:17 3.4 C 38 %
3472 18-11-2019 01:39:17 3.3 C 38 %
3473 18-11-2019 01:49:17 3.4 C 39 %
3474 18-11-2019 01:59:17 3.4 C 39 %
3475 18-11-2019 02:09:17 3.4 C 40 %
Sensor: Nr:Datum:Temp:Feuchte:
Aussen-T/F 3476 18-11-2019 02:19:17 3.3 C 40 %
3477 18-11-2019 02:29:17 3.4 C 40 %
3478 18-11-2019 02:39:17 3.4 C 40 %
3479 18-11-2019 02:49:17 3.4 C 40 %
3480 18-11-2019 02:59:17 3.3 C 40 %
3481 18-11-2019 03:09:17 3.3 C 40 %
3482 18-11-2019 03:19:17 3.4 C 41 %
3483 18-11-2019 03:29:17 3.4 C 41 %
3484 18-11-2019 03:39:17 3.3 C 40 %
3485 18-11-2019 03:49:17 3.4 C 40 %
3486 18-11-2019 03:59:17 3.4 C 40 %
3487 18-11-2019 04:09:17 3.4 C 40 %
3488 18-11-2019 04:19:17 3.3 C 40 %
3489 18-11-2019 04:29:17 3.4 C 40 %
3490 18-11-2019 04:39:18 3.3 C 40 %
3491 18-11-2019 04:49:17 3.3 C 40 %
3492 18-11-2019 04:59:17 3.3 C 40 %
3493 18-11-2019 05:09:17 3.4 C 40 %
3494 18-11-2019 05:19:18 3.3 C 40 %
3495 18-11-2019 05:29:18 3.3 C 40 %
3496 18-11-2019 05:39:17 3.3 C 41 %
3497 18-11-2019 05:49:17 3.3 C 40 %
3498 18-11-2019 05:59:17 3.3 C 41 %
3499 18-11-2019 06:09:17 3.3 C 41 %
3500 18-11-2019 06:19:17 3.3 C 41 %
Sensor: Nr:Datum:Temp:Feuchte:
Aussen-T/F 3501 18-11-2019 06:29:17 3.2 C 41 %
3502 18-11-2019 06:39:17 3.2 C 41 %
3503 18-11-2019 06:49:17 3.2 C 41 %
3504 18-11-2019 06:59:17 3.2 C 41 %
3505 18-11-2019 07:09:17 3.2 C 41 %
3506 18-11-2019 07:19:18 3.2 C 41 %
3507 18-11-2019 07:29:18 3.2 C 41 %
3508 18-11-2019 07:39:18 3.3 C 41 %
3509 18-11-2019 07:49:17 3.3 C 41 %
3510 18-11-2019 07:59:17 3.3 C 41 %
3511 18-11-2019 08:09:17 3.3 C 41 %
3512 18-11-2019 08:19:17 3.3 C 41 %
3513 18-11-2019 08:29:17 3.4 C 41 %
3514 18-11-2019 08:39:18 3.4 C 41 %
3515 18-11-2019 08:49:18 3.4 C 41 %
3516 18-11-2019 08:59:18 3.4 C 41 %
3517 18-11-2019 09:09:17 3.5 C 41 %
3518 18-11-2019 09:19:17 3.6 C 41 %
3519 18-11-2019 09:29:17 3.6 C 40 %
3520 18-11-2019 09:39:17 3.7 C 40 %
3521 18-11-2019 09:49:17 3.9 C 38 %
3522 18-11-2019 09:59:17 4.1 C 37 %
3523 18-11-2019 10:09:17 4.1 C 35 %
3524 18-11-2019 10:19:31 4.2 C 35 %
3525 18-11-2019 10:29:31 4.1 C 35 %
Sensor: Nr:Datum:Temp:Feuchte:
Aussen-T/F 3526 18-11-2019 10:39:17 4.1 C 35 %
3527 18-11-2019 10:49:17 4.2 C 36 %
3528 18-11-2019 10:59:17 4.1 C 35 %
3529 18-11-2019 11:09:17 4.1 C 35 %
3530 18-11-2019 11:19:17 4.2 C 35 %
3531 18-11-2019 11:29:17 4.3 C 34 %
3532 18-11-2019 11:39:17 4.4 C 34 %
3533 18-11-2019 11:49:17 4.7 C 33 %
3534 18-11-2019 11:59:17 5 C 29 %
3535 18-11-2019 12:09:17 4.9 C 30 %
3536 18-11-2019 12:19:17 5 C 28 %
3537 18-11-2019 12:29:17 4.8 C 30 %
3538 18-11-2019 12:39:17 4.8 C 30 %
3539 18-11-2019 12:49:17 4.8 C 30 %
3540 18-11-2019 12:59:17 4.8 C 30 %
3541 18-11-2019 13:09:17 4.7 C 30 %
3542 18-11-2019 13:19:17 4.7 C 31 %
3543 18-11-2019 13:29:17 4.8 C 30 %
3544 18-11-2019 13:39:17 4.8 C 30 %
3545 18-11-2019 13:49:17 4.8 C 29 %
3546 18-11-2019 13:59:17 4.8 C 30 %
3547 18-11-2019 14:09:17 4.8 C 28 %
3548 18-11-2019 14:19:17 4.8 C 30 %
3549 18-11-2019 14:29:17 4.8 C 30 %
3550 18-11-2019 14:39:17 4.8 C 30 %
Sensor: Nr:Datum:Temp:Feuchte:
Aussen-T/F 3551 18-11-2019 14:49:17 4.6 C 30 %
3552 18-11-2019 14:59:17 4.5 C 30 %
3553 18-11-2019 15:09:17 4.5 C 31 %
3554 18-11-2019 15:19:18 4.5 C 31 %
3555 18-11-2019 15:29:18 4.5 C 30 %
3556 18-11-2019 15:39:17 4.5 C 30 %
3557 18-11-2019 15:49:17 4.4 C 30 %
3558 18-11-2019 15:59:17 4.3 C 30 %
3559 18-11-2019 16:09:17 4.2 C 31 %
3560 18-11-2019 16:19:17 4.1 C 31 %
3561 18-11-2019 16:29:17 4.1 C 30 %
3562 18-11-2019 16:39:17 4.1 C 31 %
3563 18-11-2019 16:49:17 4.1 C 32 %
3564 18-11-2019 16:59:17 4.1 C 30 %
3565 18-11-2019 17:09:17 4.1 C 30 %
3566 18-11-2019 17:19:17 4.1 C 30 %
3567 18-11-2019 17:29:17 4 C 31 %
3568 18-11-2019 17:39:17 4 C 31 %
3569 18-11-2019 17:49:17 4 C 31 %
3570 18-11-2019 17:59:17 3.9 C 33 %
3571 18-11-2019 18:09:17 3.9 C 34 %
3572 18-11-2019 18:19:17 3.8 C 34 %
3573 18-11-2019 18:29:17 3.8 C 35 %
3574 18-11-2019 18:39:17 3.7 C 34 %
3575 18-11-2019 18:49:17 3.5 C 36 %
Sensor: Nr:Datum:Temp:Feuchte:
Aussen-T/F 3576 18-11-2019 18:59:17 3.5 C 35 %
3577 18-11-2019 19:09:17 3.3 C 34 %
3578 18-11-2019 19:19:17 3.2 C 34 %
3579 18-11-2019 19:29:17 3 C 36 %
3580 18-11-2019 19:39:17 2.9 C 36 %
3581 18-11-2019 19:49:17 2.7 C 36 %
3582 18-11-2019 19:59:17 2.7 C 36 %
3583 18-11-2019 20:09:17 2.4 C 36 %
3584 18-11-2019 20:19:17 2.3 C 37 %
3585 18-11-2019 20:29:17 2.2 C 36 %
3586 18-11-2019 20:39:17 2 C 37 %
3587 18-11-2019 20:49:17 1.9 C 39 %
3588 18-11-2019 20:59:17 1.8 C 38 %
3589 18-11-2019 21:09:17 1.6 C 40 %
3590 18-11-2019 21:19:17 1.5 C 39 %
3591 18-11-2019 21:29:17 1.5 C 40 %
3592 18-11-2019 21:39:17 1.5 C 40 %
3593 18-11-2019 21:49:17 1.6 C 40 %
3594 18-11-2019 21:59:17 1.8 C 40 %
3595 18-11-2019 22:09:17 2 C 38 %
3596 18-11-2019 22:19:17 2 C 38 %
3597 18-11-2019 22:29:17 2.2 C 36 %
3598 18-11-2019 22:39:17 2.2 C 36 %
3599 18-11-2019 22:49:17 2.2 C 36 %
3600 18-11-2019 22:59:17 2.2 C 36 %
Sensor: Nr:Datum:Temp:Feuchte:
Aussen-T/F 3601 18-11-2019 23:09:17 2.2 C 36 %
3602 18-11-2019 23:19:17 2.4 C 36 %
3603 18-11-2019 23:29:17 2.6 C 36 %
3604 18-11-2019 23:39:17 2.7 C 35 %
3605 18-11-2019 23:49:17 2.7 C 35 %
3606 18-11-2019 23:59:17 2.8 C 36 %
3607 19-11-2019 00:09:17 2.9 C 36 %
3608 19-11-2019 00:19:17 2.9 C 36 %
3609 19-11-2019 00:29:17 3 C 36 %
3610 19-11-2019 00:39:17 3 C 35 %
3611 19-11-2019 00:49:18 3 C 35 %
3612 19-11-2019 00:59:18 3 C 36 %
3613 19-11-2019 01:09:17 3.2 C 36 %
3614 19-11-2019 01:19:17 3.2 C 36 %
3615 19-11-2019 01:29:17 3.2 C 36 %
3616 19-11-2019 01:39:18 3.3 C 37 %
3617 19-11-2019 01:49:18 3.4 C 36 %
3618 19-11-2019 01:59:18 3.3 C 36 %
3619 19-11-2019 02:09:18 3.3 C 36 %
3620 19-11-2019 02:19:17 3.4 C 36 %
3621 19-11-2019 02:29:17 3.3 C 36 %
3622 19-11-2019 02:39:17 3.4 C 37 %
3623 19-11-2019 02:49:17 3.3 C 37 %
3624 19-11-2019 02:59:17 3.3 C 38 %
3625 19-11-2019 03:09:17 3.3 C 40 %
Sensor: Nr:Datum:Temp:Feuchte:
Aussen-T/F 3626 19-11-2019 03:19:17 3.4 C 39 %
3627 19-11-2019 03:29:17 3.4 C 39 %
3628 19-11-2019 03:39:17 3.5 C 37 %
3629 19-11-2019 03:49:17 3.5 C 37 %
3630 19-11-2019 03:59:17 3.5 C 38 %
3631 19-11-2019 04:09:17 3.6 C 37 %
3632 19-11-2019 04:19:18 3.6 C 36 %
3633 19-11-2019 04:29:18 3.5 C 36 %
3634 19-11-2019 04:39:17 3.5 C 37 %
3635 19-11-2019 04:49:17 3.4 C 37 %
3636 19-11-2019 04:59:17 3.1 C 39 %
3637 19-11-2019 05:09:17 2.5 C 40 %
3638 19-11-2019 05:19:18 2.3 C 41 %
3639 19-11-2019 05:29:18 2 C 42 %
3640 19-11-2019 05:39:17 1.6 C 43 %
3641 19-11-2019 05:49:17 1.5 C 43 %
3642 19-11-2019 05:59:17 1.8 C 44 %
3643 19-11-2019 06:09:17 1.8 C 44 %
3644 19-11-2019 06:19:17 1.7 C 43 %
3645 19-11-2019 06:29:17 1.7 C 43 %
3646 19-11-2019 06:39:17 1.8 C 43 %
3647 19-11-2019 06:49:17 2 C 42 %
3648 19-11-2019 06:59:17 2.1 C 42 %
3649 19-11-2019 07:09:17 2.4 C 42 %
3650 19-11-2019 07:19:17 2.2 C 42 %
Sensor: Nr:Datum:Temp:Feuchte:
Aussen-T/F 3651 19-11-2019 07:29:17 1.5 C 42 %
3652 19-11-2019 07:39:17 1.3 C 42 %
3653 19-11-2019 07:49:17 1.2 C 42 %
3654 19-11-2019 07:59:17 1.8 C 43 %
3655 19-11-2019 08:09:17 2.1 C 42 %
3656 19-11-2019 08:19:17 2.5 C 42 %
3657 19-11-2019 08:29:17 2.8 C 42 %
3658 19-11-2019 08:39:17 2.5 C 41 %
3659 19-11-2019 08:49:17 2.6 C 41 %
3660 19-11-2019 08:59:17 3.2 C 41 %
3661 19-11-2019 09:09:17 3.3 C 40 %
3662 19-11-2019 09:19:17 3.3 C 39 %
3663 19-11-2019 09:29:17 3.4 C 38 %
3664 19-11-2019 09:39:17 3.3 C 35 %
3665 19-11-2019 09:49:17 3.2 C 35 %
3666 19-11-2019 09:59:17 3.1 C 35 %
3667 19-11-2019 10:09:17 3.1 C 36 %
3668 19-11-2019 10:19:17 3.2 C 36 %
3669 19-11-2019 10:29:17 3.3 C 37 %
3670 19-11-2019 10:39:17 3.2 C 38 %
3671 19-11-2019 10:49:17 3.3 C 38 %
3672 19-11-2019 10:59:17 3.4 C 38 %
3673 19-11-2019 11:09:17 3.5 C 38 %
3674 19-11-2019 11:19:17 3.5 C 38 %
3675 19-11-2019 11:29:17 4.2 C 33 %
Sensor: Nr:Datum:Temp:Feuchte:
Aussen-T/F 3676 19-11-2019 11:39:17 5 C 30 %
3677 19-11-2019 11:49:17 5.5 C 23 %
3678 19-11-2019 11:59:17 5.5 C 23 %
3679 19-11-2019 12:09:17 5.5 C 23 %
3680 19-11-2019 12:19:17 6.2 C 20 %
3681 19-11-2019 12:29:17 6.3 C 20 %
3682 19-11-2019 12:39:17 5.5 C 20 %
3683 19-11-2019 12:49:17 5.6 C 20 %
3684 19-11-2019 12:59:17 5.7 C 20 %
3685 19-11-2019 13:09:17 5.8 C 20 %
3686 19-11-2019 13:19:17 5.7 C 20 %
3687 19-11-2019 13:29:17 5.8 C 20 %
3688 19-11-2019 13:39:17 5.7 C 20 %
3689 19-11-2019 13:49:17 6 C 20 %
3690 19-11-2019 13:59:17 6.3 C 20 %
3691 19-11-2019 14:09:17 6.2 C 20 %
3692 19-11-2019 14:19:17 6.2 C 20 %
3693 19-11-2019 14:29:17 6 C 20 %
3694 19-11-2019 14:39:17 5.9 C 20 %
3695 19-11-2019 14:49:17 5.8 C 20 %
3696 19-11-2019 14:59:17 5.9 C 25 %
3697 19-11-2019 15:09:17 5.8 C 23 %
3698 19-11-2019 15:19:18 5.6 C 28 %
3699 19-11-2019 15:29:18 5.4 C 30 %
3700 19-11-2019 15:39:17 5.1 C 32 %
Sensor: Nr:Datum:Temp:Feuchte:
Aussen-T/F 3701 19-11-2019 15:49:17 4.9 C 30 %
3702 19-11-2019 15:59:17 4.8 C 32 %
3703 19-11-2019 16:09:17 4.7 C 35 %
3704 19-11-2019 16:19:17 4.5 C 36 %
3705 19-11-2019 16:29:17 4.4 C 35 %
3706 19-11-2019 16:39:17 4.4 C 35 %
3707 19-11-2019 16:49:17 3.8 C 38 %
3708 19-11-2019 16:59:17 3.5 C 39 %
3709 19-11-2019 17:09:17 3.3 C 40 %
3710 19-11-2019 17:19:17 3.2 C 41 %
3711 19-11-2019 17:29:17 2.9 C 41 %
3712 19-11-2019 17:39:17 2.8 C 42 %
3713 19-11-2019 17:49:17 2.7 C 42 %
3714 19-11-2019 17:59:17 2.7 C 42 %
3715 19-11-2019 18:09:17 2.4 C 42 %
3716 19-11-2019 18:19:17 2.2 C 42 %
3717 19-11-2019 18:29:17 2.3 C 42 %
3718 19-11-2019 18:39:17 2.5 C 42 %
3719 19-11-2019 18:49:17 2.6 C 42 %
3720 19-11-2019 18:59:17 2 C 41 %
3721 19-11-2019 19:09:17 1.4 C 41 %
3722 19-11-2019 19:19:17 1.4 C 42 %
3723 19-11-2019 19:29:17 1.5 C 42 %
3724 19-11-2019 19:39:17 1.2 C 42 %
3725 19-11-2019 19:49:17 1 C 42 %
Sensor: Nr:Datum:Temp:Feuchte:
Aussen-T/F 3726 19-11-2019 19:59:17 0.6 C 43 %
3727 19-11-2019 20:09:17 0.9 C 44 %
3728 19-11-2019 20:19:17 1.5 C 43 %
3729 19-11-2019 20:29:17 1.8 C 43 %
3730 19-11-2019 20:39:17 1.9 C 43 %
3731 19-11-2019 20:49:17 1.9 C 43 %
3732 19-11-2019 20:59:17 1.9 C 43 %
3733 19-11-2019 21:09:17 1.9 C 43 %
3734 19-11-2019 21:19:17 1.9 C 43 %
3735 19-11-2019 21:29:17 1.9 C 42 %
3736 19-11-2019 21:39:17 2 C 41 %
3737 19-11-2019 21:49:17 2 C 41 %
3738 19-11-2019 21:59:17 1.9 C 42 %
3739 19-11-2019 22:09:17 1.7 C 42 %
3740 19-11-2019 22:19:17 1.5 C 41 %
3741 19-11-2019 22:29:17 1.4 C 41 %
3742 19-11-2019 22:39:17 1.1 C 41 %
3743 19-11-2019 22:49:17 0.6 C 41 %
3744 19-11-2019 22:59:17 0.6 C 42 %
3745 19-11-2019 23:09:17 -0.1 C 42 %
3746 19-11-2019 23:19:17 -0.2 C 42 %
3747 19-11-2019 23:29:17 -0.4 C 42 %
3748 19-11-2019 23:39:17 -0.5 C 42 %
3749 19-11-2019 23:49:17 -0.5 C 42 %
3750 19-11-2019 23:59:17 -0.6 C 42 %
Sensor: Nr:Datum:Temp:Feuchte:
Aussen-T/F 3751 20-11-2019 00:09:17 -0.7 C 42 %
3752 20-11-2019 00:19:17 -0.6 C 42 %
3753 20-11-2019 00:29:17 -0.5 C 42 %
3754 20-11-2019 00:39:17 -0.7 C 42 %
3755 20-11-2019 00:49:17 -0.7 C 43 %
3756 20-11-2019 00:59:17 -0.8 C 42 %
3757 20-11-2019 01:09:17 -0.8 C 42 %
3758 20-11-2019 01:19:17 -1.1 C 42 %
3759 20-11-2019 01:29:17 -1.1 C 42 %
3760 20-11-2019 01:39:17 -0.7 C 43 %
3761 20-11-2019 01:49:17 -0.6 C 43 %
3762 20-11-2019 01:59:17 -0.5 C 43 %
3763 20-11-2019 02:09:17 -0.4 C 43 %
3764 20-11-2019 02:19:17 -0.4 C 43 %
3765 20-11-2019 02:29:17 -0.5 C 43 %
3766 20-11-2019 02:39:17 -0.5 C 43 %
3767 20-11-2019 02:49:17 -0.4 C 43 %
3768 20-11-2019 02:59:17 -0.4 C 43 %
3769 20-11-2019 03:09:17 -0.3 C 43 %
3770 20-11-2019 03:19:17 -0.3 C 43 %
3771 20-11-2019 03:29:17 -0.4 C 43 %
3772 20-11-2019 03:39:17 -0.5 C 43 %
3773 20-11-2019 03:49:17 -0.5 C 43 %
3774 20-11-2019 03:59:17 -0.7 C 43 %
3775 20-11-2019 04:09:17 -0.6 C 43 %
Sensor: Nr:Datum:Temp:Feuchte:
Aussen-T/F 3776 20-11-2019 04:19:17 -0.5 C 43 %
3777 20-11-2019 04:29:17 -0.6 C 42 %
3778 20-11-2019 04:39:17 -0.5 C 42 %
3779 20-11-2019 04:49:17 -0.5 C 42 %
3780 20-11-2019 04:59:17 -0.4 C 42 %
3781 20-11-2019 05:09:17 -0.3 C 42 %
3782 20-11-2019 05:19:17 -0.3 C 42 %
3783 20-11-2019 05:29:17 -0.3 C 42 %
3784 20-11-2019 05:39:17 -0.3 C 42 %
3785 20-11-2019 05:49:17 -0.3 C 42 %
3786 20-11-2019 05:59:17 -0.2 C 42 %
3787 20-11-2019 06:09:17 -0.1 C 42 %
3788 20-11-2019 06:19:17 -0.1 C 42 %
3789 20-11-2019 06:29:17 0 C 42 %
3790 20-11-2019 06:39:17 0 C 42 %
3791 20-11-2019 06:49:17 0 C 42 %
3792 20-11-2019 06:59:17 0.2 C 42 %
3793 20-11-2019 07:09:17 0.2 C 42 %
3794 20-11-2019 07:19:17 0.2 C 42 %
3795 20-11-2019 07:29:17 0.4 C 42 %
3796 20-11-2019 07:39:18 0.3 C 42 %
3797 20-11-2019 07:49:17 0.4 C 42 %
3798 20-11-2019 07:59:17 0.4 C 42 %
3799 20-11-2019 08:09:17 0.4 C 42 %
3800 20-11-2019 08:19:17 0.5 C 42 %
Sensor: Nr:Datum:Temp:Feuchte:
Aussen-T/F 3801 20-11-2019 08:29:17 0.6 C 42 %
3802 20-11-2019 08:39:17 0.7 C 43 %
3803 20-11-2019 08:49:17 0.8 C 43 %
3804 20-11-2019 08:59:17 0.9 C 43 %
3805 20-11-2019 09:09:17 1.1 C 42 %
3806 20-11-2019 09:19:17 1 C 42 %
3807 20-11-2019 09:29:17 1.2 C 42 %
3808 20-11-2019 09:39:17 1.6 C 42 %
3809 20-11-2019 09:49:17 1.7 C 42 %
3810 20-11-2019 09:59:17 2 C 41 %
3811 20-11-2019 10:09:17 2.1 C 41 %
3812 20-11-2019 10:19:17 2.4 C 41 %
3813 20-11-2019 10:29:17 2.9 C 41 %
3814 20-11-2019 10:39:17 3 C 39 %
3815 20-11-2019 10:49:17 2.6 C 39 %
3816 20-11-2019 10:59:17 2.5 C 38 %
3817 20-11-2019 11:09:17 2.6 C 38 %
3818 20-11-2019 11:19:17 3.3 C 38 %
3819 20-11-2019 11:29:17 3.3 C 37 %
3820 20-11-2019 11:39:17 3 C 35 %
3821 20-11-2019 11:49:17 3.7 C 35 %
3822 20-11-2019 11:59:17 4.3 C 31 %
3823 20-11-2019 12:09:17 3.9 C 30 %
3824 20-11-2019 12:19:17 4.3 C 30 %
3825 20-11-2019 12:29:17 4.5 C 30 %
Sensor: Nr:Datum:Temp:Feuchte:
Aussen-T/F 3826 20-11-2019 12:39:17 4.5 C 27 %
3827 20-11-2019 12:49:17 4.6 C 26 %
3828 20-11-2019 12:59:17 4.5 C 26 %
3829 20-11-2019 13:09:17 4.7 C 25 %
3830 20-11-2019 13:19:17 4.5 C 23 %
3831 20-11-2019 13:29:17 4.4 C 23 %
3832 20-11-2019 13:39:17 4.7 C 20 %
3833 20-11-2019 13:49:17 5.1 C 20 %
3834 20-11-2019 13:59:17 4.8 C 20 %
3835 20-11-2019 14:09:17 4.8 C 20 %
3836 20-11-2019 14:19:17 4.8 C 20 %
3837 20-11-2019 14:29:17 4.7 C 20 %
3838 20-11-2019 14:39:17 4.7 C 20 %
3839 20-11-2019 14:49:17 4.7 C 20 %
3840 20-11-2019 14:59:17 4.7 C 20 %
3841 20-11-2019 15:09:17 4.7 C 20 %
3842 20-11-2019 15:19:17 4.7 C 20 %
3843 20-11-2019 15:29:17 4.6 C 20 %
3844 20-11-2019 15:39:17 4.5 C 20 %
3845 20-11-2019 15:49:17 4.3 C 21 %
3846 20-11-2019 15:59:17 3.4 C 26 %
3847 20-11-2019 16:09:17 2.7 C 28 %
3848 20-11-2019 16:19:17 2.2 C 29 %
3849 20-11-2019 16:29:17 1.8 C 30 %
3850 20-11-2019 16:39:17 1.8 C 30 %
Sensor: Nr:Datum:Temp:Feuchte:
Aussen-T/F 3851 20-11-2019 16:49:17 1.5 C 32 %
3852 20-11-2019 16:59:17 1.5 C 32 %
3853 20-11-2019 17:09:17 1.7 C 32 %
3854 20-11-2019 17:19:17 1.8 C 34 %
3855 20-11-2019 17:29:17 1.7 C 35 %
3856 20-11-2019 17:39:17 0.9 C 35 %
3857 20-11-2019 17:49:17 0.5 C 38 %
3858 20-11-2019 17:59:17 0.6 C 40 %
3859 20-11-2019 18:09:17 0.3 C 40 %
3860 20-11-2019 18:19:17 0.2 C 41 %
3861 20-11-2019 18:29:17 0.1 C 40 %
3862 20-11-2019 18:39:17 0 C 41 %
3863 20-11-2019 18:49:17 -0.2 C 41 %
3864 20-11-2019 18:59:17 -0.7 C 41 %
3865 20-11-2019 19:09:17 -0.9 C 41 %
3866 20-11-2019 19:19:17 -1.1 C 41 %
3867 20-11-2019 19:29:17 -1.2 C 41 %
3868 20-11-2019 19:39:18 -1.2 C 42 %
3869 20-11-2019 19:49:18 -1.4 C 42 %
3870 20-11-2019 19:59:18 -1.5 C 42 %
3871 20-11-2019 20:09:18 -1.6 C 42 %
3872 20-11-2019 20:19:17 -1.7 C 42 %
3873 20-11-2019 20:29:17 -1.4 C 43 %
3874 20-11-2019 20:39:17 -1.4 C 43 %
3875 20-11-2019 20:59:17 -1.7 C 43 %
Sensor: Nr:Datum:Temp:Feuchte:
Aussen-T/F 3876 20-11-2019 20:59:17 -1.8 C 43 %
3877 20-11-2019 21:09:17 -1.8 C 42 %
3878 20-11-2019 21:19:17 -2 C 42 %
3879 20-11-2019 21:29:17 -2.1 C 42 %
3880 20-11-2019 21:39:17 -2.1 C 42 %
3881 20-11-2019 21:49:17 -2.3 C 42 %
3882 20-11-2019 21:59:17 -2.1 C 42 %
3883 20-11-2019 22:09:17 -2 C 43 %
3884 20-11-2019 22:19:17 -2.1 C 42 %
3885 20-11-2019 22:29:17 -2.2 C 42 %
3886 20-11-2019 22:39:17 -2.1 C 42 %
3887 20-11-2019 22:49:17 -1.8 C 43 %
3888 20-11-2019 22:59:17 -1.7 C 43 %
3889 20-11-2019 23:09:17 -1.6 C 43 %
3890 20-11-2019 23:19:17 -1.4 C 43 %
3891 20-11-2019 23:29:17 -1.6 C 43 %
3892 20-11-2019 23:39:17 -1.3 C 43 %
3893 20-11-2019 23:49:17 -1.1 C 43 %
3894 20-11-2019 23:59:17 -1.1 C 43 %
3895 21-11-2019 00:09:17 -1.3 C 43 %
3896 21-11-2019 00:29:17 -1.8 C 42 %
3897 21-11-2019 00:30:17 -1.9 C 42 %
3898 21-11-2019 00:39:17 -2 C 41 %
3899 21-11-2019 00:50:17 -2.1 C 41 %
3900 21-11-2019 01:00:17 -2.4 C 41 %
Sensor: Nr:Datum:Temp:Feuchte:
Aussen-T/F 3901 21-11-2019 01:10:17 -2.4 C 41 %
3902 21-11-2019 01:20:17 -2.5 C 41 %
3903 21-11-2019 01:30:17 -2.3 C 41 %
3904 21-11-2019 01:40:17 -2.7 C 40 %
3905 21-11-2019 01:50:17 -2.6 C 41 %
3906 21-11-2019 02:00:17 -2.6 C 40 %
3907 21-11-2019 02:10:17 -2.7 C 40 %
3908 21-11-2019 02:20:17 -2.2 C 42 %
3909 21-11-2019 02:30:17 -2.3 C 42 %
3910 21-11-2019 02:40:17 -1.9 C 42 %
3911 21-11-2019 02:50:17 -2.1 C 42 %
3912 21-11-2019 03:00:17 -2.2 C 41 %
3913 21-11-2019 03:10:17 -2.4 C 41 %
3914 21-11-2019 03:20:17 -2.3 C 41 %
3915 21-11-2019 03:30:17 -2.1 C 42 %
3916 21-11-2019 03:40:17 -1.8 C 42 %
3917 21-11-2019 03:50:17 -1.6 C 42 %
3918 21-11-2019 04:00:17 -1.5 C 42 %
3919 21-11-2019 04:10:17 -1.3 C 43 %
3920 21-11-2019 04:20:17 -1.1 C 43 %
3921 21-11-2019 04:30:17 -1 C 43 %
3922 21-11-2019 04:40:17 -1 C 43 %
3923 21-11-2019 04:50:17 -1 C 43 %
3924 21-11-2019 05:00:17 -1 C 43 %
3925 21-11-2019 05:10:17 -0.7 C 43 %
Sensor: Nr:Datum:Temp:Feuchte:
Aussen-T/F 3926 21-11-2019 05:20:17 -0.6 C 43 %
3927 21-11-2019 05:30:17 -0.6 C 43 %
3928 21-11-2019 05:40:17 -0.5 C 43 %
3929 21-11-2019 05:50:17 -0.4 C 43 %
3930 21-11-2019 06:00:17 -0.3 C 43 %
3931 21-11-2019 06:10:17 -0.3 C 43 %
3932 21-11-2019 06:20:17 -0.3 C 43 %
3933 21-11-2019 06:30:17 -0.3 C 43 %
3934 21-11-2019 06:40:17 -0.3 C 43 %
3935 21-11-2019 06:50:17 -0.2 C 43 %
3936 21-11-2019 07:00:17 -0.2 C 43 %
3937 21-11-2019 07:10:17 -0.2 C 43 %
3938 21-11-2019 07:20:17 -0.1 C 43 %
3939 21-11-2019 07:30:17 -0.2 C 43 %
3940 21-11-2019 07:40:17 -0.2 C 43 %
3941 21-11-2019 07:50:17 -0.1 C 43 %
3942 21-11-2019 08:00:17 -0.1 C 43 %
3943 21-11-2019 08:10:17 0 C 43 %
3944 21-11-2019 08:20:17 0 C 43 %
3945 21-11-2019 08:30:17 0.1 C 43 %
3946 21-11-2019 08:40:17 0.2 C 43 %
3947 21-11-2019 08:50:17 0.2 C 43 %
3948 21-11-2019 09:00:17 0.2 C 43 %
3949 21-11-2019 09:10:17 0.3 C 43 %
3950 21-11-2019 09:20:17 0.4 C 43 %
Sensor: Nr:Datum:Temp:Feuchte:
Aussen-T/F 3951 21-11-2019 09:30:17 0.6 C 43 %
3952 21-11-2019 09:40:17 0.8 C 43 %
3953 21-11-2019 09:50:17 1.1 C 42 %
3954 21-11-2019 10:00:17 1.1 C 41 %
3955 21-11-2019 10:10:17 1.2 C 40 %
3956 21-11-2019 10:20:17 1.6 C 40 %
3957 21-11-2019 10:30:17 1.5 C 39 %
3958 21-11-2019 10:40:17 1.5 C 39 %
3959 21-11-2019 10:50:17 1.7 C 38 %
3960 21-11-2019 11:00:17 2.1 C 37 %
3961 21-11-2019 11:10:17 2.2 C 37 %
3962 21-11-2019 11:20:17 2.3 C 34 %
3963 21-11-2019 11:30:17 2.5 C 33 %
3964 21-11-2019 11:40:17 2.7 C 33 %
3965 21-11-2019 11:50:17 3 C 32 %
3966 21-11-2019 12:00:17 2.8 C 32 %
3967 21-11-2019 12:10:17 2.5 C 33 %
3968 21-11-2019 12:20:17 2.6 C 34 %
3969 21-11-2019 12:30:18 2.8 C 35 %
3970 21-11-2019 12:40:18 3.1 C 35 %
3971 21-11-2019 12:50:18 3.3 C 34 %
3972 21-11-2019 13:00:17 3.1 C 31 %
3973 21-11-2019 13:10:17 3.7 C 34 %
3974 21-11-2019 13:20:17 3.9 C 31 %
3975 21-11-2019 13:30:17 4.1 C 32 %
Sensor: Nr:Datum:Temp:Feuchte:
Aussen-T/F 3976 21-11-2019 13:40:17 4 C 31 %
3977 21-11-2019 13:50:17 3.9 C 32 %
3978 21-11-2019 14:00:17 3.9 C 31 %
3979 21-11-2019 14:10:17 3.9 C 30 %
3980 21-11-2019 14:20:17 4.2 C 31 %
3981 21-11-2019 14:30:17 4.4 C 31 %
3982 21-11-2019 14:40:17 4.4 C 30 %
3983 21-11-2019 14:50:17 4.1 C 29 %
3984 21-11-2019 15:00:17 4.1 C 30 %
3985 21-11-2019 15:10:17 4.2 C 29 %
3986 21-11-2019 15:20:17 4.4 C 30 %
3987 21-11-2019 15:30:17 4.3 C 30 %
3988 21-11-2019 15:40:17 4.2 C 29 %
3989 21-11-2019 15:50:17 4.3 C 30 %
3990 21-11-2019 16:00:17 4.3 C 30 %
3991 21-11-2019 16:10:17 4.2 C 31 %
3992 21-11-2019 16:20:17 4 C 33 %
3993 21-11-2019 16:30:17 3.9 C 36 %
3994 21-11-2019 16:40:17 3.7 C 37 %
3995 21-11-2019 16:50:17 3.7 C 39 %
3996 21-11-2019 17:00:17 3.6 C 39 %
3997 21-11-2019 17:10:17 3.6 C 38 %
3998 21-11-2019 17:20:17 3.5 C 39 %
3999 21-11-2019 17:30:17 3.4 C 39 %
4000 21-11-2019 17:40:17 3.4 C 39 %
Sensor: Nr:Datum:Temp:Feuchte:
Aussen-T/F 4001 21-11-2019 17:50:17 3.3 C 39 %
4002 21-11-2019 18:00:17 3.3 C 39 %
4003 21-11-2019 18:10:17 3.3 C 39 %
4004 21-11-2019 18:20:17 3.3 C 38 %
4005 21-11-2019 18:30:17 3.3 C 39 %
4006 21-11-2019 18:40:17 3.4 C 39 %
4007 21-11-2019 18:50:17 3.3 C 40 %
4008 21-11-2019 19:00:17 3.3 C 40 %
4009 21-11-2019 19:10:17 3.2 C 40 %
4010 21-11-2019 19:20:17 3 C 39 %
4011 21-11-2019 19:30:17 3 C 40 %
4012 21-11-2019 19:40:17 3.1 C 41 %
4013 21-11-2019 19:50:17 2.9 C 41 %
4014 21-11-2019 20:00:17 2.5 C 40 %
4015 21-11-2019 20:10:17 2 C 40 %
4016 21-11-2019 20:20:17 1.9 C 42 %
4017 21-11-2019 20:30:17 2.1 C 42 %
4018 21-11-2019 20:40:17 1.6 C 42 %
4019 21-11-2019 20:50:17 1.5 C 42 %
4020 21-11-2019 21:00:17 1.6 C 43 %
4021 21-11-2019 21:10:17 1.6 C 43 %
4022 21-11-2019 21:20:17 1.3 C 43 %
4023 21-11-2019 21:30:17 1.3 C 43 %
4024 21-11-2019 21:40:17 1.5 C 43 %
4025 21-11-2019 21:50:17 1.2 C 43 %
Sensor: Nr:Datum:Temp:Feuchte:
Aussen-T/F 4026 21-11-2019 22:00:17 1 C 42 %
4027 21-11-2019 22:10:17 0.8 C 44 %
4028 21-11-2019 22:20:17 1.2 C 43 %
4029 21-11-2019 22:30:17 0.9 C 44 %
4030 21-11-2019 22:40:17 0.8 C 44 %
4031 21-11-2019 22:50:17 1 C 43 %
4032 21-11-2019 23:00:17 1.1 C 43 %
4033 21-11-2019 23:10:17 1.4 C 43 %
4034 21-11-2019 23:20:17 1 C 43 %
4035 21-11-2019 23:30:17 1 C 43 %
4036 21-11-2019 23:40:17 1.5 C 43 %
4037 21-11-2019 23:50:17 1.5 C 43 %
4038 22-11-2019 00:00:17 1.3 C 43 %
4039 22-11-2019 00:10:17 1.3 C 43 %
4040 22-11-2019 00:20:17 1.3 C 43 %
4041 22-11-2019 00:30:17 1.3 C 43 %
4042 22-11-2019 00:40:17 1 C 42 %
4043 22-11-2019 00:50:17 1.1 C 42 %
4044 22-11-2019 01:00:17 1 C 42 %
4045 22-11-2019 01:10:17 1.2 C 43 %
4046 22-11-2019 01:20:17 0.9 C 43 %
4047 22-11-2019 01:30:17 1 C 42 %
4048 22-11-2019 01:40:17 1 C 42 %
4049 22-11-2019 01:50:17 0.6 C 43 %
4050 22-11-2019 02:00:17 0.4 C 43 %
Sensor: Nr:Datum:Temp:Feuchte:
Aussen-T/F 4051 22-11-2019 02:10:17 0 C 42 %
4052 22-11-2019 02:20:17 1 C 42 %
4053 22-11-2019 02:30:17 0.8 C 44 %
4054 22-11-2019 02:40:17 0.7 C 43 %
4055 22-11-2019 02:50:17 0.5 C 43 %
4056 22-11-2019 03:00:17 0.6 C 43 %
4057 22-11-2019 03:10:17 0.8 C 44 %
4058 22-11-2019 03:20:17 0.8 C 43 %
4059 22-11-2019 03:30:17 0.6 C 43 %
4060 22-11-2019 03:40:17 0.7 C 43 %
4061 22-11-2019 03:50:17 1.1 C 42 %
4062 22-11-2019 04:00:17 1.1 C 42 %
4063 22-11-2019 04:10:17 1.1 C 42 %
4064 22-11-2019 04:20:17 1.2 C 42 %
4065 22-11-2019 04:30:17 1.3 C 42 %
4066 22-11-2019 04:40:17 1.3 C 42 %
4067 22-11-2019 04:50:17 1.2 C 42 %
4068 22-11-2019 05:00:18 1.4 C 42 %
4069 22-11-2019 05:10:18 1.6 C 42 %
4070 22-11-2019 05:20:17 1.9 C 42 %
4071 22-11-2019 05:30:17 2.1 C 41 %
4072 22-11-2019 05:40:17 2.2 C 41 %
4073 22-11-2019 05:50:17 2.6 C 41 %
4074 22-11-2019 06:00:18 2.5 C 41 %
4075 22-11-2019 06:10:18 2.8 C 41 %
Sensor: Nr:Datum:Temp:Feuchte:
Aussen-T/F 4076 22-11-2019 06:20:18 2.6 C 41 %
4077 22-11-2019 06:30:18 2.7 C 41 %
4078 22-11-2019 06:40:18 2.9 C 41 %
4079 22-11-2019 06:50:18 3 C 41 %
4080 22-11-2019 07:00:17 3 C 41 %
4081 22-11-2019 07:10:17 3 C 41 %
4082 22-11-2019 07:20:17 3.1 C 41 %
4083 22-11-2019 07:30:17 3.2 C 41 %
4084 22-11-2019 07:40:17 3.4 C 41 %
4085 22-11-2019 07:50:17 3.4 C 41 %
4086 22-11-2019 08:00:17 3.4 C 41 %
4087 22-11-2019 08:10:17 3.5 C 41 %
4088 22-11-2019 08:20:17 3.7 C 41 %
4089 22-11-2019 08:30:17 3.8 C 41 %
4090 22-11-2019 08:40:17 3.7 C 41 %
4091 22-11-2019 08:50:17 3.7 C 41 %
4092 22-11-2019 09:00:17 3.9 C 41 %
4093 22-11-2019 09:10:17 3.9 C 40 %
4094 22-11-2019 09:20:17 4 C 39 %
4095 22-11-2019 09:30:17 3.8 C 39 %
4096 22-11-2019 09:40:17 3.7 C 39 %
4097 22-11-2019 09:50:17 3.5 C 39 %
4098 22-11-2019 10:00:17 3.3 C 39 %
4099 22-11-2019 10:10:17 3.5 C 40 %
4100 22-11-2019 10:20:17 3.5 C 39 %
Sensor: Nr:Datum:Temp:Feuchte:
Aussen-T/F 4101 22-11-2019 10:30:17 3.6 C 40 %
4102 22-11-2019 10:40:17 4.1 C 39 %
4103 22-11-2019 10:50:17 4.3 C 39 %
4104 22-11-2019 11:00:17 4.2 C 38 %
4105 22-11-2019 11:10:17 4.4 C 38 %
4106 22-11-2019 11:20:17 4.5 C 37 %
4107 22-11-2019 11:30:17 5 C 35 %
4108 22-11-2019 11:40:17 5.3 C 33 %
4109 22-11-2019 11:50:17 5.3 C 32 %
4110 22-11-2019 12:00:17 5.6 C 32 %
4111 22-11-2019 12:10:17 5.5 C 32 %
4112 22-11-2019 12:20:17 5.6 C 32 %
4113 22-11-2019 12:30:17 5.6 C 32 %
4114 22-11-2019 12:40:17 5.8 C 32 %
4115 22-11-2019 12:50:17 5.8 C 31 %
4116 22-11-2019 13:00:17 5.7 C 30 %
4117 22-11-2019 13:10:17 5.9 C 31 %
4118 22-11-2019 13:20:17 6 C 30 %
4119 22-11-2019 13:30:17 5.7 C 29 %
4120 22-11-2019 13:40:17 5.5 C 29 %
4121 22-11-2019 13:50:17 5.5 C 29 %
4122 22-11-2019 14:00:17 5.5 C 29 %
4123 22-11-2019 14:10:17 5.7 C 29 %
4124 22-11-2019 14:20:17 5.7 C 28 %
4125 22-11-2019 14:30:17 5.9 C 28 %
Sensor: Nr:Datum:Temp:Feuchte:
Aussen-T/F 4126 22-11-2019 14:40:17 5.8 C 27 %
4127 22-11-2019 14:50:17 5.8 C 28 %
4128 22-11-2019 15:00:17 5.6 C 28 %
4129 22-11-2019 15:10:17 5.6 C 28 %
4130 22-11-2019 15:20:17 5.6 C 29 %
4131 22-11-2019 15:30:17 5.5 C 28 %
4132 22-11-2019 15:40:17 5.4 C 29 %
4133 22-11-2019 15:50:17 5.4 C 29 %
4134 22-11-2019 16:00:17 5.3 C 29 %
4135 22-11-2019 16:10:17 5.3 C 30 %
4136 22-11-2019 16:20:17 5.2 C 30 %
4137 22-11-2019 16:30:17 5.2 C 30 %
4138 22-11-2019 16:40:17 5.1 C 31 %
4139 22-11-2019 16:50:17 5 C 31 %
4140 22-11-2019 17:00:17 4.9 C 32 %
4141 22-11-2019 17:10:17 4.9 C 33 %
4142 22-11-2019 17:20:17 4.8 C 34 %
4143 22-11-2019 17:30:17 4.9 C 33 %
4144 22-11-2019 17:40:17 4.9 C 32 %
4145 22-11-2019 17:50:17 5 C 31 %
4146 22-11-2019 18:00:17 5 C 30 %
4147 22-11-2019 18:10:17 4.8 C 32 %
4148 22-11-2019 18:20:17 4.7 C 34 %
4149 22-11-2019 18:30:17 4.8 C 33 %
4150 22-11-2019 18:40:17 4.8 C 32 %
Sensor: Nr:Datum:Temp:Feuchte:
Aussen-T/F 4151 22-11-2019 18:50:17 4.8 C 32 %
4152 22-11-2019 19:00:17 4.8 C 31 %
4153 22-11-2019 19:10:17 4.7 C 32 %
4154 22-11-2019 19:20:17 4.8 C 30 %
4155 22-11-2019 19:30:17 4.8 C 30 %
4156 22-11-2019 19:40:17 4.8 C 30 %
4157 22-11-2019 19:50:17 4.7 C 31 %
4158 22-11-2019 20:00:17 4.6 C 31 %
4159 22-11-2019 20:10:17 4.6 C 30 %
4160 22-11-2019 20:20:17 4.6 C 30 %
4161 22-11-2019 20:30:17 4.5 C 30 %
4162 22-11-2019 20:40:17 4.5 C 30 %
4163 22-11-2019 20:50:17 4.3 C 30 %
4164 22-11-2019 21:00:17 4.3 C 30 %
4165 22-11-2019 21:10:17 4.4 C 31 %
4166 22-11-2019 21:20:17 4.3 C 31 %
4167 22-11-2019 21:30:17 4.3 C 31 %
4168 22-11-2019 21:40:17 4.3 C 31 %
4169 22-11-2019 21:50:17 4.3 C 30 %
4170 22-11-2019 22:00:17 4.2 C 31 %
4171 22-11-2019 22:10:17 4.2 C 31 %
4172 22-11-2019 22:20:17 4.2 C 30 %
4173 22-11-2019 22:30:17 4.2 C 30 %
4174 22-11-2019 22:40:17 4.2 C 29 %
4175 22-11-2019 22:50:17 4.1 C 30 %
Sensor: Nr:Datum:Temp:Feuchte:
Aussen-T/F 4176 22-11-2019 23:00:17 4 C 30 %
4177 22-11-2019 23:10:17 4.1 C 28 %
4178 22-11-2019 23:20:17 4 C 30 %
4179 22-11-2019 23:30:17 4 C 30 %
4180 22-11-2019 23:40:17 4 C 30 %
4181 22-11-2019 23:50:17 3.9 C 31 %
4182 23-11-2019 00:00:17 4 C 29 %
4183 23-11-2019 00:10:17 4 C 29 %
4184 23-11-2019 00:20:17 4 C 29 %
4185 23-11-2019 00:30:17 4 C 29 %
4186 23-11-2019 00:40:17 4 C 28 %
4187 23-11-2019 00:50:17 4 C 29 %
4188 23-11-2019 01:00:17 4.1 C 28 %
4189 23-11-2019 01:10:17 4.2 C 27 %
4190 23-11-2019 01:20:17 4.1 C 29 %
4191 23-11-2019 01:30:17 4 C 30 %
4192 23-11-2019 01:40:17 4.1 C 29 %
4193 23-11-2019 01:50:17 4 C 29 %
4194 23-11-2019 02:00:17 4.1 C 27 %
4195 23-11-2019 02:10:17 4.1 C 27 %
4196 23-11-2019 02:20:17 4 C 30 %
4197 23-11-2019 02:30:18 3.8 C 32 %
4198 23-11-2019 02:40:18 3.7 C 32 %
4199 23-11-2019 02:50:17 3.6 C 32 %
4200 23-11-2019 03:00:17 3.6 C 33 %
Sensor: Nr:Datum:Temp:Feuchte:
Aussen-T/F 4201 23-11-2019 03:10:17 3.7 C 32 %
4202 23-11-2019 03:20:17 3.8 C 31 %
4203 23-11-2019 03:30:17 3.7 C 32 %
4204 23-11-2019 03:40:17 3.5 C 33 %
4205 23-11-2019 03:50:17 3.2 C 34 %
4206 23-11-2019 04:00:17 3.2 C 35 %
4207 23-11-2019 04:10:17 3.1 C 38 %
4208 23-11-2019 04:20:17 3.3 C 36 %
4209 23-11-2019 04:30:17 3 C 36 %
4210 23-11-2019 04:40:17 3 C 37 %
4211 23-11-2019 04:50:17 3 C 37 %
4212 23-11-2019 05:00:17 3 C 38 %
4213 23-11-2019 05:10:17 3 C 39 %
4214 23-11-2019 05:20:17 2.7 C 39 %
4215 23-11-2019 05:30:17 2.9 C 40 %
4216 23-11-2019 05:40:17 2.8 C 40 %
4217 23-11-2019 05:50:17 2.9 C 40 %
4218 23-11-2019 06:00:17 3 C 39 %
4219 23-11-2019 06:10:17 3 C 39 %
4220 23-11-2019 06:20:17 3 C 39 %
4221 23-11-2019 06:30:17 3 C 40 %
4222 23-11-2019 06:40:17 3.1 C 40 %
4223 23-11-2019 06:50:17 3 C 40 %
4224 23-11-2019 07:00:17 3.2 C 40 %
4225 23-11-2019 07:10:17 3.2 C 39 %
Sensor: Nr:Datum:Temp:Feuchte:
Aussen-T/F 4226 23-11-2019 07:20:17 3.3 C 40 %
4227 23-11-2019 07:30:17 3.2 C 39 %
4228 23-11-2019 07:40:17 3.3 C 40 %
4229 23-11-2019 07:50:17 3.2 C 40 %
4230 23-11-2019 08:00:17 3.3 C 39 %
4231 23-11-2019 08:10:17 3.3 C 40 %
4232 23-11-2019 08:20:17 3.2 C 40 %
4233 23-11-2019 08:30:17 3.3 C 40 %
4234 23-11-2019 08:40:17 3.4 C 40 %
4235 23-11-2019 08:50:17 3.8 C 37 %
4236 23-11-2019 09:00:17 4.2 C 33 %
4237 23-11-2019 09:10:17 4.3 C 33 %
4238 23-11-2019 09:20:17 4.5 C 33 %
4239 23-11-2019 09:30:17 4.9 C 31 %
4240 23-11-2019 09:40:17 5.1 C 31 %
4241 23-11-2019 09:50:17 5.4 C 27 %
4242 23-11-2019 10:00:17 5.4 C 26 %
4243 23-11-2019 10:10:17 5.7 C 26 %
4244 23-11-2019 10:20:17 6 C 26 %
4245 23-11-2019 10:30:17 6 C 25 %
4246 23-11-2019 10:40:17 6.1 C 26 %
4247 23-11-2019 10:50:17 6.2 C 25 %
4248 23-11-2019 11:00:17 6.4 C 25 %
4249 23-11-2019 11:10:17 6.6 C 25 %
4250 23-11-2019 11:20:17 6.7 C 25 %
Sensor: Nr:Datum:Temp:Feuchte:
Aussen-T/F 4251 23-11-2019 11:30:17 7.1 C 21 %
4252 23-11-2019 11:40:17 7.1 C 23 %
4253 23-11-2019 11:50:17 7 C 25 %
4254 23-11-2019 12:00:17 6.4 C 28 %
4255 23-11-2019 12:10:17 6.4 C 28 %
4256 23-11-2019 12:20:17 6.5 C 27 %
4257 23-11-2019 12:30:17 6.5 C 28 %
4258 23-11-2019 12:40:17 6.5 C 29 %
4259 23-11-2019 12:50:17 7.3 C 25 %
4260 23-11-2019 13:00:17 7.3 C 25 %
4261 23-11-2019 13:10:17 6.7 C 28 %
4262 23-11-2019 13:20:17 6.8 C 29 %
4263 23-11-2019 13:30:17 6.6 C 29 %
4264 23-11-2019 13:40:17 6.6 C 30 %
4265 23-11-2019 13:50:17 6.6 C 30 %
4266 23-11-2019 14:00:17 6.6 C 30 %
4267 23-11-2019 14:10:17 6.8 C 30 %
4268 23-11-2019 14:20:17 7 C 29 %
4269 23-11-2019 14:30:17 7.2 C 27 %
4270 23-11-2019 14:40:17 7.1 C 28 %
4271 23-11-2019 14:50:17 7.2 C 28 %
4272 23-11-2019 15:00:17 7.7 C 26 %
4273 23-11-2019 15:10:17 8.1 C 26 %
4274 23-11-2019 15:20:17 8.4 C 23 %
4275 23-11-2019 15:30:17 8.4 C 25 %
Sensor: Nr:Datum:Temp:Feuchte:
Aussen-T/F 4276 23-11-2019 15:40:17 8.1 C 25 %
4277 23-11-2019 15:50:17 7.5 C 26 %
4278 23-11-2019 16:00:17 7.5 C 26 %
4279 23-11-2019 16:10:17 7.3 C 25 %
4280 23-11-2019 16:20:17 7.3 C 25 %
4281 23-11-2019 16:30:17 6.5 C 28 %
4282 23-11-2019 16:40:17 5.9 C 31 %
4283 23-11-2019 16:50:17 5.7 C 32 %
4284 23-11-2019 17:00:17 5.7 C 32 %
4285 23-11-2019 17:10:17 5.8 C 31 %
4286 23-11-2019 17:20:17 5.6 C 32 %
4287 23-11-2019 17:30:17 5.5 C 33 %
4288 23-11-2019 17:40:17 5.3 C 32 %
4289 23-11-2019 17:50:17 5.3 C 33 %
4290 23-11-2019 18:00:17 5.3 C 33 %
4291 23-11-2019 18:10:17 5 C 34 %
4292 23-11-2019 18:20:17 5.3 C 34 %
4293 23-11-2019 18:30:17 5.3 C 34 %
4294 23-11-2019 18:40:17 5.3 C 34 %
4295 23-11-2019 18:50:17 4.9 C 36 %
4296 23-11-2019 19:00:17 5.1 C 35 %
4297 23-11-2019 19:10:17 5 C 36 %
4298 23-11-2019 19:20:17 5 C 36 %
4299 23-11-2019 19:30:17 5 C 36 %
4300 23-11-2019 19:40:17 4.7 C 36 %
Sensor: Nr:Datum:Temp:Feuchte:
Aussen-T/F 4301 23-11-2019 19:50:17 4.7 C 38 %
4302 23-11-2019 20:00:17 4.5 C 40 %
4303 23-11-2019 20:10:17 4.2 C 39 %
4304 23-11-2019 20:20:17 4.1 C 40 %
4305 23-11-2019 20:30:17 3.6 C 40 %
4306 23-11-2019 20:40:18 3.6 C 40 %
4307 23-11-2019 20:50:17 3.6 C 42 %
4308 23-11-2019 21:00:17 3.6 C 42 %
4309 23-11-2019 21:10:17 3.5 C 42 %
4310 23-11-2019 21:20:17 3.3 C 41 %
4311 23-11-2019 21:30:17 3.2 C 41 %
4312 23-11-2019 21:40:17 3.2 C 42 %
4313 23-11-2019 21:50:17 3.2 C 42 %
4314 23-11-2019 22:00:17 3.1 C 42 %
4315 23-11-2019 22:10:17 2.8 C 42 %
4316 23-11-2019 22:20:17 2.6 C 42 %
4317 23-11-2019 22:30:17 2.7 C 42 %
4318 23-11-2019 22:40:17 2.6 C 42 %
4319 23-11-2019 22:50:17 2.6 C 42 %
4320 23-11-2019 23:00:17 2.5 C 42 %
4321 23-11-2019 23:10:17 2.2 C 42 %
4322 23-11-2019 23:20:17 2.2 C 42 %
4323 23-11-2019 23:30:17 2 C 42 %
4324 23-11-2019 23:40:17 2.1 C 42 %
4325 23-11-2019 23:50:17 2.1 C 42 %
Sensor: Nr:Datum:Temp:Feuchte:
Aussen-T/F 4326 24-11-2019 00:00:17 1.9 C 43 %
4327 24-11-2019 00:10:17 1.7 C 43 %
4328 24-11-2019 00:20:17 1.7 C 43 %
4329 24-11-2019 00:30:17 1.6 C 43 %
4330 24-11-2019 00:40:17 1.4 C 42 %
4331 24-11-2019 00:50:18 1.1 C 42 %
4332 24-11-2019 01:00:18 1.2 C 43 %
4333 24-11-2019 01:10:18 1.4 C 43 %
4334 24-11-2019 01:20:17 1.3 C 43 %
4335 24-11-2019 01:30:17 1.2 C 42 %
4336 24-11-2019 01:40:17 1.2 C 43 %
4337 24-11-2019 01:50:17 1.1 C 43 %
4338 24-11-2019 02:00:17 1.1 C 43 %
4339 24-11-2019 02:10:17 1.1 C 43 %
4340 24-11-2019 02:20:17 1.2 C 43 %
4341 24-11-2019 02:30:17 1 C 42 %
4342 24-11-2019 02:40:17 1.1 C 42 %
4343 24-11-2019 02:50:17 1.1 C 42 %
4344 24-11-2019 03:00:17 0.9 C 44 %
4345 24-11-2019 03:10:17 1.1 C 43 %
4346 24-11-2019 03:20:17 1.2 C 42 %
4347 24-11-2019 03:30:17 1 C 42 %
4348 24-11-2019 03:40:17 0.7 C 43 %
4349 24-11-2019 03:50:17 0.6 C 43 %
4350 24-11-2019 04:00:17 0.5 C 43 %
Sensor: Nr:Datum:Temp:Feuchte:
Aussen-T/F 4351 24-11-2019 04:10:17 0.5 C 43 %
4352 24-11-2019 04:20:17 0.6 C 43 %
4353 24-11-2019 04:30:17 0.5 C 43 %
4354 24-11-2019 04:40:17 0.5 C 43 %
4355 24-11-2019 04:50:17 0.6 C 44 %
4356 24-11-2019 05:00:17 0.6 C 44 %
4357 24-11-2019 05:10:17 0.8 C 44 %
4358 24-11-2019 05:20:17 1 C 42 %
4359 24-11-2019 05:30:17 1.1 C 42 %
4360 24-11-2019 05:40:17 1 C 42 %
4361 24-11-2019 05:50:17 0.6 C 43 %
4362 24-11-2019 06:00:18 0.4 C 43 %
4363 24-11-2019 06:10:18 0.5 C 43 %
4364 24-11-2019 06:20:17 0.5 C 43 %
4365 24-11-2019 06:30:17 0.5 C 43 %
4366 24-11-2019 06:40:17 0.5 C 43 %
4367 24-11-2019 06:50:17 0.3 C 43 %
4368 24-11-2019 07:00:18 0.4 C 43 %
4369 24-11-2019 07:10:18 0.1 C 43 %
4370 24-11-2019 07:20:18 0.1 C 43 %
4371 24-11-2019 07:30:17 0.1 C 43 %
4372 24-11-2019 07:40:17 -0.3 C 43 %
4373 24-11-2019 07:50:18 -0.3 C 43 %
4374 24-11-2019 08:00:18 -0.1 C 43 %
4375 24-11-2019 08:10:18 0.1 C 43 %
Sensor: Nr:Datum:Temp:Feuchte:
Aussen-T/F 4376 24-11-2019 08:20:17 -0.1 C 43 %
4377 24-11-2019 08:30:17 0.3 C 43 %
4378 24-11-2019 08:40:17 0.5 C 43 %
4379 24-11-2019 08:50:17 0.5 C 43 %
4380 24-11-2019 09:00:17 0.6 C 43 %
4381 24-11-2019 09:10:17 0.7 C 43 %
4382 24-11-2019 09:20:17 0.8 C 43 %
4383 24-11-2019 09:30:17 0.8 C 43 %
4384 24-11-2019 09:40:17 1 C 42 %
4385 24-11-2019 09:50:17 1.1 C 42 %
4386 24-11-2019 10:00:17 1.2 C 42 %
4387 24-11-2019 10:10:17 1.5 C 42 %
4388 24-11-2019 10:20:17 1.7 C 42 %
4389 24-11-2019 10:30:17 2 C 42 %
4390 24-11-2019 10:40:17 2.2 C 41 %
4391 24-11-2019 10:50:17 2.7 C 42 %
4392 24-11-2019 11:00:17 2.5 C 41 %
4393 24-11-2019 11:10:17 2.1 C 40 %
4394 24-11-2019 11:20:17 2.2 C 40 %
4395 24-11-2019 11:30:17 2.2 C 40 %
4396 24-11-2019 11:40:17 2.3 C 40 %
4397 24-11-2019 11:50:17 2.5 C 40 %
4398 24-11-2019 12:00:17 2.7 C 41 %
4399 24-11-2019 12:10:17 3 C 40 %
4400 24-11-2019 12:20:17 3.4 C 40 %
Sensor: Nr:Datum:Temp:Feuchte:
Aussen-T/F 4401 24-11-2019 12:30:17 3.8 C 40 %
4402 24-11-2019 12:40:17 4 C 38 %
4403 24-11-2019 12:50:17 4.2 C 38 %
4404 24-11-2019 13:00:17 4.6 C 38 %
4405 24-11-2019 13:10:17 5.1 C 35 %
4406 24-11-2019 13:20:17 5 C 35 %
4407 24-11-2019 13:30:17 5 C 35 %
4408 24-11-2019 13:40:17 4.7 C 35 %
4409 24-11-2019 13:50:17 4.8 C 35 %
4410 24-11-2019 14:00:17 5.1 C 35 %
4411 24-11-2019 14:10:17 5.1 C 35 %
4412 24-11-2019 14:20:17 5 C 35 %
4413 24-11-2019 14:30:17 4.8 C 37 %
4414 24-11-2019 14:40:17 4.6 C 37 %
4415 24-11-2019 14:50:17 4.6 C 39 %
4416 24-11-2019 15:00:17 4.5 C 38 %
4417 24-11-2019 15:10:17 4.7 C 40 %
4418 24-11-2019 15:20:17 4.9 C 39 %
4419 24-11-2019 15:30:17 4.8 C 38 %
4420 24-11-2019 15:40:17 4.7 C 38 %
4421 24-11-2019 15:50:17 4.6 C 38 %
4422 24-11-2019 16:00:17 4.5 C 40 %
4423 24-11-2019 16:10:17 4.2 C 39 %
4424 24-11-2019 16:20:17 3.9 C 40 %
4425 24-11-2019 16:30:17 3.7 C 41 %
Sensor: Nr:Datum:Temp:Feuchte:
Aussen-T/F 4426 24-11-2019 16:40:17 3.5 C 41 %
4427 24-11-2019 16:50:17 3.2 C 41 %
4428 24-11-2019 17:00:17 3 C 41 %
4429 24-11-2019 17:10:17 2.8 C 42 %
4430 24-11-2019 17:20:17 2.7 C 42 %
4431 24-11-2019 17:30:17 2.6 C 42 %
4432 24-11-2019 17:40:17 2.4 C 42 %
4433 24-11-2019 17:50:17 2.6 C 43 %
4434 24-11-2019 18:00:17 2.5 C 42 %
4435 24-11-2019 18:10:17 2.8 C 43 %
4436 24-11-2019 18:20:17 2.6 C 42 %
4437 24-11-2019 18:30:17 2.9 C 43 %
4438 24-11-2019 18:40:17 2.6 C 42 %
4439 24-11-2019 18:50:17 2.7 C 42 %
4440 24-11-2019 19:00:17 2.5 C 42 %
4441 24-11-2019 19:10:17 2.6 C 42 %
4442 24-11-2019 19:20:17 2.6 C 42 %
4443 24-11-2019 19:30:17 2.8 C 42 %
4444 24-11-2019 19:40:17 2.7 C 42 %
4445 24-11-2019 19:50:17 2.7 C 42 %
4446 24-11-2019 20:00:17 2.5 C 42 %
4447 24-11-2019 20:10:17 2.4 C 42 %
4448 24-11-2019 20:20:17 2.1 C 41 %
4449 24-11-2019 20:30:17 2 C 41 %
4450 24-11-2019 20:40:17 2 C 41 %
Sensor: Nr:Datum:Temp:Feuchte:
Aussen-T/F 4451 24-11-2019 20:50:17 2 C 42 %
4452 24-11-2019 21:00:17 1.8 C 42 %
4453 24-11-2019 21:10:17 2.2 C 42 %
4454 24-11-2019 21:20:17 2 C 42 %
4455 24-11-2019 21:30:17 2 C 42 %
4456 24-11-2019 21:40:17 1.8 C 43 %
4457 24-11-2019 21:50:17 1.8 C 43 %
4458 24-11-2019 22:00:17 1.7 C 42 %
4459 24-11-2019 22:10:17 1.3 C 42 %
4460 24-11-2019 22:20:17 1.2 C 42 %
4461 24-11-2019 22:30:17 1.2 C 42 %
4462 24-11-2019 22:40:17 1 C 42 %
4463 24-11-2019 22:50:17 1 C 42 %
4464 24-11-2019 23:00:17 1.2 C 42 %
4465 24-11-2019 23:10:17 1 C 42 %
4466 24-11-2019 23:20:17 1 C 42 %
4467 24-11-2019 23:30:17 0.8 C 43 %
4468 24-11-2019 23:40:17 0.8 C 43 %
4469 24-11-2019 23:50:17 0.9 C 43 %
4470 25-11-2019 00:00:18 0.8 C 43 %
4471 25-11-2019 00:10:18 0.9 C 43 %
4472 25-11-2019 00:20:17 1.2 C 42 %
4473 25-11-2019 00:30:17 1.4 C 42 %
4474 25-11-2019 00:40:17 1.5 C 42 %
4475 25-11-2019 00:50:18 1.5 C 42 %
Sensor: Nr:Datum:Temp:Feuchte:
Aussen-T/F 4476 25-11-2019 01:00:18 1.5 C 42 %
4477 25-11-2019 01:10:18 1.5 C 42 %
4478 25-11-2019 01:20:17 1.6 C 42 %
4479 25-11-2019 01:30:17 1.5 C 42 %
4480 25-11-2019 01:40:17 1.4 C 42 %
4481 25-11-2019 01:50:17 1.3 C 42 %
4482 25-11-2019 02:00:17 1.3 C 42 %
4483 25-11-2019 02:10:17 1.3 C 42 %
4484 25-11-2019 02:20:17 1.2 C 42 %
4485 25-11-2019 02:30:17 1.3 C 42 %
4486 25-11-2019 02:40:17 1.4 C 42 %
4487 25-11-2019 02:50:17 1.5 C 42 %
4488 25-11-2019 03:00:17 1.6 C 42 %
4489 25-11-2019 03:10:17 1.5 C 42 %
4490 25-11-2019 03:20:17 1.5 C 42 %
4491 25-11-2019 03:30:17 1.5 C 42 %
4492 25-11-2019 03:40:17 1.6 C 42 %
4493 25-11-2019 03:50:17 1.7 C 42 %
4494 25-11-2019 04:00:17 1.8 C 42 %
4495 25-11-2019 04:10:17 1.8 C 42 %
4496 25-11-2019 04:20:17 1.9 C 42 %
4497 25-11-2019 04:30:17 2 C 41 %
4498 25-11-2019 04:40:17 2.1 C 41 %
4499 25-11-2019 04:50:17 2.1 C 41 %
4500 25-11-2019 05:00:17 2.2 C 41 %
Sensor: Nr:Datum:Temp:Feuchte:
Aussen-T/F 4501 25-11-2019 05:10:17 2.1 C 41 %
4502 25-11-2019 05:20:17 2.2 C 41 %
4503 25-11-2019 05:30:17 2.4 C 41 %
4504 25-11-2019 05:40:17 2.4 C 41 %
4505 25-11-2019 05:50:17 2.5 C 41 %
4506 25-11-2019 06:00:17 2.5 C 41 %
4507 25-11-2019 06:10:17 2.5 C 41 %
4508 25-11-2019 06:20:17 2.5 C 41 %
4509 25-11-2019 06:30:17 2.6 C 41 %
4510 25-11-2019 06:40:17 2.6 C 41 %
4511 25-11-2019 06:50:17 2.8 C 41 %
4512 25-11-2019 07:00:17 2.8 C 41 %
4513 25-11-2019 07:10:17 2.8 C 41 %
4514 25-11-2019 07:20:17 2.8 C 41 %
4515 25-11-2019 07:30:17 2.8 C 41 %
4516 25-11-2019 07:40:17 2.8 C 41 %
4517 25-11-2019 07:50:17 2.8 C 41 %
4518 25-11-2019 08:00:17 2.9 C 41 %
4519 25-11-2019 08:10:17 3 C 41 %
4520 25-11-2019 08:20:17 3.1 C 41 %
4521 25-11-2019 08:30:18 3.2 C 41 %
4522 25-11-2019 08:40:18 3.3 C 42 %
4523 25-11-2019 08:50:17 3.4 C 42 %
4524 25-11-2019 09:00:17 3.6 C 43 %
4525 25-11-2019 09:10:17 3.6 C 43 %
Sensor: Nr:Datum:Temp:Feuchte:
Aussen-T/F 4526 25-11-2019 09:20:17 3.7 C 43 %
4527 25-11-2019 09:30:17 3.6 C 43 %
4528 25-11-2019 09:40:17 3.8 C 43 %
4529 25-11-2019 09:50:17 3.8 C 42 %
4530 25-11-2019 10:00:17 4.1 C 42 %
4531 25-11-2019 10:10:17 4.5 C 43 %
4532 25-11-2019 10:20:17 4.5 C 43 %
4533 25-11-2019 10:30:17 5.1 C 40 %
4534 25-11-2019 10:40:17 5.1 C 38 %
4535 25-11-2019 10:50:17 5.1 C 37 %
4536 25-11-2019 11:00:17 5.1 C 37 %
4537 25-11-2019 11:10:17 5.2 C 37 %
4538 25-11-2019 11:20:17 5.3 C 37 %
4539 25-11-2019 11:30:17 5.4 C 37 %
4540 25-11-2019 11:40:17 5.8 C 37 %
4541 25-11-2019 11:50:17 6.3 C 36 %
4542 25-11-2019 12:00:17 6.1 C 33 %
4543 25-11-2019 12:10:17 6.4 C 33 %
4544 25-11-2019 12:20:17 6.3 C 33 %
4545 25-11-2019 12:30:17 6.3 C 32 %
4546 25-11-2019 12:40:17 6.6 C 32 %
4547 25-11-2019 12:50:17 6.6 C 32 %
4548 25-11-2019 13:00:17 6.7 C 31 %
4549 25-11-2019 13:10:17 6.8 C 33 %
4550 25-11-2019 13:20:17 7 C 32 %
Sensor: Nr:Datum:Temp:Feuchte:
Aussen-T/F 4551 25-11-2019 13:30:17 7 C 32 %
4552 25-11-2019 13:40:17 7 C 33 %
4553 25-11-2019 13:50:17 6.9 C 32 %
4554 25-11-2019 14:00:17 6.9 C 33 %
4555 25-11-2019 14:10:17 6.8 C 31 %
4556 25-11-2019 14:20:17 6.8 C 35 %
4557 25-11-2019 14:30:17 6.8 C 36 %
4558 25-11-2019 14:40:17 6.9 C 36 %
4559 25-11-2019 14:50:17 6.8 C 35 %
4560 25-11-2019 15:00:17 6.7 C 35 %
4561 25-11-2019 15:10:17 6.7 C 35 %
4562 25-11-2019 15:20:17 6.7 C 34 %
4563 25-11-2019 15:30:17 6.7 C 35 %
4564 25-11-2019 15:40:17 6.6 C 33 %
4565 25-11-2019 15:50:17 6.5 C 34 %
4566 25-11-2019 16:00:17 6.5 C 35 %
4567 25-11-2019 16:10:17 6.4 C 36 %
4568 25-11-2019 16:20:17 6.3 C 36 %
4569 25-11-2019 16:30:17 6.2 C 37 %
4570 25-11-2019 16:40:17 6.1 C 38 %
4571 25-11-2019 16:50:17 6.1 C 38 %
4572 25-11-2019 17:00:17 6 C 38 %
4573 25-11-2019 17:10:17 6 C 38 %
4574 25-11-2019 17:20:17 5.9 C 38 %
4575 25-11-2019 17:30:17 5.9 C 39 %
Sensor: Nr:Datum:Temp:Feuchte:
Aussen-T/F 4576 25-11-2019 17:40:17 5.8 C 39 %
4577 25-11-2019 17:50:17 5.9 C 39 %
4578 25-11-2019 18:00:18 5.9 C 39 %
4579 25-11-2019 18:10:18 5.9 C 40 %
4580 25-11-2019 18:20:17 5.9 C 39 %
4581 25-11-2019 18:30:17 5.9 C 40 %
4582 25-11-2019 18:40:17 5.9 C 40 %
4583 25-11-2019 18:50:17 5.8 C 40 %
4584 25-11-2019 19:00:17 5.8 C 39 %
4585 25-11-2019 19:10:17 5.4 C 38 %
4586 25-11-2019 19:20:17 5 C 38 %
4587 25-11-2019 19:30:17 5.1 C 40 %
4588 25-11-2019 19:40:17 5 C 40 %
4589 25-11-2019 19:50:17 5.2 C 40 %
4590 25-11-2019 20:00:17 5.1 C 41 %
4591 25-11-2019 20:10:17 5.3 C 41 %
4592 25-11-2019 20:20:17 5.4 C 41 %
4593 25-11-2019 20:30:17 5.4 C 41 %
4594 25-11-2019 20:40:17 5.2 C 40 %
4595 25-11-2019 20:50:17 5.1 C 40 %
4596 25-11-2019 21:00:17 5.3 C 40 %
4597 25-11-2019 21:10:17 5.1 C 39 %
4598 25-11-2019 21:20:17 5.1 C 39 %
4599 25-11-2019 21:30:17 5.2 C 40 %
4600 25-11-2019 21:40:17 5 C 40 %
Sensor: Nr:Datum:Temp:Feuchte:
Aussen-T/F 4601 25-11-2019 21:50:17 4.7 C 40 %
4602 25-11-2019 22:00:17 4.7 C 40 %
4603 25-11-2019 22:10:17 4.3 C 40 %
4604 25-11-2019 22:20:17 4.1 C 40 %
4605 25-11-2019 22:30:17 3.9 C 41 %
4606 25-11-2019 22:40:17 4.1 C 41 %
4607 25-11-2019 22:50:17 3.8 C 42 %
4608 25-11-2019 23:00:17 3.5 C 42 %
4609 25-11-2019 23:10:17 3.3 C 42 %
4610 25-11-2019 23:20:17 3.1 C 42 %
4611 25-11-2019 23:30:17 2.7 C 42 %
4612 25-11-2019 23:40:17 3 C 42 %
4613 25-11-2019 23:50:17 2.8 C 43 %
4614 26-11-2019 00:00:17 2.3 C 42 %
4615 26-11-2019 00:10:17 2.3 C 42 %
4616 26-11-2019 00:20:17 2.5 C 42 %
4617 26-11-2019 00:30:17 2.4 C 42 %
4618 26-11-2019 00:40:17 2.5 C 43 %
4619 26-11-2019 00:50:17 3.1 C 42 %
4620 26-11-2019 01:00:17 3.3 C 42 %
4621 26-11-2019 01:10:17 3.4 C 42 %
4622 26-11-2019 01:20:17 3.4 C 42 %
4623 26-11-2019 01:30:17 3.4 C 42 %
4624 26-11-2019 01:40:17 3.5 C 42 %
4625 26-11-2019 01:50:17 3.6 C 42 %
Sensor: Nr:Datum:Temp:Feuchte:
Aussen-T/F 4626 26-11-2019 02:00:17 3.8 C 42 %
4627 26-11-2019 02:10:17 3.8 C 42 %
4628 26-11-2019 02:20:17 3.8 C 41 %
4629 26-11-2019 02:30:17 3.8 C 41 %
4630 26-11-2019 02:40:17 3.9 C 41 %
4631 26-11-2019 02:50:17 4.3 C 41 %
4632 26-11-2019 03:00:17 4.5 C 41 %
4633 26-11-2019 03:10:17 4.5 C 41 %
4634 26-11-2019 03:20:17 4.5 C 41 %
4635 26-11-2019 03:30:17 4.1 C 40 %
4636 26-11-2019 03:40:17 4.4 C 40 %
4637 26-11-2019 03:50:17 4.6 C 41 %
4638 26-11-2019 04:00:17 4.8 C 41 %
4639 26-11-2019 04:10:17 5.1 C 40 %
4640 26-11-2019 04:20:17 5.2 C 40 %
4641 26-11-2019 04:30:18 5.2 C 40 %
4642 26-11-2019 04:40:18 5.4 C 40 %
4643 26-11-2019 04:50:17 5.6 C 40 %
4644 26-11-2019 05:00:18 5.7 C 40 %
4645 26-11-2019 05:10:18 5.7 C 40 %
4646 26-11-2019 05:20:17 5.8 C 40 %
4647 26-11-2019 05:30:17 5.8 C 40 %
4648 26-11-2019 05:40:17 5.8 C 40 %
4649 26-11-2019 05:50:17 5.9 C 40 %
4650 26-11-2019 06:00:17 5.9 C 40 %
Sensor: Nr:Datum:Temp:Feuchte:
Aussen-T/F 4651 26-11-2019 06:10:17 5.9 C 40 %
4652 26-11-2019 06:20:17 6 C 39 %
4653 26-11-2019 06:30:17 6.2 C 40 %
4654 26-11-2019 06:40:17 6.2 C 39 %
4655 26-11-2019 06:50:17 6.2 C 39 %
4656 26-11-2019 07:00:17 6.5 C 40 %
4657 26-11-2019 07:10:17 6.5 C 40 %
4658 26-11-2019 07:20:17 6.6 C 39 %
4659 26-11-2019 07:30:17 6.6 C 39 %
4660 26-11-2019 07:40:17 6.6 C 39 %
4661 26-11-2019 07:50:17 6.7 C 39 %
4662 26-11-2019 08:00:17 6.8 C 39 %
4663 26-11-2019 08:10:17 6.9 C 39 %
4664 26-11-2019 08:20:17 6.8 C 38 %
4665 26-11-2019 08:30:17 6.8 C 38 %
4666 26-11-2019 08:40:17 6.7 C 38 %
4667 26-11-2019 08:50:17 6.8 C 38 %
4668 26-11-2019 09:00:17 7 C 37 %
4669 26-11-2019 09:10:17 7.4 C 38 %
4670 26-11-2019 09:20:17 7.6 C 37 %
4671 26-11-2019 09:30:17 7.9 C 36 %
4672 26-11-2019 09:40:17 8.3 C 33 %
4673 26-11-2019 09:50:17 8.5 C 31 %
4674 26-11-2019 10:00:17 8.8 C 32 %
4675 26-11-2019 10:10:17 9.1 C 32 %
Sensor: Nr:Datum:Temp:Feuchte:
Aussen-T/F 4676 26-11-2019 10:20:17 9.4 C 32 %